Darstellungsparameter: Aktuell verwendete Einstellungen:
Skalierung der Graphiken ... ?
xyx+y,   Skalierungsfaktor:      Skalierung: Modus: x, Faktor: 1
Darstellungszeitraum ... ?
Vom - - bis: - -   Zeitraum: 02.07.2011 - 22.07.2011
Min/Max/Avg-Anzeige ... ?
Zeige MMA aktuell
Zeige MMA Monat
Zeige MMA alles
Zeige --A aktuell
Zeige --A Monat
Zeige --A alles
Keine MMA-Anzeige
MMA:
Average (ber die Originaldaten)
MMA-Basis: 02.07.2011 - 22.07.2011
Quicknavigation für Darstellung... ?
Tage:      1T, 2T, 3T, 5T -1T -2T -3T -5T +1T +2T +3T +5T
Wochen: 1W, 2W, 3W -1W -2W -3W +1W +2W +3W
Monate: 1M, 3M, 6M -1M -3M -6M +1M +3M +6M
Jahre:    1J, 3J, 5J, 10J -1J -3J -5J -10J +1J +3J +5J +10J
Nutze für die Darstellung ... ?
Originaldaten oder Mittelwerte auf ...
Stundenbasis Tagesbasis Wochenbasis
Monatsbasis Jahresbasis      Datenbasis: Original-Daten
Darstellen als:
Statistik (Auto) Statistik J:M      Darstellung:
Zur Graphik,    zurück zur Übersicht aller Sensoren.
 
Tabellarische Datenbersicht: ?
 
Sensor: Nr:Datum:Temp:Abs-Feuchte:Windchill:Wind:
Aussen-T/F 1 02-07-2011 00:09:03 11.1 C 7.66 g/m*3 11.1 C 0 km/h
2 02-07-2011 00:21:03 10.7 C 7.66 g/m*3 10.7 C 0 km/h
3 02-07-2011 00:33:03 10.2 C 7.42 g/m*3 10.2 C 0 km/h
4 02-07-2011 00:45:03 10 C 7.52 g/m*3 10 C 0 km/h
5 02-07-2011 00:57:03 9.9 C 7.66 g/m*3 9.9 C 0 km/h
6 02-07-2011 01:09:03 9.9 C 7.75 g/m*3 9.9 C 0 km/h
7 02-07-2011 01:21:03 9.6 C 7.6 g/m*3 9.6 C 0 km/h
8 02-07-2011 01:33:03 9.8 C 7.79 g/m*3 9.8 C 0 km/h
9 02-07-2011 01:45:03 9.7 C 7.74 g/m*3 9.7 C 0 km/h
10 02-07-2011 01:57:03 9.6 C 7.69 g/m*3 9.6 C 0 km/h
11 02-07-2011 02:09:03 9.4 C 7.6 g/m*3 9.4 C 0 km/h
12 02-07-2011 02:21:03 9.3 C 7.64 g/m*3 9.3 C 0 km/h
13 02-07-2011 02:33:04 9.2 C 7.59 g/m*3 9.2 C 0 km/h
14 02-07-2011 02:45:04 8.9 C 7.53 g/m*3 8.9 C 0 km/h
15 02-07-2011 02:57:04 8.4 C 7.38 g/m*3 8.4 C 0 km/h
16 02-07-2011 03:09:04 8.4 C 7.38 g/m*3 8.4 C 0 km/h
17 02-07-2011 03:21:04 8.7 C 7.61 g/m*3 8.7 C 0 km/h
18 02-07-2011 03:33:04 8.2 C 7.29 g/m*3 8.2 C 0 km/h
19 02-07-2011 03:45:04 8.7 C 7.61 g/m*3 8.7 C 0 km/h
20 02-07-2011 03:57:04 8.8 C 7.66 g/m*3 8.8 C 0 km/h
21 02-07-2011 04:09:04 9 C 7.76 g/m*3 9 C 0 km/h
22 02-07-2011 04:21:04 9.5 C 8.01 g/m*3 9.5 C 0 km/h
23 02-07-2011 04:33:04 9.6 C 7.97 g/m*3 9.6 C 0 km/h
24 02-07-2011 04:45:04 9.6 C 7.97 g/m*3 9.6 C 0 km/h
25 02-07-2011 04:57:04 9.2 C 7.59 g/m*3 9.2 C 0 km/h
Sensor: Nr:Datum:Temp:Abs-Feuchte:Windchill:Wind:
Aussen-T/F 26 02-07-2011 05:09:04 8.4 C 7.3 g/m*3 8.4 C 0 km/h
27 02-07-2011 05:21:04 8.5 C 7.43 g/m*3 8.5 C 0 km/h
28 02-07-2011 05:33:04 8.4 C 7.47 g/m*3 8.4 C 0 km/h
29 02-07-2011 05:45:04 8.4 C 7.47 g/m*3 8.4 C 0 km/h
30 02-07-2011 05:57:04 8.4 C 7.47 g/m*3 8.4 C 0 km/h
31 02-07-2011 06:09:04 8.3 C 7.42 g/m*3 8.3 C 0 km/h
32 02-07-2011 06:21:04 8.7 C 7.7 g/m*3 8.7 C 0 km/h
33 02-07-2011 06:33:04 9.2 C 7.86 g/m*3 9.2 C 0 km/h
34 02-07-2011 06:45:05 9.5 C 8.01 g/m*3 9.5 C 0 km/h
35 02-07-2011 06:57:05 9.8 C 8.07 g/m*3 9.8 C 0 km/h
36 02-07-2011 07:09:05 10 C 7.99 g/m*3 10 C 0 km/h
37 02-07-2011 07:21:05 10.2 C 7.9 g/m*3 10.2 C 0 km/h
38 02-07-2011 07:33:05 10.6 C 8.1 g/m*3 10.6 C 0 km/h
39 02-07-2011 07:45:05 11.4 C 8.31 g/m*3 11.4 C 0 km/h
40 02-07-2011 07:57:05 11.3 C 7.85 g/m*3 11.3 C 0 km/h
41 02-07-2011 08:09:05 12.3 C 8.14 g/m*3 12.3 C 0 km/h
42 02-07-2011 08:21:05 13.2 C 8.04 g/m*3 13.2 C 0 km/h
43 02-07-2011 08:33:05 13 C 7.83 g/m*3 13 C 0 km/h
44 02-07-2011 08:45:05 13 C 7.48 g/m*3 13 C 0 km/h
45 02-07-2011 08:57:05 14.2 C 7.33 g/m*3 14.2 C 0 km/h
46 02-07-2011 09:09:05 14 C 7.12 g/m*3 14 C 0 km/h
47 02-07-2011 09:21:05 14.8 C 7.09 g/m*3 14.8 C 0 km/h
48 02-07-2011 09:33:02 14 C 7 g/m*3 14 C 0 km/h
49 02-07-2011 09:45:02 14.4 C 7.05 g/m*3 14.4 C 0 km/h
50 02-07-2011 09:57:02 15 C 6.67 g/m*3 15 C 0 km/h
Sensor: Nr:Datum:Temp:Abs-Feuchte:Windchill:Wind:
Aussen-T/F 51 02-07-2011 10:09:02 16.2 C 6.62 g/m*3 16.2 C 0 km/h
52 02-07-2011 10:21:02 15.8 C 6.33 g/m*3 15.8 C 0 km/h
53 02-07-2011 10:33:02 17.3 C 6.33 g/m*3 17.3 C 0 km/h
54 02-07-2011 10:45:01 16.5 C 6.6 g/m*3 16.5 C 0 km/h
55 02-07-2011 10:57:01 16.1 C 6.03 g/m*3 16.1 C 0 km/h
56 02-07-2011 11:09:01 15 C 6.03 g/m*3 15 C 0 km/h
57 02-07-2011 11:21:01 14.2 C 6.47 g/m*3 14.2 C 0 km/h
58 02-07-2011 11:33:02 15.1 C 6.71 g/m*3 15.1 C 0 km/h
59 02-07-2011 11:45:02 15.6 C 6.52 g/m*3 15.6 C 0 km/h
60 02-07-2011 11:57:03 16.9 C 6.18 g/m*3 16.9 C 0 km/h
61 02-07-2011 12:09:01 15.7 C 6.42 g/m*3 15.7 C 0 km/h
62 02-07-2011 12:21:02 15.5 C 6.21 g/m*3 15.5 C 0 km/h
63 02-07-2011 12:33:02 15.7 C 6.15 g/m*3 15.7 C 0 km/h
64 02-07-2011 12:45:01 16.5 C 6.04 g/m*3 16.5 C 0 km/h
65 02-07-2011 12:57:01 18.5 C 6.01 g/m*3 18.5 C 0 km/h
66 02-07-2011 13:09:02 17.9 C 5.65 g/m*3 17.9 C 0 km/h
67 02-07-2011 13:21:01 17.8 C 5.92 g/m*3 17.8 C 0 km/h
68 02-07-2011 13:33:02 18 C 5.68 g/m*3 18 C 0 km/h
69 02-07-2011 13:45:02 17.5 C 5.67 g/m*3 17.5 C 0 km/h
70 02-07-2011 13:57:02 17.4 C 5.34 g/m*3 17.4 C 0 km/h
71 02-07-2011 14:09:02 19.6 C 5.91 g/m*3 19.6 C 0 km/h
72 02-07-2011 14:21:01 20.4 C 5.48 g/m*3 20.4 C 0 km/h
73 02-07-2011 14:33:02 19.7 C 5.94 g/m*3 19.7 C 0 km/h
74 02-07-2011 14:45:01 21.7 C 5.91 g/m*3 21.7 C 0 km/h
75 02-07-2011 14:57:01 22.9 C 5.52 g/m*3 22.9 C 0 km/h
Sensor: Nr:Datum:Temp:Abs-Feuchte:Windchill:Wind:
Aussen-T/F 76 02-07-2011 15:09:02 20.9 C 5.46 g/m*3 20.9 C 0 km/h
77 02-07-2011 15:21:01 20.1 C 5.91 g/m*3 20.1 C 0 km/h
78 02-07-2011 15:33:02 21.1 C 5.71 g/m*3 21.1 C 0 km/h
79 02-07-2011 15:45:01 22.9 C 5.31 g/m*3 22.9 C 0 km/h
80 02-07-2011 15:57:01 21.4 C 4.69 g/m*3 21.4 C 0 km/h
81 02-07-2011 16:09:02 18.5 C 5.54 g/m*3 18.5 C 0 km/h
82 02-07-2011 16:21:02 19.7 C 5.26 g/m*3 19.7 C 0 km/h
83 02-07-2011 16:33:02 19.6 C 5.06 g/m*3 19.6 C 0 km/h
84 02-07-2011 16:45:02 20.3 C 4.92 g/m*3 20.3 C 0 km/h
85 02-07-2011 16:57:02 19.2 C 5.61 g/m*3 19.2 C 0 km/h
86 02-07-2011 17:09:01 19.6 C 4.9 g/m*3 19.6 C 0 km/h
87 02-07-2011 17:21:02 19.6 C 4.9 g/m*3 19.6 C 0 km/h
88 02-07-2011 17:33:01 18.5 C 5.54 g/m*3 18.5 C 0 km/h
89 02-07-2011 17:45:02 18 C 5.84 g/m*3 18 C 0 km/h
90 02-07-2011 17:57:02 18.2 C 5.75 g/m*3 18.2 C 0 km/h
91 02-07-2011 18:09:01 18.9 C 5.51 g/m*3 18.9 C 0 km/h
92 02-07-2011 18:21:01 20.1 C 5.91 g/m*3 20.1 C 0 km/h
93 02-07-2011 18:33:01 21.1 C 5.53 g/m*3 21.1 C 0 km/h
94 02-07-2011 18:45:02 21.4 C 5.25 g/m*3 21.4 C 0 km/h
95 02-07-2011 18:57:02 20.2 C 5.42 g/m*3 20.2 C 0 km/h
96 02-07-2011 19:09:02 19.2 C 5.28 g/m*3 19.2 C 0 km/h
97 02-07-2011 19:21:02 18.7 C 5.6 g/m*3 18.7 C 0 km/h
98 02-07-2011 19:33:02 18.2 C 5.75 g/m*3 18.2 C 0 km/h
99 02-07-2011 19:45:02 17.5 C 5.81 g/m*3 17.5 C 0 km/h
100 02-07-2011 19:57:02 17.2 C 5.86 g/m*3 17.2 C 0 km/h
Sensor: Nr:Datum:Temp:Abs-Feuchte:Windchill:Wind:
Aussen-T/F 101 02-07-2011 20:09:01 17.2 C 5.86 g/m*3 17.2 C 0 km/h
102 02-07-2011 20:21:02 17.3 C 5.89 g/m*3 17.3 C 0 km/h
103 02-07-2011 20:33:02 17.1 C 5.97 g/m*3 17.1 C 0 km/h
104 02-07-2011 20:45:02 16.9 C 5.9 g/m*3 16.9 C 0 km/h
105 02-07-2011 20:57:02 16.7 C 5.97 g/m*3 16.7 C 0 km/h
106 02-07-2011 21:09:01 16.4 C 6 g/m*3 16.4 C 0 km/h
107 02-07-2011 21:21:01 16 C 6.27 g/m*3 16 C 0 km/h
108 02-07-2011 21:33:01 15.9 C 6.23 g/m*3 15.9 C 0 km/h
109 02-07-2011 21:45:02 15.6 C 6.38 g/m*3 15.6 C 0 km/h
110 02-07-2011 21:57:02 15.4 C 6.44 g/m*3 15.4 C 0 km/h
111 02-07-2011 22:09:02 15 C 6.41 g/m*3 15 C 0 km/h
112 02-07-2011 22:21:02 14.9 C 6.63 g/m*3 14.9 C 0 km/h
113 02-07-2011 22:33:02 14.7 C 6.55 g/m*3 14.7 C 0 km/h
114 02-07-2011 22:46:03 14.8 C 6.59 g/m*3 14.8 C 0 km/h
115 02-07-2011 22:58:03 15.1 C 6.45 g/m*3 15.1 C 0 km/h
116 02-07-2011 23:10:03 15.1 C 6.45 g/m*3 15.1 C 0 km/h
117 02-07-2011 23:22:03 15.1 C 6.45 g/m*3 15.1 C 0 km/h
118 02-07-2011 23:34:03 15 C 6.41 g/m*3 15 C 0 km/h
119 02-07-2011 23:46:03 14.8 C 6.46 g/m*3 14.8 C 0 km/h
120 02-07-2011 23:58:03 14.7 C 6.42 g/m*3 14.7 C 0 km/h
121 03-07-2011 00:10:03 14.6 C 6.51 g/m*3 14.6 C 0 km/h
122 03-07-2011 00:22:03 14.4 C 6.68 g/m*3 14.4 C 0 km/h
123 03-07-2011 00:34:03 14.4 C 6.68 g/m*3 14.4 C 0 km/h
124 03-07-2011 00:46:03 14.4 C 6.68 g/m*3 14.4 C 0 km/h
125 03-07-2011 00:58:03 14.4 C 6.68 g/m*3 14.4 C 0 km/h
Sensor: Nr:Datum:Temp:Abs-Feuchte:Windchill:Wind:
Aussen-T/F 126 03-07-2011 01:10:03 14.3 C 6.76 g/m*3 14.3 C 0 km/h
127 03-07-2011 01:22:03 14.4 C 6.92 g/m*3 14.4 C 0 km/h
128 03-07-2011 01:34:03 14.1 C 6.8 g/m*3 14.1 C 0 km/h
129 03-07-2011 01:46:03 14 C 6.88 g/m*3 14 C 0 km/h
130 03-07-2011 01:58:03 14 C 7 g/m*3 14 C 0 km/h
131 03-07-2011 02:10:03 13.9 C 7.07 g/m*3 13.9 C 0 km/h
132 03-07-2011 02:22:04 13.9 C 7.19 g/m*3 13.9 C 0 km/h
133 03-07-2011 02:34:04 13.7 C 7.1 g/m*3 13.7 C 0 km/h
134 03-07-2011 02:46:04 13.5 C 6.9 g/m*3 13.5 C 0 km/h
135 03-07-2011 02:58:04 13.6 C 6.94 g/m*3 13.6 C 0 km/h
136 03-07-2011 03:10:04 13.6 C 6.94 g/m*3 13.6 C 0 km/h
137 03-07-2011 03:22:04 13.4 C 6.86 g/m*3 13.4 C 0 km/h
138 03-07-2011 03:34:04 13.4 C 6.86 g/m*3 13.4 C 0 km/h
139 03-07-2011 03:46:04 13.3 C 6.93 g/m*3 13.3 C 0 km/h
140 03-07-2011 03:58:04 13.1 C 6.73 g/m*3 13.1 C 0 km/h
141 03-07-2011 04:10:04 13 C 6.8 g/m*3 13 C 0 km/h
142 03-07-2011 04:22:04 13 C 6.8 g/m*3 13 C 0 km/h
143 03-07-2011 04:34:04 13 C 6.8 g/m*3 13 C 0 km/h
144 03-07-2011 04:46:04 13 C 6.8 g/m*3 13 C 0 km/h
145 03-07-2011 04:58:04 13 C 6.8 g/m*3 13 C 0 km/h
146 03-07-2011 05:10:04 12.9 C 6.76 g/m*3 12.9 C 0 km/h
147 03-07-2011 05:22:04 12.9 C 6.76 g/m*3 12.9 C 0 km/h
148 03-07-2011 05:34:04 12.9 C 6.76 g/m*3 12.9 C 0 km/h
149 03-07-2011 05:46:04 12.9 C 6.76 g/m*3 12.9 C 0 km/h
150 03-07-2011 05:58:04 12.9 C 6.76 g/m*3 12.9 C 0 km/h
Sensor: Nr:Datum:Temp:Abs-Feuchte:Windchill:Wind:
Aussen-T/F 151 03-07-2011 06:10:04 12.9 C 6.76 g/m*3 12.9 C 0 km/h
152 03-07-2011 06:22:04 12.9 C 6.76 g/m*3 12.9 C 0 km/h
153 03-07-2011 06:34:05 12.9 C 6.76 g/m*3 12.9 C 0 km/h
154 03-07-2011 06:46:05 12.9 C 6.76 g/m*3 12.9 C 0 km/h
155 03-07-2011 06:58:05 12.8 C 7.06 g/m*3 12.8 C 0 km/h
156 03-07-2011 07:10:05 12.7 C 7.12 g/m*3 12.7 C 0 km/h
157 03-07-2011 07:22:05 12.6 C 7.08 g/m*3 12.6 C 0 km/h
158 03-07-2011 07:34:05 12.6 C 7.08 g/m*3 12.6 C 0 km/h
159 03-07-2011 07:46:05 12.6 C 7.08 g/m*3 12.6 C 0 km/h
160 03-07-2011 07:58:05 12.6 C 7.08 g/m*3 12.6 C 0 km/h
161 03-07-2011 08:10:05 12.6 C 7.08 g/m*3 12.6 C 0 km/h
162 03-07-2011 08:22:05 12.6 C 7.08 g/m*3 12.6 C 0 km/h
163 03-07-2011 08:34:05 12.6 C 7.08 g/m*3 12.6 C 0 km/h
164 03-07-2011 08:46:05 12.6 C 7.08 g/m*3 12.6 C 0 km/h
165 03-07-2011 08:58:05 12.6 C 7.08 g/m*3 12.6 C 0 km/h
166 03-07-2011 09:10:05 12.6 C 7.08 g/m*3 12.6 C 0 km/h
167 03-07-2011 09:22:05 12.6 C 7.08 g/m*3 12.6 C 0 km/h
168 03-07-2011 09:34:05 12.6 C 7.08 g/m*3 12.6 C 0 km/h
169 03-07-2011 09:46:01 12.6 C 7.08 g/m*3 12.6 C 0 km/h
170 03-07-2011 09:58:01 12.6 C 7.08 g/m*3 12.6 C 0 km/h
171 03-07-2011 10:10:02 12.6 C 7.08 g/m*3 12.6 C 0 km/h
172 03-07-2011 10:22:02 12.6 C 7.08 g/m*3 12.6 C 0 km/h
173 03-07-2011 14:34:02 18.9 C 5.83 g/m*3 18.9 C 0 km/h
174 03-07-2011 14:46:01 20 C 6.05 g/m*3 20 C 0 km/h
175 03-07-2011 14:58:01 21.6 C 5.88 g/m*3 21.6 C 0 km/h
Sensor: Nr:Datum:Temp:Abs-Feuchte:Windchill:Wind:
Aussen-T/F 176 03-07-2011 15:10:02 21.6 C 6.07 g/m*3 21.6 C 0 km/h
177 03-07-2011 15:22:01 22 C 5.82 g/m*3 22 C 0 km/h
178 03-07-2011 15:34:02 20.8 C 5.98 g/m*3 20.8 C 0 km/h
179 03-07-2011 15:46:01 24.5 C 5.82 g/m*3 24.5 C 0 km/h
180 03-07-2011 15:58:01 23.9 C 5.41 g/m*3 23.9 C 0 km/h
181 03-07-2011 16:10:02 24.7 C 5.66 g/m*3 24.7 C 0 km/h
182 03-07-2011 16:22:01 25 C 5.52 g/m*3 25 C 0 km/h
183 03-07-2011 16:34:02 25.9 C 5.81 g/m*3 25.9 C 0 km/h
184 03-07-2011 16:46:01 26 C 5.6 g/m*3 26 C 0 km/h
185 03-07-2011 16:58:01 27.5 C 5.56 g/m*3 27.5 C 0 km/h
186 03-07-2011 17:10:02 26.6 C 5.29 g/m*3 26.6 C 0 km/h
187 03-07-2011 17:22:02 24.5 C 5.82 g/m*3 24.5 C 0 km/h
188 03-07-2011 17:34:02 23.2 C 5.82 g/m*3 23.2 C 0 km/h
189 03-07-2011 17:46:02 25 C 5.75 g/m*3 25 C 0 km/h
190 03-07-2011 17:58:02 25.4 C 5.89 g/m*3 25.4 C 0 km/h
191 03-07-2011 18:10:01 26 C 6.09 g/m*3 26 C 0 km/h
192 03-07-2011 18:22:02 25.4 C 5.89 g/m*3 25.4 C 0 km/h
193 03-07-2011 18:34:01 24.4 C 6.01 g/m*3 24.4 C 0 km/h
194 03-07-2011 18:46:02 24.6 C 5.63 g/m*3 24.6 C 0 km/h
195 03-07-2011 18:58:02 24.7 C 5.88 g/m*3 24.7 C 0 km/h
196 03-07-2011 19:10:01 23.2 C 6.24 g/m*3 23.2 C 0 km/h
197 03-07-2011 19:22:01 23.4 C 6.1 g/m*3 23.4 C 0 km/h
198 03-07-2011 19:34:01 24.1 C 6.13 g/m*3 24.1 C 0 km/h
199 03-07-2011 19:46:02 22.2 C 6.28 g/m*3 22.2 C 0 km/h
200 03-07-2011 19:58:02 19.9 C 6.87 g/m*3 19.9 C 0 km/h
Sensor: Nr:Datum:Temp:Abs-Feuchte:Windchill:Wind:
Aussen-T/F 201 03-07-2011 20:10:02 19 C 6.84 g/m*3 19 C 0 km/h
202 03-07-2011 20:22:02 18.7 C 7.04 g/m*3 18.7 C 0 km/h
203 03-07-2011 20:34:02 18.2 C 6.99 g/m*3 18.2 C 0 km/h
204 03-07-2011 20:46:01 18 C 7.07 g/m*3 18 C 0 km/h
205 03-07-2011 20:58:01 17.7 C 7.24 g/m*3 17.7 C 0 km/h
206 03-07-2011 21:10:02 17.2 C 7.32 g/m*3 17.2 C 0 km/h
207 03-07-2011 21:22:01 16.5 C 7.58 g/m*3 16.5 C 0 km/h
208 03-07-2011 21:34:02 16.2 C 7.58 g/m*3 16.2 C 0 km/h
209 03-07-2011 21:46:02 16.2 C 7.58 g/m*3 16.2 C 0 km/h
210 03-07-2011 21:58:02 16.2 C 7.58 g/m*3 16.2 C 0 km/h
211 03-07-2011 22:10:02 16.2 C 7.58 g/m*3 16.2 C 0 km/h
212 03-07-2011 22:23:04 16.2 C 7.58 g/m*3 16.2 C 0 km/h
213 03-07-2011 22:35:04 16.2 C 7.58 g/m*3 16.2 C 0 km/h
214 03-07-2011 22:47:04 16.2 C 7.58 g/m*3 16.2 C 0 km/h
215 03-07-2011 22:59:04 16.2 C 7.58 g/m*3 16.2 C 0 km/h
216 03-07-2011 23:11:04 16.2 C 7.58 g/m*3 16.2 C 0 km/h
217 03-07-2011 23:23:04 16.2 C 7.58 g/m*3 16.2 C 0 km/h
218 03-07-2011 23:35:05 16.2 C 7.58 g/m*3 16.2 C 0 km/h
219 03-07-2011 23:47:05 16.2 C 7.58 g/m*3 16.2 C 0 km/h
220 03-07-2011 23:59:05 16.2 C 7.58 g/m*3 16.2 C 0 km/h
221 04-07-2011 00:11:05 16.2 C 7.58 g/m*3 16.2 C 0 km/h
222 04-07-2011 00:23:05 16.2 C 7.58 g/m*3 16.2 C 0 km/h
223 04-07-2011 00:35:05 16.2 C 7.58 g/m*3 16.2 C 0 km/h
224 04-07-2011 00:47:05 16.2 C 7.58 g/m*3 16.2 C 0 km/h
225 04-07-2011 00:59:05 16.2 C 7.58 g/m*3 16.2 C 0 km/h
Sensor: Nr:Datum:Temp:Abs-Feuchte:Windchill:Wind:
Aussen-T/F 226 04-07-2011 01:11:05 16.2 C 7.58 g/m*3 16.2 C 0 km/h
227 04-07-2011 01:23:05 16.2 C 7.58 g/m*3 16.2 C 0 km/h
228 04-07-2011 01:35:05 16.2 C 7.58 g/m*3 16.2 C 0 km/h
229 04-07-2011 01:47:05 16.2 C 7.58 g/m*3 16.2 C 0 km/h
230 04-07-2011 01:59:05 16.2 C 7.58 g/m*3 16.2 C 0 km/h
231 04-07-2011 02:11:05 16.2 C 7.58 g/m*3 16.2 C 0 km/h
232 04-07-2011 02:23:05 16.2 C 7.58 g/m*3 16.2 C 0 km/h
233 04-07-2011 02:35:05 16.2 C 7.58 g/m*3 16.2 C 0 km/h
234 04-07-2011 02:47:05 16.2 C 7.58 g/m*3 16.2 C 0 km/h
235 04-07-2011 02:59:05 16.2 C 7.58 g/m*3 16.2 C 0 km/h
236 04-07-2011 03:11:05 16.2 C 7.58 g/m*3 16.2 C 0 km/h
237 04-07-2011 03:23:05 16.2 C 7.58 g/m*3 16.2 C 0 km/h
238 04-07-2011 03:35:06 16.2 C 7.58 g/m*3 16.2 C 0 km/h
239 04-07-2011 03:47:06 16.2 C 7.58 g/m*3 16.2 C 0 km/h
240 04-07-2011 03:59:06 16.2 C 7.58 g/m*3 16.2 C 0 km/h
241 04-07-2011 04:11:06 16.2 C 7.58 g/m*3 16.2 C 0 km/h
242 04-07-2011 04:23:06 16.2 C 7.58 g/m*3 16.2 C 0 km/h
243 04-07-2011 04:35:06 16.2 C 7.58 g/m*3 16.2 C 0 km/h
244 04-07-2011 04:47:06 16.2 C 7.58 g/m*3 16.2 C 0 km/h
245 04-07-2011 04:59:06 16.2 C 7.58 g/m*3 16.2 C 0 km/h
246 04-07-2011 05:11:06 16.2 C 7.58 g/m*3 16.2 C 0 km/h
247 04-07-2011 05:23:06 16.2 C 7.58 g/m*3 16.2 C 0 km/h
248 04-07-2011 05:35:06 16.2 C 7.58 g/m*3 16.2 C 0 km/h
249 04-07-2011 05:47:06 16.2 C 7.58 g/m*3 16.2 C 0 km/h
250 04-07-2011 05:59:06 16.2 C 7.58 g/m*3 16.2 C 0 km/h
Sensor: Nr:Datum:Temp:Abs-Feuchte:Windchill:Wind:
Aussen-T/F 251 04-07-2011 06:11:06 16.2 C 7.58 g/m*3 16.2 C 0 km/h
252 04-07-2011 06:23:06 16.2 C 7.58 g/m*3 16.2 C 0 km/h
253 04-07-2011 06:35:06 16.2 C 7.58 g/m*3 16.2 C 0 km/h
254 04-07-2011 06:47:06 16.2 C 7.58 g/m*3 16.2 C 0 km/h
255 04-07-2011 06:59:06 16.2 C 7.58 g/m*3 16.2 C 0 km/h
256 04-07-2011 07:11:06 16.2 C 7.58 g/m*3 16.2 C 0 km/h
257 04-07-2011 07:23:03 16.2 C 7.58 g/m*3 16.2 C 0 km/h
258 04-07-2011 07:35:04 16.2 C 7.58 g/m*3 16.2 C 0 km/h
259 04-07-2011 07:47:02 16.2 C 7.58 g/m*3 16.2 C 0 km/h
260 04-07-2011 07:59:02 16.2 C 7.58 g/m*3 16.2 C 0 km/h
261 05-07-2011 08:00:01 12.2 C 9.28 g/m*3 12.2 C 0 km/h
262 05-07-2011 08:12:02 12.5 C 9.35 g/m*3 12.5 C 0 km/h
263 05-07-2011 08:24:03 12.6 C 9.4 g/m*3 12.6 C 0 km/h
264 05-07-2011 08:36:03 13.1 C 9.47 g/m*3 13.1 C 0 km/h
265 05-07-2011 08:48:02 14 C 9.89 g/m*3 14 C 0 km/h
266 05-07-2011 09:00:02 14.4 C 9.89 g/m*3 14.4 C 0 km/h
267 05-07-2011 09:12:02 14.7 C 9.82 g/m*3 14.7 C 0 km/h
268 05-07-2011 09:24:02 15 C 9.75 g/m*3 15 C 0 km/h
269 05-07-2011 09:36:01 15.6 C 9.84 g/m*3 15.6 C 0 km/h
270 05-07-2011 09:48:01 16.1 C 9.73 g/m*3 16.1 C 0 km/h
271 05-07-2011 10:00:01 16.7 C 9.81 g/m*3 16.7 C 0 km/h
272 05-07-2011 10:12:02 17.3 C 9.58 g/m*3 17.3 C 0 km/h
273 05-07-2011 10:24:02 17.6 C 9.6 g/m*3 17.6 C 0 km/h
274 05-07-2011 10:36:01 18.1 C 9.58 g/m*3 18.1 C 0 km/h
275 05-07-2011 10:48:02 18.8 C 9.66 g/m*3 18.8 C 0 km/h
Sensor: Nr:Datum:Temp:Abs-Feuchte:Windchill:Wind:
Aussen-T/F 276 05-07-2011 11:00:02 20.1 C 9.73 g/m*3 20.1 C 0 km/h
277 05-07-2011 11:12:01 21.7 C 9.35 g/m*3 21.7 C 0 km/h
278 05-07-2011 11:24:02 20.7 C 9.36 g/m*3 20.7 C 0 km/h
279 05-07-2011 11:36:01 21.6 C 9.67 g/m*3 21.6 C 0 km/h
280 05-07-2011 11:48:03 21.8 C 9.59 g/m*3 21.8 C 0 km/h
281 05-07-2011 12:00:03 22.3 C 9.68 g/m*3 22.3 C 0 km/h
282 05-07-2011 12:12:02 22.5 C 9.59 g/m*3 22.5 C 0 km/h
283 05-07-2011 12:24:02 22.8 C 9.55 g/m*3 22.8 C 0 km/h
284 05-07-2011 12:36:03 23.3 C 8.78 g/m*3 23.3 C 0 km/h
285 05-07-2011 12:48:02 24 C 8.27 g/m*3 24 C 0 km/h
286 05-07-2011 13:00:03 24.1 C 7.88 g/m*3 24.1 C 0 km/h
287 05-07-2011 13:12:01 24.9 C 8.24 g/m*3 24.9 C 0 km/h
288 05-07-2011 13:24:02 25.8 C 8.67 g/m*3 25.8 C 0 km/h
289 05-07-2011 13:36:02 30.6 C 8.14 g/m*3 30.6 C 0 km/h
290 05-07-2011 13:48:02 31.9 C 6.72 g/m*3 31.9 C 0 km/h
291 05-07-2011 14:00:02 31.8 C 6.68 g/m*3 31.8 C 0 km/h
292 05-07-2011 14:12:03 31.9 C 6.72 g/m*3 31.9 C 0 km/h
293 05-07-2011 14:24:02 31.8 C 6.68 g/m*3 31.8 C 0 km/h
294 05-07-2011 14:36:02 33.2 C 7.2 g/m*3 33.2 C 0 km/h
295 05-07-2011 14:48:02 33 C 7.12 g/m*3 33 C 0 km/h
296 05-07-2011 15:00:02 32.5 C 6.93 g/m*3 32.5 C 0 km/h
297 05-07-2011 15:12:02 31.8 C 6.68 g/m*3 31.8 C 0 km/h
298 05-07-2011 15:24:02 32.4 C 6.9 g/m*3 32.4 C 0 km/h
299 05-07-2011 15:36:02 33.1 C 7.16 g/m*3 33.1 C 0 km/h
300 05-07-2011 15:48:02 31.4 C 6.54 g/m*3 31.4 C 0 km/h
Sensor: Nr:Datum:Temp:Abs-Feuchte:Windchill:Wind:
Aussen-T/F 301 05-07-2011 16:00:02 33 C 7.12 g/m*3 33 C 0 km/h
302 05-07-2011 16:12:01 31.9 C 6.72 g/m*3 31.9 C 0 km/h
303 05-07-2011 16:24:02 31.8 C 6.68 g/m*3 31.8 C 0 km/h
304 05-07-2011 16:36:02 31.3 C 6.83 g/m*3 31.3 C 0 km/h
305 05-07-2011 16:48:01 31.3 C 8.13 g/m*3 31.3 C 0 km/h
306 05-07-2011 17:00:01 31.2 C 6.79 g/m*3 31.2 C 0 km/h
307 05-07-2011 17:12:01 30.3 C 8.32 g/m*3 30.3 C 0 km/h
308 05-07-2011 17:24:01 30.4 C 7.75 g/m*3 30.4 C 0 km/h
309 05-07-2011 17:36:02 31.5 C 7.89 g/m*3 31.5 C 0 km/h
310 05-07-2011 17:48:02 31.2 C 9.7 g/m*3 31.2 C 0 km/h
311 05-07-2011 18:00:02 29.7 C 10.44 g/m*3 29.7 C 0 km/h
312 05-07-2011 18:12:02 31.2 C 7.44 g/m*3 31.2 C 0 km/h
313 05-07-2011 18:24:02 30.2 C 8.28 g/m*3 30.2 C 0 km/h
314 05-07-2011 18:36:02 30.8 C 8.23 g/m*3 30.8 C 0 km/h
315 05-07-2011 18:48:02 30.6 C 7.2 g/m*3 30.6 C 0 km/h
316 05-07-2011 19:00:02 31 C 8 g/m*3 31 C 0 km/h
317 05-07-2011 19:12:02 31.4 C 7.52 g/m*3 31.4 C 0 km/h
318 05-07-2011 19:24:02 29 C 9.48 g/m*3 29 C 0 km/h
319 05-07-2011 19:36:02 29.9 C 9.65 g/m*3 29.9 C 0 km/h
320 05-07-2011 19:48:02 27.9 C 10.28 g/m*3 27.9 C 0 km/h
321 05-07-2011 20:00:02 26 C 10.47 g/m*3 26 C 0 km/h
322 05-07-2011 20:12:02 25.5 C 10.42 g/m*3 25.5 C 0 km/h
323 05-07-2011 20:24:02 25 C 10.36 g/m*3 25 C 0 km/h
324 05-07-2011 20:36:02 24.7 C 10.19 g/m*3 24.7 C 0 km/h
325 05-07-2011 20:48:02 23.9 C 10.38 g/m*3 23.9 C 0 km/h
Sensor: Nr:Datum:Temp:Abs-Feuchte:Windchill:Wind:
Aussen-T/F 326 05-07-2011 21:00:02 22.9 C 10.63 g/m*3 22.9 C 0 km/h
327 05-07-2011 21:12:02 22 C 10.09 g/m*3 22 C 0 km/h
328 05-07-2011 21:24:02 21.5 C 10.18 g/m*3 21.5 C 0 km/h
329 05-07-2011 21:36:02 21 C 10.08 g/m*3 21 C 0 km/h
330 05-07-2011 21:48:02 20.8 C 10.14 g/m*3 20.8 C 0 km/h
331 05-07-2011 22:00:02 20.6 C 10.2 g/m*3 20.6 C 0 km/h
332 05-07-2011 22:12:02 20.4 C 10.26 g/m*3 20.4 C 0 km/h
333 05-07-2011 22:24:02 20.2 C 10.14 g/m*3 20.2 C 0 km/h
334 05-07-2011 22:36:02 19.9 C 10.31 g/m*3 19.9 C 0 km/h
335 05-07-2011 22:49:03 20 C 10.37 g/m*3 20 C 0 km/h
336 05-07-2011 23:01:03 19.6 C 10.47 g/m*3 19.6 C 0 km/h
337 05-07-2011 23:13:03 19.6 C 10.47 g/m*3 19.6 C 0 km/h
338 05-07-2011 23:25:03 19.2 C 10.39 g/m*3 19.2 C 0 km/h
339 05-07-2011 23:37:03 18.6 C 10.35 g/m*3 18.6 C 0 km/h
340 05-07-2011 23:49:03 18.1 C 10.51 g/m*3 18.1 C 0 km/h
341 06-07-2011 00:01:03 17.8 C 10.47 g/m*3 17.8 C 0 km/h
342 06-07-2011 00:13:03 17.4 C 10.37 g/m*3 17.4 C 0 km/h
343 06-07-2011 00:25:03 17.1 C 10.48 g/m*3 17.1 C 0 km/h
344 06-07-2011 00:37:03 16.8 C 10.58 g/m*3 16.8 C 0 km/h
345 06-07-2011 00:49:03 17 C 10.71 g/m*3 17 C 0 km/h
346 06-07-2011 01:01:03 16.8 C 10.72 g/m*3 16.8 C 0 km/h
347 06-07-2011 01:13:03 16.9 C 10.64 g/m*3 16.9 C 0 km/h
348 06-07-2011 01:25:03 16.6 C 10.45 g/m*3 16.6 C 0 km/h
349 06-07-2011 01:37:03 16.1 C 10.14 g/m*3 16.1 C 0 km/h
350 06-07-2011 01:49:03 15.7 C 10.17 g/m*3 15.7 C 0 km/h
Sensor: Nr:Datum:Temp:Abs-Feuchte:Windchill:Wind:
Aussen-T/F 351 06-07-2011 02:01:03 15.6 C 10.24 g/m*3 15.6 C 0 km/h
352 06-07-2011 02:13:03 15.4 C 10.12 g/m*3 15.4 C 0 km/h
353 06-07-2011 02:25:03 15.3 C 10.06 g/m*3 15.3 C 0 km/h
354 06-07-2011 02:37:03 15.2 C 9.99 g/m*3 15.2 C 0 km/h
355 06-07-2011 02:49:03 15 C 9.87 g/m*3 15 C 0 km/h
356 06-07-2011 03:01:04 14.9 C 9.81 g/m*3 14.9 C 0 km/h
357 06-07-2011 03:13:04 14.6 C 9.64 g/m*3 14.6 C 0 km/h
358 06-07-2011 03:25:04 14.6 C 9.64 g/m*3 14.6 C 0 km/h
359 06-07-2011 03:37:04 14.7 C 9.82 g/m*3 14.7 C 0 km/h
360 06-07-2011 03:49:04 14.8 C 9.88 g/m*3 14.8 C 0 km/h
361 06-07-2011 04:01:04 14.6 C 9.39 g/m*3 14.6 C 0 km/h
362 06-07-2011 04:13:04 14.5 C 9.08 g/m*3 14.5 C 0 km/h
363 06-07-2011 04:25:04 14.6 C 9.26 g/m*3 14.6 C 0 km/h
364 06-07-2011 04:37:04 14.8 C 9.37 g/m*3 14.8 C 0 km/h
365 06-07-2011 04:49:04 15 C 9.36 g/m*3 15 C 0 km/h
366 06-07-2011 05:01:04 14.6 C 9.13 g/m*3 14.6 C 0 km/h
367 06-07-2011 05:13:04 14.2 C 9.04 g/m*3 14.2 C 0 km/h
368 06-07-2011 05:25:04 14.2 C 9.28 g/m*3 14.2 C 0 km/h
369 06-07-2011 05:37:04 14.1 C 9.34 g/m*3 14.1 C 0 km/h
370 06-07-2011 05:49:04 14.2 C 9.4 g/m*3 14.2 C 0 km/h
371 06-07-2011 06:01:05 14.5 C 9.58 g/m*3 14.5 C 0 km/h
372 06-07-2011 06:13:05 14.8 C 9.5 g/m*3 14.8 C 0 km/h
373 06-07-2011 06:25:05 15.6 C 9.71 g/m*3 15.6 C 0 km/h
374 06-07-2011 06:37:05 16 C 9.67 g/m*3 16 C 0 km/h
375 06-07-2011 06:49:05 16 C 9.67 g/m*3 16 C 0 km/h
Sensor: Nr:Datum:Temp:Abs-Feuchte:Windchill:Wind:
Aussen-T/F 376 06-07-2011 07:01:05 15.3 C 9.79 g/m*3 15.3 C 0 km/h
377 06-07-2011 07:13:05 15.4 C 10.25 g/m*3 15.4 C 0 km/h
378 06-07-2011 07:25:03 15.6 C 10.24 g/m*3 15.6 C 0 km/h
379 06-07-2011 07:37:02 15.8 C 10.36 g/m*3 15.8 C 0 km/h
380 06-07-2011 07:49:03 16.1 C 10.28 g/m*3 16.1 C 0 km/h
381 06-07-2011 08:01:02 16.7 C 10.23 g/m*3 16.7 C 0 km/h
382 06-07-2011 08:13:02 16.4 C 10.05 g/m*3 16.4 C 0 km/h
383 06-07-2011 08:25:02 16.6 C 9.75 g/m*3 16.6 C 0 km/h
384 06-07-2011 08:37:02 16.9 C 9.64 g/m*3 16.9 C 0 km/h
385 06-07-2011 08:49:02 16.9 C 9.49 g/m*3 16.9 C 0 km/h
386 06-07-2011 09:01:01 17.2 C 9.52 g/m*3 17.2 C 0 km/h
387 06-07-2011 09:13:01 17.9 C 9.01 g/m*3 17.9 C 0 km/h
388 06-07-2011 09:25:02 18.3 C 9.22 g/m*3 18.3 C 0 km/h
389 06-07-2011 09:37:02 19 C 9.29 g/m*3 19 C 0 km/h
390 06-07-2011 09:49:02 21.3 C 8.57 g/m*3 21.3 C 0 km/h
391 06-07-2011 10:01:01 22 C 7.96 g/m*3 22 C 0 km/h
392 06-07-2011 10:13:01 22.5 C 7.99 g/m*3 22.5 C 0 km/h
393 06-07-2011 10:25:01 22.8 C 8.33 g/m*3 22.8 C 0 km/h
394 06-07-2011 10:37:02 23.3 C 8.36 g/m*3 23.3 C 0 km/h
395 06-07-2011 10:49:02 23.8 C 8.39 g/m*3 23.8 C 0 km/h
396 06-07-2011 11:01:02 23.7 C 8.13 g/m*3 23.7 C 0 km/h
397 06-07-2011 11:13:02 23.2 C 8.32 g/m*3 23.2 C 0 km/h
398 06-07-2011 11:25:02 23 C 8.22 g/m*3 23 C 0 km/h
399 06-07-2011 11:37:02 24.1 C 8.1 g/m*3 24.1 C 0 km/h
400 06-07-2011 11:49:01 23.4 C 7.57 g/m*3 23.4 C 0 km/h
Sensor: Nr:Datum:Temp:Abs-Feuchte:Windchill:Wind:
Aussen-T/F 401 06-07-2011 12:01:02 23.7 C 7.91 g/m*3 23.7 C 0 km/h
402 06-07-2011 12:13:02 23.2 C 7.28 g/m*3 23.2 C 0 km/h
403 06-07-2011 12:25:01 23.4 C 7.57 g/m*3 23.4 C 0 km/h
404 06-07-2011 12:37:01 23.7 C 7.49 g/m*3 23.7 C 0 km/h
405 06-07-2011 12:49:01 24 C 7.18 g/m*3 24 C 0 km/h
406 06-07-2011 13:01:02 24.7 C 7.24 g/m*3 24.7 C 0 km/h
407 06-07-2011 13:13:02 24.8 C 6.83 g/m*3 24.8 C 0 km/h
408 06-07-2011 13:25:01 26.2 C 7.14 g/m*3 26.2 C 0 km/h
409 06-07-2011 13:37:02 27.4 C 6.58 g/m*3 27.4 C 0 km/h
410 06-07-2011 13:49:02 27.6 C 6.38 g/m*3 27.6 C 0 km/h
411 06-07-2011 14:01:02 27.5 C 6.61 g/m*3 27.5 C 0 km/h
412 06-07-2011 14:13:03 26.6 C 6.8 g/m*3 26.6 C 0 km/h
413 06-07-2011 14:25:01 27.3 C 6.54 g/m*3 27.3 C 0 km/h
414 06-07-2011 14:37:02 26.4 C 6.47 g/m*3 26.4 C 0 km/h
415 06-07-2011 14:49:01 26.8 C 6.62 g/m*3 26.8 C 0 km/h
416 06-07-2011 15:01:02 25.3 C 6.79 g/m*3 25.3 C 0 km/h
417 06-07-2011 15:13:02 24.6 C 6.75 g/m*3 24.6 C 0 km/h
418 06-07-2011 15:25:02 24 C 6.53 g/m*3 24 C 0 km/h
419 06-07-2011 15:37:02 23.7 C 6.63 g/m*3 23.7 C 0 km/h
420 06-07-2011 15:49:01 23.5 C 6.98 g/m*3 23.5 C 0 km/h
421 06-07-2011 16:01:02 24.8 C 7.06 g/m*3 24.8 C 0 km/h
422 06-07-2011 16:13:02 26.5 C 6.76 g/m*3 26.5 C 0 km/h
423 06-07-2011 16:25:02 28.7 C 6.22 g/m*3 28.7 C 0 km/h
424 06-07-2011 16:37:01 29.4 C 5.87 g/m*3 29.4 C 0 km/h
425 06-07-2011 16:49:02 30.2 C 6.44 g/m*3 30.2 C 0 km/h
Sensor: Nr:Datum:Temp:Abs-Feuchte:Windchill:Wind:
Aussen-T/F 426 06-07-2011 17:01:01 26.2 C 6.15 g/m*3 26.2 C 0 km/h
427 06-07-2011 17:13:01 30.2 C 6.44 g/m*3 30.2 C 0 km/h
428 06-07-2011 17:25:02 28.1 C 5.74 g/m*3 28.1 C 0 km/h
429 06-07-2011 17:37:01 25.9 C 6.78 g/m*3 25.9 C 0 km/h
430 06-07-2011 17:49:02 25 C 6.91 g/m*3 25 C 0 km/h
431 06-07-2011 18:01:01 26.3 C 6.68 g/m*3 26.3 C 0 km/h
432 06-07-2011 18:13:01 28.1 C 5.74 g/m*3 28.1 C 0 km/h
433 06-07-2011 18:25:01 24.6 C 6.75 g/m*3 24.6 C 0 km/h
434 06-07-2011 18:37:02 28 C 6.25 g/m*3 28 C 0 km/h
435 06-07-2011 18:49:02 25.3 C 6.79 g/m*3 25.3 C 0 km/h
436 06-07-2011 19:01:02 26.8 C 6.36 g/m*3 26.8 C 0 km/h
437 06-07-2011 19:13:02 28.2 C 6.05 g/m*3 28.2 C 0 km/h
438 06-07-2011 19:25:02 28.6 C 6.46 g/m*3 28.6 C 0 km/h
439 06-07-2011 19:37:02 27.1 C 5.69 g/m*3 27.1 C 0 km/h
440 06-07-2011 19:49:01 25.4 C 6.36 g/m*3 25.4 C 0 km/h
441 06-07-2011 20:01:02 23.9 C 6.71 g/m*3 23.9 C 0 km/h
442 06-07-2011 20:13:02 23.1 C 7.44 g/m*3 23.1 C 0 km/h
443 06-07-2011 20:25:01 22 C 7.96 g/m*3 22 C 0 km/h
444 06-07-2011 20:37:01 21.3 C 8.39 g/m*3 21.3 C 0 km/h
445 06-07-2011 20:49:02 20.8 C 8.51 g/m*3 20.8 C 0 km/h
446 06-07-2011 21:01:02 20.4 C 8.31 g/m*3 20.4 C 0 km/h
447 06-07-2011 21:13:02 20 C 8.3 g/m*3 20 C 0 km/h
448 06-07-2011 21:25:02 19.9 C 8.08 g/m*3 19.9 C 0 km/h
449 06-07-2011 21:37:02 19.5 C 8.22 g/m*3 19.5 C 0 km/h
450 06-07-2011 21:49:01 19.4 C 8.01 g/m*3 19.4 C 0 km/h
Sensor: Nr:Datum:Temp:Abs-Feuchte:Windchill:Wind:
Aussen-T/F 451 06-07-2011 22:01:02 18.9 C 8.26 g/m*3 18.9 C 0 km/h
452 06-07-2011 22:13:02 17.4 C 8.3 g/m*3 17.4 C 0 km/h
453 06-07-2011 22:25:01 16.6 C 8.33 g/m*3 16.6 C 0 km/h
454 06-07-2011 22:37:02 16.4 C 8.51 g/m*3 16.4 C 0 km/h
455 06-07-2011 22:49:01 15.7 C 8.3 g/m*3 15.7 C 0 km/h
456 06-07-2011 23:02:02 15.3 C 8.23 g/m*3 15.3 C 0 km/h
457 06-07-2011 23:14:02 15.4 C 8.67 g/m*3 15.4 C 0 km/h
458 06-07-2011 23:26:02 15.2 C 8.7 g/m*3 15.2 C 0 km/h
459 06-07-2011 23:38:02 15.3 C 8.75 g/m*3 15.3 C 0 km/h
460 06-07-2011 23:50:02 15.7 C 8.83 g/m*3 15.7 C 0 km/h
461 07-07-2011 00:02:02 15.7 C 8.83 g/m*3 15.7 C 0 km/h
462 07-07-2011 00:14:02 15.6 C 8.91 g/m*3 15.6 C 0 km/h
463 07-07-2011 00:26:02 15.7 C 8.96 g/m*3 15.7 C 0 km/h
464 07-07-2011 00:38:03 15.6 C 8.91 g/m*3 15.6 C 0 km/h
465 07-07-2011 00:50:03 15.4 C 8.93 g/m*3 15.4 C 0 km/h
466 07-07-2011 01:02:03 14.6 C 8.88 g/m*3 14.6 C 0 km/h
467 07-07-2011 01:14:03 13.8 C 8.58 g/m*3 13.8 C 0 km/h
468 07-07-2011 01:26:03 13.5 C 8.66 g/m*3 13.5 C 0 km/h
469 07-07-2011 01:38:03 13.2 C 8.38 g/m*3 13.2 C 0 km/h
470 07-07-2011 01:50:03 13.4 C 8.6 g/m*3 13.4 C 0 km/h
471 07-07-2011 02:02:03 13.5 C 8.54 g/m*3 13.5 C 0 km/h
472 07-07-2011 02:14:03 14 C 8.68 g/m*3 14 C 0 km/h
473 07-07-2011 02:26:03 14.1 C 8.74 g/m*3 14.1 C 0 km/h
474 07-07-2011 02:38:03 14 C 8.68 g/m*3 14 C 0 km/h
475 07-07-2011 02:50:03 14.3 C 8.97 g/m*3 14.3 C 0 km/h
Sensor: Nr:Datum:Temp:Abs-Feuchte:Windchill:Wind:
Aussen-T/F 476 07-07-2011 03:02:03 14.7 C 9.07 g/m*3 14.7 C 0 km/h
477 07-07-2011 03:14:03 14.3 C 8.97 g/m*3 14.3 C 0 km/h
478 07-07-2011 03:26:03 13.8 C 8.94 g/m*3 13.8 C 0 km/h
479 07-07-2011 03:38:03 14 C 9.17 g/m*3 14 C 0 km/h
480 07-07-2011 03:50:03 14.4 C 9.52 g/m*3 14.4 C 0 km/h
481 07-07-2011 04:02:03 14.5 C 9.45 g/m*3 14.5 C 0 km/h
482 07-07-2011 04:14:03 14.1 C 9.22 g/m*3 14.1 C 0 km/h
483 07-07-2011 04:26:03 13.9 C 9.59 g/m*3 13.9 C 0 km/h
484 07-07-2011 04:38:03 14.1 C 9.83 g/m*3 14.1 C 0 km/h
485 07-07-2011 04:50:03 13.9 C 9.83 g/m*3 13.9 C 0 km/h
486 07-07-2011 05:02:03 13.8 C 9.89 g/m*3 13.8 C 0 km/h
487 07-07-2011 05:14:04 13.6 C 9.77 g/m*3 13.6 C 0 km/h
488 07-07-2011 05:26:04 13.7 C 9.83 g/m*3 13.7 C 0 km/h
489 07-07-2011 05:38:04 13.2 C 9.53 g/m*3 13.2 C 0 km/h
490 07-07-2011 05:50:04 13.3 C 9.7 g/m*3 13.3 C 0 km/h
491 07-07-2011 06:02:04 13.7 C 10.07 g/m*3 13.7 C 0 km/h
492 07-07-2011 06:14:04 13.5 C 10.06 g/m*3 13.5 C 0 km/h
493 07-07-2011 06:26:04 13.8 C 10.25 g/m*3 13.8 C 0 km/h
494 07-07-2011 06:38:04 13.9 C 10.31 g/m*3 13.9 C 0 km/h
495 07-07-2011 06:50:04 14.1 C 10.32 g/m*3 14.1 C 0 km/h
496 07-07-2011 07:02:04 14.4 C 10.51 g/m*3 14.4 C 0 km/h
497 07-07-2011 07:14:04 14.3 C 10.2 g/m*3 14.3 C 0 km/h
498 07-07-2011 07:26:02 14.9 C 10.45 g/m*3 14.9 C 0 km/h
499 07-07-2011 07:38:01 15.4 C 10.38 g/m*3 15.4 C 0 km/h
500 07-07-2011 07:50:01 16.1 C 10.14 g/m*3 16.1 C 0 km/h
Sensor: Nr:Datum:Temp:Abs-Feuchte:Windchill:Wind:
Aussen-T/F 501 07-07-2011 08:02:02 16.4 C 9.77 g/m*3 16.4 C 0 km/h
502 07-07-2011 08:14:02 16.8 C 9.44 g/m*3 16.8 C 0 km/h
503 07-07-2011 08:26:02 17.5 C 9.54 g/m*3 17.5 C 0 km/h
504 07-07-2011 08:38:01 17.7 C 9.35 g/m*3 17.7 C 0 km/h
505 07-07-2011 08:50:02 18.3 C 9.54 g/m*3 18.3 C 0 km/h
506 07-07-2011 09:02:01 18.4 C 9.44 g/m*3 18.4 C 0 km/h
507 07-07-2011 09:14:01 18.4 C 9.12 g/m*3 18.4 C 0 km/h
508 07-07-2011 09:26:02 18.3 C 9.38 g/m*3 18.3 C 0 km/h
509 07-07-2011 09:38:01 18.3 C 9.85 g/m*3 18.3 C 0 km/h
510 07-07-2011 09:50:02 18.5 C 9.81 g/m*3 18.5 C 0 km/h
511 07-07-2011 10:02:02 19.1 C 9.51 g/m*3 19.1 C 0 km/h
512 07-07-2011 10:14:03 19.9 C 8.25 g/m*3 19.9 C 0 km/h
513 07-07-2011 10:26:01 20.3 C 8.27 g/m*3 20.3 C 0 km/h
514 07-07-2011 10:38:02 21 C 8.06 g/m*3 21 C 0 km/h
515 07-07-2011 10:50:01 21.4 C 7.69 g/m*3 21.4 C 0 km/h
516 07-07-2011 11:02:02 22.4 C 7.75 g/m*3 22.4 C 0 km/h
517 07-07-2011 11:14:02 22.5 C 7.59 g/m*3 22.5 C 0 km/h
518 07-07-2011 11:26:02 22.9 C 7.56 g/m*3 22.9 C 0 km/h
519 07-07-2011 11:38:02 23.9 C 6.71 g/m*3 23.9 C 0 km/h
520 07-07-2011 11:50:02 22.5 C 5.99 g/m*3 22.5 C 0 km/h
521 07-07-2011 12:02:02 23.4 C 6.1 g/m*3 23.4 C 0 km/h
522 07-07-2011 12:14:02 23.4 C 6.31 g/m*3 23.4 C 0 km/h
523 07-07-2011 12:26:02 24.3 C 6.2 g/m*3 24.3 C 0 km/h
524 07-07-2011 12:38:01 23.8 C 6.02 g/m*3 23.8 C 0 km/h
525 07-07-2011 12:50:02 25 C 6.22 g/m*3 25 C 0 km/h
Sensor: Nr:Datum:Temp:Abs-Feuchte:Windchill:Wind:
Aussen-T/F 526 07-07-2011 13:02:01 25.7 C 6.22 g/m*3 25.7 C 0 km/h
527 07-07-2011 13:14:01 24.9 C 6.18 g/m*3 24.9 C 0 km/h
528 07-07-2011 13:26:02 26.8 C 6.36 g/m*3 26.8 C 0 km/h
529 07-07-2011 13:38:01 25.8 C 6.26 g/m*3 25.8 C 0 km/h
530 07-07-2011 13:50:02 28.2 C 6.32 g/m*3 28.2 C 0 km/h
531 07-07-2011 14:02:01 25.7 C 5.99 g/m*3 25.7 C 0 km/h
532 07-07-2011 14:14:01 25.8 C 6.02 g/m*3 25.8 C 0 km/h
533 07-07-2011 14:26:01 24.9 C 6.18 g/m*3 24.9 C 0 km/h
534 07-07-2011 14:38:01 28.5 C 6.15 g/m*3 28.5 C 0 km/h
535 07-07-2011 14:50:02 27.4 C 6.05 g/m*3 27.4 C 0 km/h
536 07-07-2011 15:02:02 27.5 C 6.08 g/m*3 27.5 C 0 km/h
537 07-07-2011 15:14:02 26.7 C 6.33 g/m*3 26.7 C 0 km/h
538 07-07-2011 15:26:02 25.8 C 6.26 g/m*3 25.8 C 0 km/h
539 07-07-2011 15:38:02 26.2 C 6.15 g/m*3 26.2 C 0 km/h
540 07-07-2011 15:50:01 25.6 C 6.19 g/m*3 25.6 C 0 km/h
541 07-07-2011 16:02:02 25.8 C 6.26 g/m*3 25.8 C 0 km/h
542 07-07-2011 16:14:02 24.8 C 6.15 g/m*3 24.8 C 0 km/h
543 07-07-2011 16:26:01 24.8 C 6.15 g/m*3 24.8 C 0 km/h
544 07-07-2011 16:38:02 24.2 C 7.26 g/m*3 24.2 C 0 km/h
545 07-07-2011 16:50:02 24 C 7.61 g/m*3 24 C 0 km/h
546 07-07-2011 17:02:02 23.9 C 8 g/m*3 23.9 C 0 km/h
547 07-07-2011 17:14:02 24.1 C 7.88 g/m*3 24.1 C 0 km/h
548 07-07-2011 17:26:01 23.2 C 8.11 g/m*3 23.2 C 0 km/h
549 07-07-2011 17:38:02 23.5 C 6.98 g/m*3 23.5 C 0 km/h
550 07-07-2011 17:50:02 23.6 C 7.44 g/m*3 23.6 C 0 km/h
Sensor: Nr:Datum:Temp:Abs-Feuchte:Windchill:Wind:
Aussen-T/F 551 07-07-2011 18:02:02 23.4 C 6.73 g/m*3 23.4 C 0 km/h
552 07-07-2011 18:14:02 23.7 C 7.06 g/m*3 23.7 C 0 km/h
553 07-07-2011 18:26:02 23.3 C 7.95 g/m*3 23.3 C 0 km/h
554 07-07-2011 18:38:02 23.6 C 7.44 g/m*3 23.6 C 0 km/h
555 07-07-2011 18:50:01 23.4 C 6.94 g/m*3 23.4 C 0 km/h
556 07-07-2011 19:02:02 22.6 C 8.44 g/m*3 22.6 C 0 km/h
557 07-07-2011 19:14:02 22.5 C 8.59 g/m*3 22.5 C 0 km/h
558 07-07-2011 19:26:02 22.3 C 8.69 g/m*3 22.3 C 0 km/h
559 07-07-2011 19:38:02 21.8 C 9.02 g/m*3 21.8 C 0 km/h
560 07-07-2011 19:50:02 21.6 C 8.91 g/m*3 21.6 C 0 km/h
561 07-07-2011 20:02:01 21.1 C 8.29 g/m*3 21.1 C 0 km/h
562 07-07-2011 20:14:01 21 C 8.43 g/m*3 21 C 0 km/h
563 07-07-2011 20:26:02 21.1 C 8.29 g/m*3 21.1 C 0 km/h
564 07-07-2011 20:38:01 21 C 8.43 g/m*3 21 C 0 km/h
565 07-07-2011 20:50:02 20.8 C 8.33 g/m*3 20.8 C 0 km/h
566 07-07-2011 21:02:01 21 C 8.43 g/m*3 21 C 0 km/h
567 07-07-2011 21:14:01 20.6 C 8.59 g/m*3 20.6 C 0 km/h
568 07-07-2011 21:26:01 20.3 C 8.62 g/m*3 20.3 C 0 km/h
569 07-07-2011 21:38:02 20 C 8.64 g/m*3 20 C 0 km/h
570 07-07-2011 21:51:03 19.7 C 8.66 g/m*3 19.7 C 0 km/h
571 07-07-2011 22:03:03 19.5 C 8.73 g/m*3 19.5 C 0 km/h
572 07-07-2011 22:15:03 18.7 C 9.13 g/m*3 18.7 C 0 km/h
573 07-07-2011 22:27:03 18.4 C 8.97 g/m*3 18.4 C 0 km/h
574 07-07-2011 22:39:03 18.5 C 9.02 g/m*3 18.5 C 0 km/h
575 07-07-2011 22:51:03 18.8 C 8.86 g/m*3 18.8 C 0 km/h
Sensor: Nr:Datum:Temp:Abs-Feuchte:Windchill:Wind:
Aussen-T/F 576 07-07-2011 23:03:03 18.8 C 8.86 g/m*3 18.8 C 0 km/h
577 07-07-2011 23:15:03 18.7 C 8.81 g/m*3 18.7 C 0 km/h
578 07-07-2011 23:27:03 18.4 C 8.81 g/m*3 18.4 C 0 km/h
579 07-07-2011 23:39:03 18.2 C 8.86 g/m*3 18.2 C 0 km/h
580 07-07-2011 23:51:03 18.1 C 8.81 g/m*3 18.1 C 0 km/h
581 08-07-2011 00:03:03 17.8 C 8.95 g/m*3 17.8 C 0 km/h
582 08-07-2011 00:15:03 17.3 C 8.99 g/m*3 17.3 C 0 km/h
583 08-07-2011 00:27:03 17.1 C 9.03 g/m*3 17.1 C 0 km/h
584 08-07-2011 00:39:03 17.1 C 9.03 g/m*3 17.1 C 0 km/h
585 08-07-2011 00:51:03 17.2 C 9.08 g/m*3 17.2 C 0 km/h
586 08-07-2011 01:03:03 17.3 C 9.13 g/m*3 17.3 C 0 km/h
587 08-07-2011 01:15:03 17.4 C 9.04 g/m*3 17.4 C 0 km/h
588 08-07-2011 01:27:03 17.3 C 9.13 g/m*3 17.3 C 0 km/h
589 08-07-2011 01:39:04 17.5 C 9.09 g/m*3 17.5 C 0 km/h
590 08-07-2011 01:51:04 17.3 C 8.99 g/m*3 17.3 C 0 km/h
591 08-07-2011 02:03:04 17.1 C 9.03 g/m*3 17.1 C 0 km/h
592 08-07-2011 02:15:04 17.2 C 9.08 g/m*3 17.2 C 0 km/h
593 08-07-2011 02:27:04 17.1 C 9.03 g/m*3 17.1 C 0 km/h
594 08-07-2011 02:39:04 16.9 C 9.06 g/m*3 16.9 C 0 km/h
595 08-07-2011 02:51:04 16.8 C 9.29 g/m*3 16.8 C 0 km/h
596 08-07-2011 03:03:04 17 C 9.26 g/m*3 17 C 0 km/h
597 08-07-2011 03:15:04 16.7 C 9.24 g/m*3 16.7 C 0 km/h
598 08-07-2011 03:27:04 16.9 C 9.35 g/m*3 16.9 C 0 km/h
599 08-07-2011 03:39:04 17 C 9.26 g/m*3 17 C 0 km/h
600 08-07-2011 03:51:04 16.4 C 9.35 g/m*3 16.4 C 0 km/h
Sensor: Nr:Datum:Temp:Abs-Feuchte:Windchill:Wind:
Aussen-T/F 601 08-07-2011 04:03:04 15.8 C 9.69 g/m*3 15.8 C 0 km/h
602 08-07-2011 04:15:04 15.3 C 9.92 g/m*3 15.3 C 0 km/h
603 08-07-2011 04:27:04 15.2 C 10.25 g/m*3 15.2 C 0 km/h
604 08-07-2011 04:39:04 14.9 C 10.32 g/m*3 14.9 C 0 km/h
605 08-07-2011 04:51:04 14.9 C 10.58 g/m*3 14.9 C 0 km/h
606 08-07-2011 05:03:04 14.7 C 10.58 g/m*3 14.7 C 0 km/h
607 08-07-2011 05:15:04 14.5 C 10.57 g/m*3 14.5 C 0 km/h
608 08-07-2011 05:27:04 14.5 C 10.7 g/m*3 14.5 C 0 km/h
609 08-07-2011 05:39:04 14.4 C 10.63 g/m*3 14.4 C 0 km/h
610 08-07-2011 05:51:04 14.3 C 10.57 g/m*3 14.3 C 0 km/h
611 08-07-2011 06:03:04 14 C 10.37 g/m*3 14 C 0 km/h
612 08-07-2011 06:15:05 13.7 C 10.3 g/m*3 13.7 C 0 km/h
613 08-07-2011 06:27:05 13.6 C 10.24 g/m*3 13.6 C 0 km/h
614 08-07-2011 06:39:05 13.6 C 10.24 g/m*3 13.6 C 0 km/h
615 08-07-2011 06:51:05 13.9 C 10.43 g/m*3 13.9 C 0 km/h
616 08-07-2011 07:03:05 14.1 C 10.32 g/m*3 14.1 C 0 km/h
617 08-07-2011 07:15:05 14.5 C 10.32 g/m*3 14.5 C 0 km/h
618 08-07-2011 07:27:05 14.6 C 10.14 g/m*3 14.6 C 0 km/h
619 08-07-2011 07:39:03 14.7 C 10.07 g/m*3 14.7 C 0 km/h
620 08-07-2011 07:51:02 15 C 10.13 g/m*3 15 C 0 km/h
621 08-07-2011 08:03:02 15.6 C 9.84 g/m*3 15.6 C 0 km/h
622 08-07-2011 08:15:02 15.8 C 9.69 g/m*3 15.8 C 0 km/h
623 08-07-2011 08:27:02 16 C 9.81 g/m*3 16 C 0 km/h
624 08-07-2011 08:39:02 17.2 C 9.81 g/m*3 17.2 C 0 km/h
625 08-07-2011 08:51:01 17.8 C 9.11 g/m*3 17.8 C 0 km/h
Sensor: Nr:Datum:Temp:Abs-Feuchte:Windchill:Wind:
Aussen-T/F 626 08-07-2011 09:03:02 17.9 C 8.7 g/m*3 17.9 C 0 km/h
627 08-07-2011 09:15:02 17.8 C 8.65 g/m*3 17.8 C 0 km/h
628 08-07-2011 09:27:02 17.5 C 8.5 g/m*3 17.5 C 0 km/h
629 08-07-2011 09:39:01 17.8 C 8.65 g/m*3 17.8 C 0 km/h
630 08-07-2011 09:51:02 18.1 C 8.5 g/m*3 18.1 C 0 km/h
631 08-07-2011 10:03:01 18.5 C 8.23 g/m*3 18.5 C 0 km/h
632 08-07-2011 10:15:01 18.9 C 7.94 g/m*3 18.9 C 0 km/h
633 08-07-2011 10:27:01 18.9 C 7.94 g/m*3 18.9 C 0 km/h
634 08-07-2011 10:39:02 18.9 C 8.1 g/m*3 18.9 C 0 km/h
635 08-07-2011 10:51:02 20.8 C 7.79 g/m*3 20.8 C 0 km/h
636 08-07-2011 11:03:02 20.3 C 7.03 g/m*3 20.3 C 0 km/h
637 08-07-2011 11:15:02 20.2 C 6.99 g/m*3 20.2 C 0 km/h
638 08-07-2011 11:27:02 19.9 C 7.04 g/m*3 19.9 C 0 km/h
639 08-07-2011 11:39:02 20.3 C 6.68 g/m*3 20.3 C 0 km/h
640 08-07-2011 11:51:02 20.2 C 6.82 g/m*3 20.2 C 0 km/h
641 08-07-2011 12:03:02 20.7 C 6.84 g/m*3 20.7 C 0 km/h
642 08-07-2011 12:15:02 20.6 C 6.8 g/m*3 20.6 C 0 km/h
643 08-07-2011 12:27:02 20.9 C 6.92 g/m*3 20.9 C 0 km/h
644 08-07-2011 12:39:01 21.8 C 6.72 g/m*3 21.8 C 0 km/h
645 08-07-2011 12:51:02 21 C 6.78 g/m*3 21 C 0 km/h
646 08-07-2011 13:03:01 21.9 C 6.75 g/m*3 21.9 C 0 km/h
647 08-07-2011 13:15:02 22.3 C 6.91 g/m*3 22.3 C 0 km/h
648 08-07-2011 13:27:02 23.7 C 6.42 g/m*3 23.7 C 0 km/h
649 08-07-2011 13:39:01 25.9 C 6.54 g/m*3 25.9 C 0 km/h
650 08-07-2011 13:51:03 28.4 C 6.12 g/m*3 28.4 C 0 km/h
Sensor: Nr:Datum:Temp:Abs-Feuchte:Windchill:Wind:
Aussen-T/F 651 08-07-2011 14:03:02 27.7 C 5.62 g/m*3 27.7 C 0 km/h
652 08-07-2011 14:15:02 25.4 C 5.41 g/m*3 25.4 C 0 km/h
653 08-07-2011 14:27:03 23.7 C 6.42 g/m*3 23.7 C 0 km/h
654 08-07-2011 14:39:02 25 C 5.75 g/m*3 25 C 0 km/h
655 08-07-2011 14:51:02 24.3 C 5.97 g/m*3 24.3 C 0 km/h
656 08-07-2011 15:03:01 25.6 C 6.19 g/m*3 25.6 C 0 km/h
657 08-07-2011 15:15:02 24.5 C 5.82 g/m*3 24.5 C 0 km/h
658 08-07-2011 15:27:02 26.2 C 6.4 g/m*3 26.2 C 0 km/h
659 08-07-2011 15:39:02 26.7 C 6.33 g/m*3 26.7 C 0 km/h
660 08-07-2011 15:51:01 23.8 C 6.24 g/m*3 23.8 C 0 km/h
661 08-07-2011 16:03:02 26.2 C 5.91 g/m*3 26.2 C 0 km/h
662 08-07-2011 16:15:01 24.4 C 6.23 g/m*3 24.4 C 0 km/h
663 08-07-2011 16:27:01 27.6 C 5.85 g/m*3 27.6 C 0 km/h
664 08-07-2011 16:39:02 26 C 6.09 g/m*3 26 C 0 km/h
665 08-07-2011 16:51:02 23.9 C 6.06 g/m*3 23.9 C 0 km/h
666 08-07-2011 17:03:02 24.8 C 5.69 g/m*3 24.8 C 0 km/h
667 08-07-2011 17:15:01 26 C 5.11 g/m*3 26 C 0 km/h
668 08-07-2011 17:27:01 26.3 C 5.69 g/m*3 26.3 C 0 km/h
669 08-07-2011 17:39:02 27.1 C 5.43 g/m*3 27.1 C 0 km/h
670 08-07-2011 17:51:02 27.7 C 5.62 g/m*3 27.7 C 0 km/h
671 08-07-2011 18:03:02 28.4 C 5.56 g/m*3 28.4 C 0 km/h
672 08-07-2011 18:15:01 28.7 C 5.65 g/m*3 28.7 C 0 km/h
673 08-07-2011 18:27:01 27.1 C 5.18 g/m*3 27.1 C 0 km/h
674 08-07-2011 18:39:02 27 C 5.15 g/m*3 27 C 0 km/h
675 08-07-2011 18:51:02 26.9 C 5.12 g/m*3 26.9 C 0 km/h
Sensor: Nr:Datum:Temp:Abs-Feuchte:Windchill:Wind:
Aussen-T/F 676 08-07-2011 19:03:02 26.6 C 5.03 g/m*3 26.6 C 0 km/h
677 08-07-2011 19:15:02 26 C 4.87 g/m*3 26 C 0 km/h
678 08-07-2011 19:27:02 26.1 C 4.9 g/m*3 26.1 C 0 km/h
679 08-07-2011 19:39:02 26 C 4.87 g/m*3 26 C 0 km/h
680 08-07-2011 19:51:02 24.4 C 5.56 g/m*3 24.4 C 0 km/h
681 08-07-2011 20:03:02 23.7 C 5.78 g/m*3 23.7 C 0 km/h
682 08-07-2011 20:15:02 23 C 6.58 g/m*3 23 C 0 km/h
683 08-07-2011 20:27:02 22.7 C 7.27 g/m*3 22.7 C 0 km/h
684 08-07-2011 20:39:01 22.2 C 7.26 g/m*3 22.2 C 0 km/h
685 08-07-2011 20:51:02 21.6 C 7.78 g/m*3 21.6 C 0 km/h
686 08-07-2011 21:03:01 20.8 C 7.97 g/m*3 20.8 C 0 km/h
687 08-07-2011 21:15:02 19.9 C 8.08 g/m*3 19.9 C 0 km/h
688 08-07-2011 21:27:02 19.2 C 8.08 g/m*3 19.2 C 0 km/h
689 08-07-2011 21:39:02 18.5 C 7.91 g/m*3 18.5 C 0 km/h
690 08-07-2011 21:51:02 18.2 C 7.62 g/m*3 18.2 C 0 km/h
691 08-07-2011 22:03:02 18 C 7.53 g/m*3 18 C 0 km/h
692 08-07-2011 22:16:03 17.8 C 7.59 g/m*3 17.8 C 0 km/h
693 08-07-2011 22:28:03 17.7 C 7.85 g/m*3 17.7 C 0 km/h
694 08-07-2011 22:40:03 17.9 C 7.79 g/m*3 17.9 C 0 km/h
695 08-07-2011 22:52:03 17.9 C 7.63 g/m*3 17.9 C 0 km/h
696 08-07-2011 23:04:03 17.1 C 7.42 g/m*3 17.1 C 0 km/h
697 08-07-2011 23:16:03 16.6 C 7.77 g/m*3 16.6 C 0 km/h
698 08-07-2011 23:28:03 16.5 C 8 g/m*3 16.5 C 0 km/h
699 08-07-2011 23:40:03 16.6 C 8.05 g/m*3 16.6 C 0 km/h
700 08-07-2011 23:52:03 16.6 C 8.19 g/m*3 16.6 C 0 km/h
Sensor: Nr:Datum:Temp:Abs-Feuchte:Windchill:Wind:
Aussen-T/F 701 09-07-2011 00:04:03 16.4 C 8.1 g/m*3 16.4 C 0 km/h
702 09-07-2011 00:16:03 16.4 C 8.23 g/m*3 16.4 C 0 km/h
703 09-07-2011 00:28:03 16.1 C 8.22 g/m*3 16.1 C 0 km/h
704 09-07-2011 00:40:03 16 C 8.31 g/m*3 16 C 0 km/h
705 09-07-2011 00:52:03 15.6 C 8.38 g/m*3 15.6 C 0 km/h
706 09-07-2011 01:04:03 15.3 C 8.36 g/m*3 15.3 C 0 km/h
707 09-07-2011 01:16:03 15.6 C 8.25 g/m*3 15.6 C 0 km/h
708 09-07-2011 01:28:03 15.6 C 8.25 g/m*3 15.6 C 0 km/h
709 09-07-2011 01:40:03 15.7 C 8.3 g/m*3 15.7 C 0 km/h
710 09-07-2011 01:52:03 15.5 C 8.2 g/m*3 15.5 C 0 km/h
711 09-07-2011 02:04:03 15.3 C 8.23 g/m*3 15.3 C 0 km/h
712 09-07-2011 02:16:03 15.2 C 8.31 g/m*3 15.2 C 0 km/h
713 09-07-2011 02:28:03 15.1 C 8.39 g/m*3 15.1 C 0 km/h
714 09-07-2011 02:40:04 14.7 C 8.44 g/m*3 14.7 C 0 km/h
715 09-07-2011 02:52:04 14.3 C 8.23 g/m*3 14.3 C 0 km/h
716 09-07-2011 03:04:04 14.2 C 8.3 g/m*3 14.2 C 0 km/h
717 09-07-2011 03:16:04 14 C 8.2 g/m*3 14 C 0 km/h
718 09-07-2011 03:28:04 14 C 8.44 g/m*3 14 C 0 km/h
719 09-07-2011 03:40:04 13.9 C 8.51 g/m*3 13.9 C 0 km/h
720 09-07-2011 03:52:04 13.8 C 8.46 g/m*3 13.8 C 0 km/h
721 09-07-2011 04:04:04 13.7 C 8.41 g/m*3 13.7 C 0 km/h
722 09-07-2011 04:16:04 13.8 C 8.46 g/m*3 13.8 C 0 km/h
723 09-07-2011 04:28:04 14.1 C 8.5 g/m*3 14.1 C 0 km/h
724 09-07-2011 04:40:04 14.1 C 8.62 g/m*3 14.1 C 0 km/h
725 09-07-2011 04:52:04 14.2 C 8.67 g/m*3 14.2 C 0 km/h
Sensor: Nr:Datum:Temp:Abs-Feuchte:Windchill:Wind:
Aussen-T/F 726 09-07-2011 05:04:04 14.2 C 8.79 g/m*3 14.2 C 0 km/h
727 09-07-2011 05:16:04 14.3 C 8.85 g/m*3 14.3 C 0 km/h
728 09-07-2011 05:28:04 14.6 C 9.01 g/m*3 14.6 C 0 km/h
729 09-07-2011 05:40:04 14.6 C 9.01 g/m*3 14.6 C 0 km/h
730 09-07-2011 05:52:04 14.7 C 9.07 g/m*3 14.7 C 0 km/h
731 09-07-2011 06:04:04 14.8 C 9.12 g/m*3 14.8 C 0 km/h
732 09-07-2011 06:16:04 15.1 C 9.16 g/m*3 15.1 C 0 km/h
733 09-07-2011 06:28:04 15.3 C 9.14 g/m*3 15.3 C 0 km/h
734 09-07-2011 06:40:03 15.4 C 9.2 g/m*3 15.4 C 0 km/h
735 09-07-2011 06:52:02 15.7 C 9.37 g/m*3 15.7 C 0 km/h
736 09-07-2011 07:04:01 15.9 C 9.34 g/m*3 15.9 C 0 km/h
737 09-07-2011 07:16:02 16.1 C 9.32 g/m*3 16.1 C 0 km/h
738 09-07-2011 07:28:02 16.2 C 9.52 g/m*3 16.2 C 0 km/h
739 09-07-2011 07:40:02 16.5 C 9.69 g/m*3 16.5 C 0 km/h
740 09-07-2011 07:52:02 16.9 C 9.49 g/m*3 16.9 C 0 km/h
741 09-07-2011 08:04:03 16.8 C 9.44 g/m*3 16.8 C 0 km/h
742 09-07-2011 08:16:02 17.8 C 9.56 g/m*3 17.8 C 0 km/h
743 09-07-2011 08:28:02 19.1 C 8.69 g/m*3 19.1 C 0 km/h
744 09-07-2011 08:40:02 19.7 C 9 g/m*3 19.7 C 0 km/h
745 09-07-2011 08:52:01 20.2 C 8.92 g/m*3 20.2 C 0 km/h
746 09-07-2011 09:04:02 21.2 C 9.27 g/m*3 21.2 C 0 km/h
747 09-07-2011 09:16:01 21.4 C 8.62 g/m*3 21.4 C 0 km/h
748 09-07-2011 09:28:01 22 C 8.35 g/m*3 22 C 0 km/h
749 09-07-2011 09:40:02 22.9 C 8.38 g/m*3 22.9 C 0 km/h
750 09-07-2011 09:52:02 22.5 C 8.99 g/m*3 22.5 C 0 km/h
Sensor: Nr:Datum:Temp:Abs-Feuchte:Windchill:Wind:
Aussen-T/F 751 09-07-2011 10:04:02 22.4 C 9.53 g/m*3 22.4 C 0 km/h
752 09-07-2011 10:16:01 24 C 7.61 g/m*3 24 C 0 km/h
753 09-07-2011 10:28:01 24.7 C 7.02 g/m*3 24.7 C 0 km/h
754 09-07-2011 10:40:02 25.1 C 7.41 g/m*3 25.1 C 0 km/h
755 09-07-2011 10:52:02 25.7 C 7.42 g/m*3 25.7 C 0 km/h
756 09-07-2011 11:04:03 25.1 C 6.94 g/m*3 25.1 C 0 km/h
757 09-07-2011 11:16:02 25.4 C 7.06 g/m*3 25.4 C 0 km/h
758 09-07-2011 11:28:02 25.6 C 7.14 g/m*3 25.6 C 0 km/h
759 09-07-2011 11:40:02 25 C 7.37 g/m*3 25 C 0 km/h
760 09-07-2011 11:52:01 24.9 C 7.32 g/m*3 24.9 C 0 km/h
761 09-07-2011 12:04:02 25.2 C 7.22 g/m*3 25.2 C 0 km/h
762 09-07-2011 12:16:01 24.7 C 7.24 g/m*3 24.7 C 0 km/h
763 09-07-2011 12:28:01 25.1 C 7.41 g/m*3 25.1 C 0 km/h
764 09-07-2011 12:40:01 26.2 C 6.89 g/m*3 26.2 C 0 km/h
765 09-07-2011 12:52:01 25.4 C 7.06 g/m*3 25.4 C 0 km/h
766 09-07-2011 13:04:02 26.4 C 6.97 g/m*3 26.4 C 0 km/h
767 09-07-2011 13:16:02 26.1 C 6.37 g/m*3 26.1 C 0 km/h
768 09-07-2011 13:28:02 28.3 C 6.91 g/m*3 28.3 C 0 km/h
769 09-07-2011 13:40:01 28.9 C 6 g/m*3 28.9 C 0 km/h
770 09-07-2011 13:52:02 30.4 C 6.2 g/m*3 30.4 C 0 km/h
771 09-07-2011 14:04:01 30.3 C 6.16 g/m*3 30.3 C 0 km/h
772 09-07-2011 14:16:02 27.9 C 5.68 g/m*3 27.9 C 0 km/h
773 09-07-2011 14:28:02 30.1 C 6.1 g/m*3 30.1 C 0 km/h
774 09-07-2011 14:40:01 30 C 6.06 g/m*3 30 C 0 km/h
775 09-07-2011 14:52:03 29 C 5.74 g/m*3 29 C 0 km/h
Sensor: Nr:Datum:Temp:Abs-Feuchte:Windchill:Wind:
Aussen-T/F 776 09-07-2011 15:04:02 29.7 C 5.97 g/m*3 29.7 C 0 km/h
777 09-07-2011 15:16:02 29 C 5.74 g/m*3 29 C 0 km/h
778 09-07-2011 15:28:02 29 C 5.74 g/m*3 29 C 0 km/h
779 09-07-2011 15:40:02 29.3 C 5.84 g/m*3 29.3 C 0 km/h
780 09-07-2011 15:52:02 30.4 C 6.2 g/m*3 30.4 C 0 km/h
781 09-07-2011 16:04:01 30 C 6.06 g/m*3 30 C 0 km/h
782 09-07-2011 16:16:02 28.9 C 5.71 g/m*3 28.9 C 0 km/h
783 09-07-2011 16:28:02 28.1 C 5.47 g/m*3 28.1 C 0 km/h
784 09-07-2011 16:40:02 30.3 C 6.16 g/m*3 30.3 C 0 km/h
785 09-07-2011 16:52:02 30.3 C 6.16 g/m*3 30.3 C 0 km/h
786 09-07-2011 17:04:01 31.3 C 6.5 g/m*3 31.3 C 0 km/h
787 09-07-2011 17:16:01 27.9 C 5.41 g/m*3 27.9 C 0 km/h
788 09-07-2011 17:28:01 28.1 C 5.47 g/m*3 28.1 C 0 km/h
789 09-07-2011 17:40:02 27.8 C 5.38 g/m*3 27.8 C 0 km/h
790 09-07-2011 17:52:02 29.7 C 5.97 g/m*3 29.7 C 0 km/h
791 09-07-2011 18:04:02 28.9 C 5.71 g/m*3 28.9 C 0 km/h
792 09-07-2011 18:16:02 26.8 C 5.35 g/m*3 26.8 C 0 km/h
793 09-07-2011 18:28:02 27.3 C 5.76 g/m*3 27.3 C 0 km/h
794 09-07-2011 18:40:02 28.1 C 5.47 g/m*3 28.1 C 0 km/h
795 09-07-2011 18:52:02 26.5 C 5.51 g/m*3 26.5 C 0 km/h
796 09-07-2011 19:04:02 26 C 5.84 g/m*3 26 C 0 km/h
797 09-07-2011 19:16:02 23.7 C 8.77 g/m*3 23.7 C 0 km/h
798 09-07-2011 19:28:02 22.5 C 8.39 g/m*3 22.5 C 0 km/h
799 09-07-2011 19:40:02 22.3 C 8.49 g/m*3 22.3 C 0 km/h
800 09-07-2011 19:52:01 22.3 C 8.49 g/m*3 22.3 C 0 km/h
Sensor: Nr:Datum:Temp:Abs-Feuchte:Windchill:Wind:
Aussen-T/F 801 09-07-2011 20:04:01 23.1 C 8.48 g/m*3 23.1 C 0 km/h
802 09-07-2011 20:16:01 22 C 8.35 g/m*3 22 C 0 km/h
803 09-07-2011 20:28:01 21.1 C 8.48 g/m*3 21.1 C 0 km/h
804 09-07-2011 20:40:01 21.2 C 8.71 g/m*3 21.2 C 0 km/h
805 09-07-2011 20:52:01 21 C 8.43 g/m*3 21 C 0 km/h
806 09-07-2011 21:04:01 20.7 C 8.64 g/m*3 20.7 C 0 km/h
807 09-07-2011 21:16:02 20.6 C 8.59 g/m*3 20.6 C 0 km/h
808 09-07-2011 21:28:02 20.4 C 8.67 g/m*3 20.4 C 0 km/h
809 09-07-2011 21:40:01 20.4 C 8.67 g/m*3 20.4 C 0 km/h
810 09-07-2011 21:52:03 20 C 8.47 g/m*3 20 C 0 km/h
811 09-07-2011 22:04:02 19.5 C 8.56 g/m*3 19.5 C 0 km/h
812 09-07-2011 22:16:03 19.5 C 8.56 g/m*3 19.5 C 0 km/h
813 09-07-2011 22:28:03 19.3 C 8.63 g/m*3 19.3 C 0 km/h
814 09-07-2011 22:40:02 19.1 C 8.69 g/m*3 19.1 C 0 km/h
815 09-07-2011 22:52:03 18.7 C 8.49 g/m*3 18.7 C 0 km/h
816 09-07-2011 23:04:02 17.8 C 8.5 g/m*3 17.8 C 0 km/h
817 09-07-2011 23:17:03 16.8 C 8.58 g/m*3 16.8 C 0 km/h
818 09-07-2011 23:29:03 16.6 C 8.9 g/m*3 16.6 C 0 km/h
819 09-07-2011 23:41:03 16.7 C 8.81 g/m*3 16.7 C 0 km/h
820 09-07-2011 23:53:03 16.6 C 9.04 g/m*3 16.6 C 0 km/h
821 10-07-2011 00:05:03 16.1 C 8.64 g/m*3 16.1 C 0 km/h
822 10-07-2011 00:17:03 16.2 C 8.69 g/m*3 16.2 C 0 km/h
823 10-07-2011 00:29:03 16.3 C 9.16 g/m*3 16.3 C 0 km/h
824 10-07-2011 00:41:03 16 C 8.86 g/m*3 16 C 0 km/h
825 10-07-2011 00:53:03 15.8 C 9.02 g/m*3 15.8 C 0 km/h
Sensor: Nr:Datum:Temp:Abs-Feuchte:Windchill:Wind:
Aussen-T/F 826 10-07-2011 01:05:03 15.1 C 8.77 g/m*3 15.1 C 0 km/h
827 10-07-2011 01:17:03 15 C 9.1 g/m*3 15 C 0 km/h
828 10-07-2011 01:29:03 15.3 C 9.27 g/m*3 15.3 C 0 km/h
829 10-07-2011 01:41:04 14.5 C 8.83 g/m*3 14.5 C 0 km/h
830 10-07-2011 01:53:04 14.4 C 8.9 g/m*3 14.4 C 0 km/h
831 10-07-2011 02:05:04 14 C 8.81 g/m*3 14 C 0 km/h
832 10-07-2011 02:17:04 13.6 C 8.71 g/m*3 13.6 C 0 km/h
833 10-07-2011 02:29:04 13.7 C 8.88 g/m*3 13.7 C 0 km/h
834 10-07-2011 02:41:04 14 C 8.93 g/m*3 14 C 0 km/h
835 10-07-2011 02:53:04 14 C 8.93 g/m*3 14 C 0 km/h
836 10-07-2011 03:05:04 13.8 C 8.82 g/m*3 13.8 C 0 km/h
837 10-07-2011 03:17:04 13.9 C 8.87 g/m*3 13.9 C 0 km/h
838 10-07-2011 03:29:04 14.4 C 9.15 g/m*3 14.4 C 0 km/h
839 10-07-2011 03:41:04 14.6 C 9.26 g/m*3 14.6 C 0 km/h
840 10-07-2011 03:53:04 14.8 C 9.25 g/m*3 14.8 C 0 km/h
841 10-07-2011 04:05:04 14.8 C 9.12 g/m*3 14.8 C 0 km/h
842 10-07-2011 04:17:04 14.7 C 9.07 g/m*3 14.7 C 0 km/h
843 10-07-2011 04:29:04 14.3 C 8.85 g/m*3 14.3 C 0 km/h
844 10-07-2011 04:41:04 13.6 C 8.59 g/m*3 13.6 C 0 km/h
845 10-07-2011 04:53:04 12.8 C 8.51 g/m*3 12.8 C 0 km/h
846 10-07-2011 05:05:04 12.8 C 8.85 g/m*3 12.8 C 0 km/h
847 10-07-2011 05:17:04 13 C 9.19 g/m*3 13 C 0 km/h
848 10-07-2011 05:29:04 12.9 C 9.24 g/m*3 12.9 C 0 km/h
849 10-07-2011 05:41:05 12.8 C 9.18 g/m*3 12.8 C 0 km/h
850 10-07-2011 05:53:05 12.9 C 9.35 g/m*3 12.9 C 0 km/h
Sensor: Nr:Datum:Temp:Abs-Feuchte:Windchill:Wind:
Aussen-T/F 851 10-07-2011 06:05:05 12.8 C 9.18 g/m*3 12.8 C 0 km/h
852 10-07-2011 06:17:05 12.6 C 9.07 g/m*3 12.6 C 0 km/h
853 10-07-2011 06:29:05 12.4 C 8.96 g/m*3 12.4 C 0 km/h
854 10-07-2011 06:41:05 13.2 C 9.53 g/m*3 13.2 C 0 km/h
855 10-07-2011 06:53:05 13.4 C 9.53 g/m*3 13.4 C 0 km/h
856 10-07-2011 07:05:05 13.6 C 9.53 g/m*3 13.6 C 0 km/h
857 10-07-2011 07:17:05 13.8 C 9.65 g/m*3 13.8 C 0 km/h
858 10-07-2011 07:29:05 13.8 C 9.65 g/m*3 13.8 C 0 km/h
859 10-07-2011 07:41:05 14.1 C 9.59 g/m*3 14.1 C 0 km/h
860 10-07-2011 07:53:05 14.3 C 9.58 g/m*3 14.3 C 0 km/h
861 10-07-2011 08:05:05 14.1 C 9.59 g/m*3 14.1 C 0 km/h
862 10-07-2011 08:17:05 14.1 C 9.59 g/m*3 14.1 C 0 km/h
863 10-07-2011 08:29:05 14.4 C 9.77 g/m*3 14.4 C 0 km/h
864 10-07-2011 08:41:05 15 C 10 g/m*3 15 C 0 km/h
865 10-07-2011 08:53:05 15.4 C 10.12 g/m*3 15.4 C 0 km/h
866 10-07-2011 09:05:03 15.7 C 9.63 g/m*3 15.7 C 0 km/h
867 10-07-2011 09:17:02 16.2 C 9.79 g/m*3 16.2 C 0 km/h
868 10-07-2011 09:29:02 16.8 C 9.72 g/m*3 16.8 C 0 km/h
869 10-07-2011 09:41:02 17.6 C 9.45 g/m*3 17.6 C 0 km/h
870 10-07-2011 09:53:02 18.7 C 8.81 g/m*3 18.7 C 0 km/h
871 10-07-2011 10:05:02 19.5 C 8.73 g/m*3 19.5 C 0 km/h
872 10-07-2011 10:17:02 19.4 C 9.18 g/m*3 19.4 C 0 km/h
873 10-07-2011 10:29:02 20 C 8.64 g/m*3 20 C 0 km/h
874 10-07-2011 10:41:02 21.1 C 7.55 g/m*3 21.1 C 0 km/h
875 10-07-2011 10:53:02 21.9 C 7.33 g/m*3 21.9 C 0 km/h
Sensor: Nr:Datum:Temp:Abs-Feuchte:Windchill:Wind:
Aussen-T/F 876 10-07-2011 11:05:01 23.2 C 6.44 g/m*3 23.2 C 0 km/h
877 10-07-2011 11:17:02 22.3 C 6.52 g/m*3 22.3 C 0 km/h
878 10-07-2011 11:29:02 22.1 C 6.05 g/m*3 22.1 C 0 km/h
879 10-07-2011 11:41:02 23 C 6.37 g/m*3 23 C 0 km/h
880 10-07-2011 11:53:02 24.1 C 5.47 g/m*3 24.1 C 0 km/h
881 10-07-2011 12:05:02 23.7 C 5.56 g/m*3 23.7 C 0 km/h
882 10-07-2011 12:17:01 23.8 C 5.59 g/m*3 23.8 C 0 km/h
883 10-07-2011 12:29:01 24.6 C 5.85 g/m*3 24.6 C 0 km/h
884 10-07-2011 12:41:02 25.5 C 5.45 g/m*3 25.5 C 0 km/h
885 10-07-2011 12:53:02 25.9 C 5.08 g/m*3 25.9 C 0 km/h
886 10-07-2011 13:05:02 26.6 C 5.79 g/m*3 26.6 C 0 km/h
887 10-07-2011 13:17:02 26.7 C 5.32 g/m*3 26.7 C 0 km/h
888 10-07-2011 13:29:02 26.3 C 5.2 g/m*3 26.3 C 0 km/h
889 10-07-2011 13:41:02 27 C 5.15 g/m*3 27 C 0 km/h
890 10-07-2011 13:53:01 26.8 C 5.09 g/m*3 26.8 C 0 km/h
891 10-07-2011 14:05:02 27 C 5.15 g/m*3 27 C 0 km/h
892 10-07-2011 14:17:02 27.3 C 5.23 g/m*3 27.3 C 0 km/h
893 10-07-2011 14:29:02 25.5 C 4.97 g/m*3 25.5 C 0 km/h
894 10-07-2011 14:41:02 25.5 C 5.21 g/m*3 25.5 C 0 km/h
895 10-07-2011 14:53:02 26.4 C 5.23 g/m*3 26.4 C 0 km/h
896 10-07-2011 15:05:01 26.3 C 5.69 g/m*3 26.3 C 0 km/h
897 10-07-2011 15:17:02 26.3 C 5.2 g/m*3 26.3 C 0 km/h
898 10-07-2011 15:29:03 25.6 C 5.95 g/m*3 25.6 C 0 km/h
899 10-07-2011 15:41:01 24.7 C 6.11 g/m*3 24.7 C 0 km/h
900 10-07-2011 15:53:02 24.2 C 6.16 g/m*3 24.2 C 0 km/h
Sensor: Nr:Datum:Temp:Abs-Feuchte:Windchill:Wind:
Aussen-T/F 901 10-07-2011 16:05:02 24 C 7.4 g/m*3 24 C 0 km/h
902 10-07-2011 16:17:02 23 C 8.43 g/m*3 23 C 0 km/h
903 10-07-2011 16:29:02 21.3 C 9.69 g/m*3 21.3 C 0 km/h
904 10-07-2011 16:41:03 20.8 C 9.78 g/m*3 20.8 C 0 km/h
905 10-07-2011 16:53:02 20.8 C 9.78 g/m*3 20.8 C 0 km/h
906 10-07-2011 17:05:02 20.9 C 9.83 g/m*3 20.9 C 0 km/h
907 10-07-2011 17:17:02 21.2 C 9.82 g/m*3 21.2 C 0 km/h
908 10-07-2011 17:29:02 21.7 C 9.35 g/m*3 21.7 C 0 km/h
909 10-07-2011 17:41:02 22.4 C 9.14 g/m*3 22.4 C 0 km/h
910 10-07-2011 17:53:02 23.3 C 8.36 g/m*3 23.3 C 0 km/h
911 10-07-2011 18:05:02 22.7 C 7.48 g/m*3 22.7 C 0 km/h
912 10-07-2011 18:17:02 22.4 C 8.54 g/m*3 22.4 C 0 km/h
913 10-07-2011 18:29:02 22 C 9.7 g/m*3 22 C 0 km/h
914 10-07-2011 18:41:02 20.5 C 10.32 g/m*3 20.5 C 0 km/h
915 10-07-2011 18:53:02 19.3 C 10.62 g/m*3 19.3 C 0 km/h
916 10-07-2011 19:05:02 19 C 10.43 g/m*3 19 C 0 km/h
917 10-07-2011 19:17:02 19.3 C 10.28 g/m*3 19.3 C 0 km/h
918 10-07-2011 19:29:02 18.6 C 10.03 g/m*3 18.6 C 0 km/h
919 10-07-2011 19:41:02 18.3 C 10.32 g/m*3 18.3 C 0 km/h
920 10-07-2011 19:53:02 17.6 C 10.8 g/m*3 17.6 C 0 km/h
921 10-07-2011 20:05:02 16.9 C 10.79 g/m*3 16.9 C 0 km/h
922 10-07-2011 20:17:03 16.6 C 10.88 g/m*3 16.6 C 0 km/h
923 10-07-2011 20:29:03 16.6 C 11.3 g/m*3 16.6 C 0 km/h
924 10-07-2011 20:41:02 16.4 C 11.31 g/m*3 16.4 C 0 km/h
925 10-07-2011 20:53:03 16.5 C 11.37 g/m*3 16.5 C 0 km/h
Sensor: Nr:Datum:Temp:Abs-Feuchte:Windchill:Wind:
Aussen-T/F 926 10-07-2011 21:05:02 16.5 C 11.37 g/m*3 16.5 C 0 km/h
927 10-07-2011 21:17:02 16.4 C 11.31 g/m*3 16.4 C 0 km/h
928 10-07-2011 21:29:02 16.1 C 11.24 g/m*3 16.1 C 0 km/h
929 10-07-2011 21:41:03 15.8 C 11.17 g/m*3 15.8 C 0 km/h
930 10-07-2011 21:53:03 15.8 C 11.17 g/m*3 15.8 C 0 km/h
931 10-07-2011 22:05:02 15.6 C 10.91 g/m*3 15.6 C 0 km/h
932 10-07-2011 22:18:02 15.2 C 10.64 g/m*3 15.2 C 0 km/h
933 10-07-2011 22:30:02 15.1 C 10.45 g/m*3 15.1 C 0 km/h
934 10-07-2011 22:42:03 15.3 C 10.58 g/m*3 15.3 C 0 km/h
935 10-07-2011 22:54:03 15.2 C 10.51 g/m*3 15.2 C 0 km/h
936 10-07-2011 23:06:03 14.9 C 10.58 g/m*3 14.9 C 0 km/h
937 10-07-2011 23:18:03 14.9 C 10.58 g/m*3 14.9 C 0 km/h
938 10-07-2011 23:30:03 14.8 C 10.64 g/m*3 14.8 C 0 km/h
939 10-07-2011 23:42:03 14.6 C 10.51 g/m*3 14.6 C 0 km/h
940 10-07-2011 23:54:03 14.7 C 10.7 g/m*3 14.7 C 0 km/h
941 11-07-2011 00:06:03 14.9 C 10.96 g/m*3 14.9 C 0 km/h
942 11-07-2011 00:18:03 14.8 C 10.89 g/m*3 14.8 C 0 km/h
943 11-07-2011 00:30:03 14.9 C 10.96 g/m*3 14.9 C 0 km/h
944 11-07-2011 00:42:03 15 C 10.9 g/m*3 15 C 0 km/h
945 11-07-2011 00:54:03 14.6 C 10.64 g/m*3 14.6 C 0 km/h
946 11-07-2011 01:06:03 14.5 C 10.7 g/m*3 14.5 C 0 km/h
947 11-07-2011 01:18:03 14.2 C 10.5 g/m*3 14.2 C 0 km/h
948 11-07-2011 01:30:03 14.5 C 10.82 g/m*3 14.5 C 0 km/h
949 11-07-2011 01:42:03 14.7 C 10.95 g/m*3 14.7 C 0 km/h
950 11-07-2011 01:54:03 14.8 C 11.15 g/m*3 14.8 C 0 km/h
Sensor: Nr:Datum:Temp:Abs-Feuchte:Windchill:Wind:
Aussen-T/F 951 11-07-2011 02:06:03 14.7 C 11.08 g/m*3 14.7 C 0 km/h
952 11-07-2011 02:18:03 14.6 C 10.89 g/m*3 14.6 C 0 km/h
953 11-07-2011 02:30:03 14.4 C 10.75 g/m*3 14.4 C 0 km/h
954 11-07-2011 02:42:03 14.3 C 10.69 g/m*3 14.3 C 0 km/h
955 11-07-2011 02:54:04 14.3 C 10.69 g/m*3 14.3 C 0 km/h
956 11-07-2011 03:06:04 14.3 C 10.69 g/m*3 14.3 C 0 km/h
957 11-07-2011 03:18:04 13.8 C 10.48 g/m*3 13.8 C 0 km/h
958 11-07-2011 03:30:04 13.5 C 10.29 g/m*3 13.5 C 0 km/h
959 11-07-2011 03:42:04 13.2 C 10.1 g/m*3 13.2 C 0 km/h
960 11-07-2011 03:54:04 13.5 C 10.29 g/m*3 13.5 C 0 km/h
961 11-07-2011 04:06:04 13.3 C 10.17 g/m*3 13.3 C 0 km/h
962 11-07-2011 04:18:04 13.1 C 10.04 g/m*3 13.1 C 0 km/h
963 11-07-2011 04:30:04 13 C 9.98 g/m*3 13 C 0 km/h
964 11-07-2011 04:42:04 13 C 9.98 g/m*3 13 C 0 km/h
965 11-07-2011 04:54:04 12.9 C 10.03 g/m*3 12.9 C 0 km/h
966 11-07-2011 05:06:04 12.7 C 9.91 g/m*3 12.7 C 0 km/h
967 11-07-2011 05:18:04 12.6 C 9.85 g/m*3 12.6 C 0 km/h
968 11-07-2011 05:30:04 13 C 10.09 g/m*3 13 C 0 km/h
969 11-07-2011 05:42:04 13.1 C 10.16 g/m*3 13.1 C 0 km/h
970 11-07-2011 05:54:04 13.6 C 10.47 g/m*3 13.6 C 0 km/h
971 11-07-2011 06:06:04 13.7 C 10.66 g/m*3 13.7 C 0 km/h
972 11-07-2011 06:18:04 13.7 C 10.54 g/m*3 13.7 C 0 km/h
973 11-07-2011 06:30:04 14 C 10.74 g/m*3 14 C 0 km/h
974 11-07-2011 06:42:04 14.2 C 10.87 g/m*3 14.2 C 0 km/h
975 11-07-2011 06:54:04 14.5 C 10.94 g/m*3 14.5 C 0 km/h
Sensor: Nr:Datum:Temp:Abs-Feuchte:Windchill:Wind:
Aussen-T/F 976 11-07-2011 07:06:05 14.8 C 10.77 g/m*3 14.8 C 0 km/h
977 11-07-2011 07:18:02 15 C 10.51 g/m*3 15 C 0 km/h
978 11-07-2011 07:30:02 15.4 C 10.51 g/m*3 15.4 C 0 km/h
979 11-07-2011 07:42:02 15.3 C 10.32 g/m*3 15.3 C 0 km/h
980 11-07-2011 07:54:02 15.6 C 10.37 g/m*3 15.6 C 0 km/h
981 11-07-2011 08:06:02 15.5 C 10.31 g/m*3 15.5 C 0 km/h
982 11-07-2011 08:18:01 15.3 C 10.19 g/m*3 15.3 C 0 km/h
983 11-07-2011 08:30:01 15.7 C 10.44 g/m*3 15.7 C 0 km/h
984 11-07-2011 08:42:02 16.2 C 10.34 g/m*3 16.2 C 0 km/h
985 11-07-2011 08:54:02 16.9 C 10.36 g/m*3 16.9 C 0 km/h
986 11-07-2011 09:06:02 17.2 C 9.81 g/m*3 17.2 C 0 km/h
987 11-07-2011 09:18:01 17.5 C 9.99 g/m*3 17.5 C 0 km/h
988 11-07-2011 09:30:01 18.2 C 9.79 g/m*3 18.2 C 0 km/h
989 11-07-2011 09:42:02 17.6 C 9.9 g/m*3 17.6 C 0 km/h
990 11-07-2011 09:54:01 17.4 C 9.93 g/m*3 17.4 C 0 km/h
991 11-07-2011 10:06:02 17.8 C 10.17 g/m*3 17.8 C 0 km/h
992 11-07-2011 10:18:01 18 C 9.98 g/m*3 18 C 0 km/h
993 11-07-2011 10:30:01 18.5 C 10.13 g/m*3 18.5 C 0 km/h
994 11-07-2011 10:42:02 19 C 9.78 g/m*3 19 C 0 km/h
995 11-07-2011 10:54:02 20 C 9.68 g/m*3 20 C 0 km/h
996 11-07-2011 11:06:02 20.5 C 9.07 g/m*3 20.5 C 0 km/h
997 11-07-2011 11:18:01 20.7 C 8.64 g/m*3 20.7 C 0 km/h
998 11-07-2011 11:30:01 21.2 C 7.41 g/m*3 21.2 C 0 km/h
999 11-07-2011 11:42:02 21.4 C 7.69 g/m*3 21.4 C 0 km/h
1000 11-07-2011 11:54:02 21.6 C 7.59 g/m*3 21.6 C 0 km/h
Sensor: Nr:Datum:Temp:Abs-Feuchte:Windchill:Wind:
Aussen-T/F 1001 11-07-2011 12:06:02 22.1 C 7.81 g/m*3 22.1 C 0 km/h
1002 11-07-2011 12:18:01 22.2 C 8.44 g/m*3 22.2 C 0 km/h
1003 11-07-2011 12:30:01 23 C 8.02 g/m*3 23 C 0 km/h
1004 11-07-2011 12:42:02 23.7 C 7.49 g/m*3 23.7 C 0 km/h
1005 11-07-2011 12:54:02 24.2 C 7.04 g/m*3 24.2 C 0 km/h
1006 11-07-2011 13:06:02 25.2 C 7.22 g/m*3 25.2 C 0 km/h
1007 11-07-2011 13:18:02 25 C 7.14 g/m*3 25 C 0 km/h
1008 11-07-2011 13:30:02 26.3 C 7.43 g/m*3 26.3 C 0 km/h
1009 11-07-2011 13:42:02 29.2 C 7.26 g/m*3 29.2 C 0 km/h
1010 11-07-2011 13:54:02 30.1 C 6.71 g/m*3 30.1 C 0 km/h
1011 11-07-2011 14:06:02 27.4 C 6.84 g/m*3 27.4 C 0 km/h
1012 11-07-2011 14:18:02 25.8 C 7.22 g/m*3 25.8 C 0 km/h
1013 11-07-2011 14:30:02 27.5 C 6.88 g/m*3 27.5 C 0 km/h
1014 11-07-2011 14:42:01 31.4 C 6.54 g/m*3 31.4 C 0 km/h
1015 11-07-2011 14:54:02 31.4 C 6.54 g/m*3 31.4 C 0 km/h
1016 11-07-2011 15:06:01 29.2 C 6.39 g/m*3 29.2 C 0 km/h
1017 11-07-2011 15:18:02 31.1 C 6.43 g/m*3 31.1 C 0 km/h
1018 11-07-2011 15:30:02 29.3 C 6.13 g/m*3 29.3 C 0 km/h
1019 11-07-2011 15:42:01 29 C 6.61 g/m*3 29 C 0 km/h
1020 11-07-2011 15:54:02 30 C 6.06 g/m*3 30 C 0 km/h
1021 11-07-2011 16:06:02 28.2 C 6.05 g/m*3 28.2 C 0 km/h
1022 11-07-2011 16:18:02 31.2 C 6.47 g/m*3 31.2 C 0 km/h
1023 11-07-2011 16:30:02 32.5 C 6.93 g/m*3 32.5 C 0 km/h
1024 11-07-2011 16:42:03 33.2 C 7.2 g/m*3 33.2 C 0 km/h
1025 11-07-2011 16:54:02 32.6 C 6.97 g/m*3 32.6 C 0 km/h
Sensor: Nr:Datum:Temp:Abs-Feuchte:Windchill:Wind:
Aussen-T/F 1026 11-07-2011 17:06:02 32.2 C 6.82 g/m*3 32.2 C 0 km/h
1027 11-07-2011 17:18:01 31.5 C 6.57 g/m*3 31.5 C 0 km/h
1028 11-07-2011 17:30:01 30.8 C 6.33 g/m*3 30.8 C 0 km/h
1029 11-07-2011 17:42:02 32.5 C 6.93 g/m*3 32.5 C 0 km/h
1030 11-07-2011 17:54:02 33 C 7.12 g/m*3 33 C 0 km/h
1031 11-07-2011 18:06:02 32.8 C 7.04 g/m*3 32.8 C 0 km/h
1032 11-07-2011 18:18:02 32 C 6.75 g/m*3 32 C 0 km/h
1033 11-07-2011 18:30:02 32.6 C 6.97 g/m*3 32.6 C 0 km/h
1034 11-07-2011 18:42:02 30.9 C 6.37 g/m*3 30.9 C 0 km/h
1035 11-07-2011 18:54:02 30 C 6.06 g/m*3 30 C 0 km/h
1036 11-07-2011 19:06:02 28.8 C 5.68 g/m*3 28.8 C 0 km/h
1037 11-07-2011 19:18:02 29.1 C 6.64 g/m*3 29.1 C 0 km/h
1038 11-07-2011 19:30:02 30.9 C 6.37 g/m*3 30.9 C 0 km/h
1039 11-07-2011 19:42:02 30.5 C 6.23 g/m*3 30.5 C 0 km/h
1040 11-07-2011 19:54:01 28.2 C 6.05 g/m*3 28.2 C 0 km/h
1041 11-07-2011 20:06:01 26.9 C 6.4 g/m*3 26.9 C 0 km/h
1042 11-07-2011 20:18:02 25.7 C 7.18 g/m*3 25.7 C 0 km/h
1043 11-07-2011 20:30:02 24.9 C 8.47 g/m*3 24.9 C 0 km/h
1044 11-07-2011 20:42:01 23.6 C 8.29 g/m*3 23.6 C 0 km/h
1045 11-07-2011 20:54:01 22.5 C 8.19 g/m*3 22.5 C 0 km/h
1046 11-07-2011 21:06:02 21.9 C 8.3 g/m*3 21.9 C 0 km/h
1047 11-07-2011 21:18:01 21.6 C 8.35 g/m*3 21.6 C 0 km/h
1048 11-07-2011 21:30:01 21.2 C 8.15 g/m*3 21.2 C 0 km/h
1049 11-07-2011 21:42:01 20.8 C 8.33 g/m*3 20.8 C 0 km/h
1050 11-07-2011 21:54:01 20 C 8.3 g/m*3 20 C 0 km/h
Sensor: Nr:Datum:Temp:Abs-Feuchte:Windchill:Wind:
Aussen-T/F 1051 11-07-2011 22:06:02 19.5 C 8.22 g/m*3 19.5 C 0 km/h
1052 11-07-2011 22:18:01 19.4 C 8.18 g/m*3 19.4 C 0 km/h
1053 11-07-2011 22:30:01 18.9 C 8.26 g/m*3 18.9 C 0 km/h
1054 11-07-2011 22:43:02 19 C 8.31 g/m*3 19 C 0 km/h
1055 11-07-2011 22:55:02 18.7 C 8.17 g/m*3 18.7 C 0 km/h
1056 11-07-2011 23:07:02 18.6 C 8.12 g/m*3 18.6 C 0 km/h
1057 11-07-2011 23:19:02 17.9 C 8.55 g/m*3 17.9 C 0 km/h
1058 11-07-2011 23:31:02 17.4 C 8.3 g/m*3 17.4 C 0 km/h
1059 11-07-2011 23:43:02 16.8 C 8.29 g/m*3 16.8 C 0 km/h
1060 11-07-2011 23:55:02 16.4 C 8.37 g/m*3 16.4 C 0 km/h
1061 12-07-2011 00:07:02 16 C 8.31 g/m*3 16 C 0 km/h
1062 12-07-2011 00:19:02 15.8 C 8.48 g/m*3 15.8 C 0 km/h
1063 12-07-2011 00:31:02 15.6 C 8.64 g/m*3 15.6 C 0 km/h
1064 12-07-2011 00:43:02 15.2 C 8.57 g/m*3 15.2 C 0 km/h
1065 12-07-2011 00:55:03 15.1 C 8.64 g/m*3 15.1 C 0 km/h
1066 12-07-2011 01:07:03 15 C 8.72 g/m*3 15 C 0 km/h
1067 12-07-2011 01:19:03 14.5 C 8.46 g/m*3 14.5 C 0 km/h
1068 12-07-2011 01:31:03 14.3 C 8.6 g/m*3 14.3 C 0 km/h
1069 12-07-2011 01:43:03 14.2 C 8.67 g/m*3 14.2 C 0 km/h
1070 12-07-2011 01:55:03 14.2 C 8.79 g/m*3 14.2 C 0 km/h
1071 12-07-2011 02:07:03 13.8 C 8.7 g/m*3 13.8 C 0 km/h
1072 12-07-2011 02:19:03 13.5 C 8.54 g/m*3 13.5 C 0 km/h
1073 12-07-2011 02:31:03 13.4 C 8.72 g/m*3 13.4 C 0 km/h
1074 12-07-2011 02:43:03 13.3 C 8.66 g/m*3 13.3 C 0 km/h
1075 12-07-2011 02:55:03 13.2 C 8.61 g/m*3 13.2 C 0 km/h
Sensor: Nr:Datum:Temp:Abs-Feuchte:Windchill:Wind:
Aussen-T/F 1076 12-07-2011 03:07:03 13 C 8.62 g/m*3 13 C 0 km/h
1077 12-07-2011 03:19:03 12.8 C 8.62 g/m*3 12.8 C 0 km/h
1078 12-07-2011 03:31:03 12.7 C 8.57 g/m*3 12.7 C 0 km/h
1079 12-07-2011 03:43:03 12.5 C 8.58 g/m*3 12.5 C 0 km/h
1080 12-07-2011 03:55:03 12.3 C 8.47 g/m*3 12.3 C 0 km/h
1081 12-07-2011 04:07:03 12.1 C 8.47 g/m*3 12.1 C 0 km/h
1082 12-07-2011 04:19:03 12 C 8.42 g/m*3 12 C 0 km/h
1083 12-07-2011 04:31:03 12.1 C 8.69 g/m*3 12.1 C 0 km/h
1084 12-07-2011 04:43:03 12 C 8.74 g/m*3 12 C 0 km/h
1085 12-07-2011 04:55:04 11.9 C 8.79 g/m*3 11.9 C 0 km/h
1086 12-07-2011 05:07:04 11.8 C 8.74 g/m*3 11.8 C 0 km/h
1087 12-07-2011 05:19:04 11.8 C 8.84 g/m*3 11.8 C 0 km/h
1088 12-07-2011 05:31:04 11.6 C 8.73 g/m*3 11.6 C 0 km/h
1089 12-07-2011 05:43:04 11.7 C 8.79 g/m*3 11.7 C 0 km/h
1090 12-07-2011 05:55:04 11.6 C 8.83 g/m*3 11.6 C 0 km/h
1091 12-07-2011 06:07:04 11.7 C 8.89 g/m*3 11.7 C 0 km/h
1092 12-07-2011 06:19:04 11.8 C 9.05 g/m*3 11.8 C 0 km/h
1093 12-07-2011 06:31:04 11.9 C 9.11 g/m*3 11.9 C 0 km/h
1094 12-07-2011 06:43:04 12 C 9.06 g/m*3 12 C 0 km/h
1095 12-07-2011 06:55:02 12.1 C 9.12 g/m*3 12.1 C 0 km/h
1096 12-07-2011 07:07:01 12.2 C 9.17 g/m*3 12.2 C 0 km/h
1097 12-07-2011 07:19:02 12.4 C 9.4 g/m*3 12.4 C 0 km/h
1098 12-07-2011 07:31:01 12.6 C 9.51 g/m*3 12.6 C 0 km/h
1099 12-07-2011 07:43:01 12.9 C 9.69 g/m*3 12.9 C 0 km/h
1100 12-07-2011 07:55:02 13.4 C 9.88 g/m*3 13.4 C 0 km/h
Sensor: Nr:Datum:Temp:Abs-Feuchte:Windchill:Wind:
Aussen-T/F 1101 12-07-2011 08:07:02 13.8 C 10.13 g/m*3 13.8 C 0 km/h
1102 12-07-2011 08:19:02 14.4 C 10.38 g/m*3 14.4 C 0 km/h
1103 12-07-2011 08:31:03 15.2 C 10.38 g/m*3 15.2 C 0 km/h
1104 12-07-2011 08:43:03 16.2 C 10.62 g/m*3 16.2 C 0 km/h
1105 12-07-2011 08:55:02 16.8 C 10.44 g/m*3 16.8 C 0 km/h
1106 12-07-2011 09:07:01 17.5 C 10.29 g/m*3 17.5 C 0 km/h
1107 12-07-2011 09:19:02 18.3 C 10.16 g/m*3 18.3 C 0 km/h
1108 12-07-2011 09:31:02 19.9 C 10.48 g/m*3 19.9 C 0 km/h
1109 12-07-2011 09:43:02 20.4 C 9.38 g/m*3 20.4 C 0 km/h
1110 12-07-2011 09:55:02 22 C 9.12 g/m*3 22 C 0 km/h
1111 12-07-2011 10:07:01 22.8 C 9.35 g/m*3 22.8 C 0 km/h
1112 12-07-2011 10:19:01 23.9 C 8.87 g/m*3 23.9 C 0 km/h
1113 12-07-2011 10:31:02 25 C 8.52 g/m*3 25 C 0 km/h
1114 12-07-2011 10:43:02 26.1 C 8.32 g/m*3 26.1 C 0 km/h
1115 12-07-2011 10:55:02 27.6 C 8.25 g/m*3 27.6 C 0 km/h
1116 12-07-2011 11:07:02 27.5 C 7.94 g/m*3 27.5 C 0 km/h
1117 12-07-2011 11:19:02 28.1 C 7.66 g/m*3 28.1 C 0 km/h
1118 12-07-2011 11:31:03 27.2 C 7.29 g/m*3 27.2 C 0 km/h
1119 12-07-2011 11:43:03 27.6 C 7.18 g/m*3 27.6 C 0 km/h
1120 12-07-2011 11:55:02 27.2 C 7.03 g/m*3 27.2 C 0 km/h
1121 12-07-2011 12:07:01 27.3 C 6.8 g/m*3 27.3 C 0 km/h
1122 12-07-2011 12:19:02 27.6 C 6.92 g/m*3 27.6 C 0 km/h
1123 12-07-2011 12:31:02 27.7 C 7.22 g/m*3 27.7 C 0 km/h
1124 12-07-2011 12:43:02 27.9 C 7.03 g/m*3 27.9 C 0 km/h
1125 12-07-2011 12:55:02 28.1 C 6.84 g/m*3 28.1 C 0 km/h
Sensor: Nr:Datum:Temp:Abs-Feuchte:Windchill:Wind:
Aussen-T/F 1126 12-07-2011 13:07:03 28.4 C 6.95 g/m*3 28.4 C 0 km/h
1127 12-07-2011 13:19:02 29.2 C 6.97 g/m*3 29.2 C 0 km/h
1128 12-07-2011 13:31:03 29.9 C 6.64 g/m*3 29.9 C 0 km/h
1129 12-07-2011 13:43:03 32.3 C 6.86 g/m*3 32.3 C 0 km/h
1130 12-07-2011 13:55:02 32.6 C 6.97 g/m*3 32.6 C 0 km/h
1131 12-07-2011 14:07:02 33.4 C 7.27 g/m*3 33.4 C 0 km/h
1132 12-07-2011 14:19:01 32.3 C 6.86 g/m*3 32.3 C 0 km/h
1133 12-07-2011 14:31:02 32 C 6.75 g/m*3 32 C 0 km/h
1134 12-07-2011 14:43:02 32.5 C 6.93 g/m*3 32.5 C 0 km/h
1135 12-07-2011 14:55:02 31.9 C 6.72 g/m*3 31.9 C 0 km/h
1136 12-07-2011 15:07:02 31 C 6.4 g/m*3 31 C 0 km/h
1137 12-07-2011 15:19:02 29.8 C 6.6 g/m*3 29.8 C 0 km/h
1138 12-07-2011 15:31:02 30 C 6.37 g/m*3 30 C 0 km/h
1139 12-07-2011 15:43:02 29.5 C 7.38 g/m*3 29.5 C 0 km/h
1140 12-07-2011 15:55:02 29.5 C 7.38 g/m*3 29.5 C 0 km/h
1141 12-07-2011 16:07:02 29.1 C 7.51 g/m*3 29.1 C 0 km/h
1142 12-07-2011 16:19:03 28.7 C 7.35 g/m*3 28.7 C 0 km/h
1143 12-07-2011 16:31:02 29 C 7.47 g/m*3 29 C 0 km/h
1144 12-07-2011 16:43:02 29.6 C 7.72 g/m*3 29.6 C 0 km/h
1145 12-07-2011 16:55:02 27.5 C 8.47 g/m*3 27.5 C 0 km/h
1146 12-07-2011 17:07:02 25 C 9.21 g/m*3 25 C 0 km/h
1147 12-07-2011 17:19:02 21.8 C 11.9 g/m*3 21.8 C 0 km/h
1148 12-07-2011 17:31:02 19.8 C 12.81 g/m*3 19.8 C 0 km/h
1149 12-07-2011 17:43:02 19.4 C 13.35 g/m*3 19.4 C 0 km/h
1150 12-07-2011 17:55:02 19.3 C 13.27 g/m*3 19.3 C 0 km/h
Sensor: Nr:Datum:Temp:Abs-Feuchte:Windchill:Wind:
Aussen-T/F 1151 12-07-2011 18:07:02 19.7 C 13.25 g/m*3 19.7 C 0 km/h
1152 12-07-2011 18:19:02 20.1 C 12.86 g/m*3 20.1 C 0 km/h
1153 12-07-2011 18:31:02 20.7 C 13.14 g/m*3 20.7 C 0 km/h
1154 12-07-2011 18:43:02 20.3 C 13.37 g/m*3 20.3 C 0 km/h
1155 12-07-2011 18:55:02 20.3 C 13.37 g/m*3 20.3 C 0 km/h
1156 12-07-2011 19:07:01 21.1 C 13.63 g/m*3 21.1 C 0 km/h
1157 12-07-2011 19:19:02 21.1 C 13.27 g/m*3 21.1 C 0 km/h
1158 12-07-2011 19:31:02 21.2 C 13.71 g/m*3 21.2 C 0 km/h
1159 12-07-2011 19:43:02 21.8 C 13.43 g/m*3 21.8 C 0 km/h
1160 12-07-2011 19:55:01 21.4 C 12.94 g/m*3 21.4 C 0 km/h
1161 12-07-2011 20:07:02 21 C 12.82 g/m*3 21 C 0 km/h
1162 12-07-2011 20:19:01 21.5 C 12.26 g/m*3 21.5 C 0 km/h
1163 12-07-2011 20:31:02 21.2 C 12.05 g/m*3 21.2 C 0 km/h
1164 12-07-2011 20:43:02 20.6 C 12.17 g/m*3 20.6 C 0 km/h
1165 12-07-2011 20:55:02 20.7 C 11.88 g/m*3 20.7 C 0 km/h
1166 12-07-2011 21:07:02 19.7 C 12.4 g/m*3 19.7 C 0 km/h
1167 12-07-2011 21:19:02 19 C 12.39 g/m*3 19 C 0 km/h
1168 12-07-2011 21:31:02 18.6 C 12.57 g/m*3 18.6 C 0 km/h
1169 12-07-2011 21:43:02 18.1 C 12.52 g/m*3 18.1 C 0 km/h
1170 12-07-2011 21:55:02 17.7 C 12.52 g/m*3 17.7 C 0 km/h
1171 12-07-2011 22:07:02 17.4 C 12.45 g/m*3 17.4 C 0 km/h
1172 12-07-2011 22:19:02 17.4 C 12.45 g/m*3 17.4 C 0 km/h
1173 12-07-2011 22:31:02 17.2 C 12.45 g/m*3 17.2 C 0 km/h
1174 12-07-2011 22:43:02 17.2 C 12.45 g/m*3 17.2 C 0 km/h
1175 12-07-2011 22:56:04 17.2 C 12.59 g/m*3 17.2 C 0 km/h
Sensor: Nr:Datum:Temp:Abs-Feuchte:Windchill:Wind:
Aussen-T/F 1176 12-07-2011 23:08:04 17.2 C 12.59 g/m*3 17.2 C 0 km/h
1177 12-07-2011 23:20:04 16.8 C 12.44 g/m*3 16.8 C 0 km/h
1178 12-07-2011 23:32:04 16.8 C 12.44 g/m*3 16.8 C 0 km/h
1179 12-07-2011 23:44:04 16.7 C 12.36 g/m*3 16.7 C 0 km/h
1180 12-07-2011 23:56:04 16.6 C 12.29 g/m*3 16.6 C 0 km/h
1181 13-07-2011 00:08:04 16.9 C 12.66 g/m*3 16.9 C 0 km/h
1182 13-07-2011 00:20:04 16.6 C 12.43 g/m*3 16.6 C 0 km/h
1183 13-07-2011 00:32:04 16.5 C 12.36 g/m*3 16.5 C 0 km/h
1184 13-07-2011 00:44:04 16.4 C 12.28 g/m*3 16.4 C 0 km/h
1185 13-07-2011 00:56:05 16.5 C 12.36 g/m*3 16.5 C 0 km/h
1186 13-07-2011 01:08:05 16.1 C 12.06 g/m*3 16.1 C 0 km/h
1187 13-07-2011 01:20:05 16.3 C 12.21 g/m*3 16.3 C 0 km/h
1188 13-07-2011 01:32:05 16.1 C 12.06 g/m*3 16.1 C 0 km/h
1189 13-07-2011 01:44:05 16 C 11.99 g/m*3 16 C 0 km/h
1190 13-07-2011 01:56:05 16.2 C 12.14 g/m*3 16.2 C 0 km/h
1191 13-07-2011 02:08:05 15.8 C 11.98 g/m*3 15.8 C 0 km/h
1192 13-07-2011 02:20:05 15.8 C 11.98 g/m*3 15.8 C 0 km/h
1193 13-07-2011 02:32:05 15.7 C 11.91 g/m*3 15.7 C 0 km/h
1194 13-07-2011 02:44:05 15.8 C 11.98 g/m*3 15.8 C 0 km/h
1195 13-07-2011 02:56:05 15.5 C 11.76 g/m*3 15.5 C 0 km/h
1196 13-07-2011 03:08:05 15.5 C 11.76 g/m*3 15.5 C 0 km/h
1197 13-07-2011 03:20:05 15.5 C 11.76 g/m*3 15.5 C 0 km/h
1198 13-07-2011 03:32:05 15.4 C 11.69 g/m*3 15.4 C 0 km/h
1199 13-07-2011 03:44:05 15.4 C 11.69 g/m*3 15.4 C 0 km/h
1200 13-07-2011 03:56:05 15.2 C 11.55 g/m*3 15.2 C 0 km/h
Sensor: Nr:Datum:Temp:Abs-Feuchte:Windchill:Wind:
Aussen-T/F 1201 13-07-2011 04:08:05 15.1 C 11.48 g/m*3 15.1 C 0 km/h
1202 13-07-2011 04:20:05 15.1 C 11.48 g/m*3 15.1 C 0 km/h
1203 13-07-2011 04:32:05 15.1 C 11.48 g/m*3 15.1 C 0 km/h
1204 13-07-2011 04:44:05 15 C 11.41 g/m*3 15 C 0 km/h
1205 13-07-2011 04:56:05 15.3 C 11.62 g/m*3 15.3 C 0 km/h
1206 13-07-2011 05:08:06 15.5 C 11.76 g/m*3 15.5 C 0 km/h
1207 13-07-2011 05:20:06 16 C 12.13 g/m*3 16 C 0 km/h
1208 13-07-2011 05:32:06 16 C 12.13 g/m*3 16 C 0 km/h
1209 13-07-2011 05:44:06 16.1 C 12.2 g/m*3 16.1 C 0 km/h
1210 13-07-2011 05:56:06 16.2 C 12.27 g/m*3 16.2 C 0 km/h
1211 13-07-2011 06:08:06 16.3 C 12.35 g/m*3 16.3 C 0 km/h
1212 13-07-2011 06:20:06 16.5 C 12.64 g/m*3 16.5 C 0 km/h
1213 13-07-2011 06:32:06 16.6 C 12.71 g/m*3 16.6 C 0 km/h
1214 13-07-2011 06:44:06 16.6 C 12.71 g/m*3 16.6 C 0 km/h
1215 13-07-2011 06:56:06 16.9 C 12.94 g/m*3 16.9 C 0 km/h
1216 13-07-2011 07:08:06 16.8 C 12.87 g/m*3 16.8 C 0 km/h
1217 13-07-2011 07:20:03 16.8 C 12.87 g/m*3 16.8 C 0 km/h
1218 13-07-2011 07:32:03 16.8 C 12.87 g/m*3 16.8 C 0 km/h
1219 13-07-2011 07:44:03 17 C 12.88 g/m*3 17 C 0 km/h
1220 13-07-2011 07:56:02 17 C 12.88 g/m*3 17 C 0 km/h
1221 13-07-2011 08:08:02 17.1 C 12.96 g/m*3 17.1 C 0 km/h
1222 13-07-2011 08:20:02 17.1 C 12.81 g/m*3 17.1 C 0 km/h
1223 13-07-2011 08:32:02 16.9 C 12.66 g/m*3 16.9 C 0 km/h
1224 13-07-2011 08:44:02 16.8 C 12.44 g/m*3 16.8 C 0 km/h
1225 13-07-2011 08:56:02 16.8 C 12.15 g/m*3 16.8 C 0 km/h
Sensor: Nr:Datum:Temp:Abs-Feuchte:Windchill:Wind:
Aussen-T/F 1226 13-07-2011 09:08:01 17 C 12.01 g/m*3 17 C 0 km/h
1227 13-07-2011 09:20:02 17 C 11.87 g/m*3 17 C 0 km/h
1228 13-07-2011 09:32:01 17 C 11.58 g/m*3 17 C 0 km/h
1229 13-07-2011 09:44:01 16.9 C 11.51 g/m*3 16.9 C 0 km/h
1230 13-07-2011 09:56:02 16.7 C 11.23 g/m*3 16.7 C 0 km/h
1231 13-07-2011 10:08:02 16.6 C 10.88 g/m*3 16.6 C 0 km/h
1232 13-07-2011 10:20:02 16.5 C 10.67 g/m*3 16.5 C 0 km/h
1233 13-07-2011 10:32:02 16.7 C 10.66 g/m*3 16.7 C 0 km/h
1234 13-07-2011 10:44:02 16.9 C 10.79 g/m*3 16.9 C 0 km/h
1235 13-07-2011 10:56:02 16.9 C 10.79 g/m*3 16.9 C 0 km/h
1236 13-07-2011 11:08:02 17 C 10.56 g/m*3 17 C 0 km/h
1237 13-07-2011 11:20:02 17 C 10.27 g/m*3 17 C 0 km/h
1238 13-07-2011 11:32:02 17.1 C 10.04 g/m*3 17.1 C 0 km/h
1239 13-07-2011 11:44:02 17 C 9.84 g/m*3 17 C 0 km/h
1240 13-07-2011 11:56:02 16.8 C 10.15 g/m*3 16.8 C 0 km/h
1241 13-07-2011 12:08:02 17.2 C 9.67 g/m*3 17.2 C 0 km/h
1242 13-07-2011 12:20:03 17.8 C 9.56 g/m*3 17.8 C 0 km/h
1243 13-07-2011 12:32:02 18.2 C 9.48 g/m*3 18.2 C 0 km/h
1244 13-07-2011 12:44:02 19 C 9.29 g/m*3 19 C 0 km/h
1245 13-07-2011 12:56:02 18.8 C 9.18 g/m*3 18.8 C 0 km/h
1246 13-07-2011 13:08:02 19.3 C 8.96 g/m*3 19.3 C 0 km/h
1247 13-07-2011 13:20:02 19 C 8.64 g/m*3 19 C 0 km/h
1248 13-07-2011 13:32:02 19.4 C 9.01 g/m*3 19.4 C 0 km/h
1249 13-07-2011 13:44:02 18.8 C 9.02 g/m*3 18.8 C 0 km/h
1250 13-07-2011 13:56:02 18.5 C 8.86 g/m*3 18.5 C 0 km/h
Sensor: Nr:Datum:Temp:Abs-Feuchte:Windchill:Wind:
Aussen-T/F 1251 13-07-2011 14:08:02 18.8 C 8.86 g/m*3 18.8 C 0 km/h
1252 13-07-2011 14:20:01 18.6 C 9.07 g/m*3 18.6 C 0 km/h
1253 13-07-2011 14:32:02 18 C 9.22 g/m*3 18 C 0 km/h
1254 13-07-2011 14:44:02 17.2 C 9.67 g/m*3 17.2 C 0 km/h
1255 13-07-2011 14:56:02 16.9 C 9.64 g/m*3 16.9 C 0 km/h
1256 13-07-2011 15:08:02 16.8 C 9.72 g/m*3 16.8 C 0 km/h
1257 13-07-2011 15:20:02 16.9 C 9.92 g/m*3 16.9 C 0 km/h
1258 13-07-2011 15:32:02 17.4 C 9.48 g/m*3 17.4 C 0 km/h
1259 13-07-2011 15:44:02 17.6 C 9.3 g/m*3 17.6 C 0 km/h
1260 13-07-2011 15:56:01 17.2 C 9.08 g/m*3 17.2 C 0 km/h
1261 13-07-2011 16:08:02 17 C 8.83 g/m*3 17 C 0 km/h
1262 13-07-2011 16:20:02 16.9 C 9.06 g/m*3 16.9 C 0 km/h
1263 13-07-2011 16:32:02 16.6 C 9.46 g/m*3 16.6 C 0 km/h
1264 13-07-2011 16:44:02 16.2 C 9.52 g/m*3 16.2 C 0 km/h
1265 13-07-2011 16:56:02 15.9 C 9.62 g/m*3 15.9 C 0 km/h
1266 13-07-2011 17:08:01 15.5 C 9.52 g/m*3 15.5 C 0 km/h
1267 13-07-2011 17:20:02 15.3 C 9.53 g/m*3 15.3 C 0 km/h
1268 13-07-2011 17:32:01 15.2 C 9.73 g/m*3 15.2 C 0 km/h
1269 13-07-2011 17:44:01 15 C 9.75 g/m*3 15 C 0 km/h
1270 13-07-2011 17:56:02 14.8 C 9.63 g/m*3 14.8 C 0 km/h
1271 13-07-2011 18:08:01 14.8 C 9.63 g/m*3 14.8 C 0 km/h
1272 13-07-2011 18:20:01 14.8 C 9.88 g/m*3 14.8 C 0 km/h
1273 13-07-2011 18:32:02 14.5 C 9.7 g/m*3 14.5 C 0 km/h
1274 13-07-2011 18:44:02 14.4 C 9.77 g/m*3 14.4 C 0 km/h
1275 13-07-2011 18:56:02 14.5 C 9.7 g/m*3 14.5 C 0 km/h
Sensor: Nr:Datum:Temp:Abs-Feuchte:Windchill:Wind:
Aussen-T/F 1276 13-07-2011 19:08:02 14.8 C 9.88 g/m*3 14.8 C 0 km/h
1277 13-07-2011 19:20:02 14.8 C 9.63 g/m*3 14.8 C 0 km/h
1278 13-07-2011 19:32:02 14.9 C 9.81 g/m*3 14.9 C 0 km/h
1279 13-07-2011 19:44:02 14.9 C 9.69 g/m*3 14.9 C 0 km/h
1280 13-07-2011 19:56:02 14.5 C 9.58 g/m*3 14.5 C 0 km/h
1281 13-07-2011 20:08:02 14.5 C 9.58 g/m*3 14.5 C 0 km/h
1282 13-07-2011 20:20:01 14.5 C 9.33 g/m*3 14.5 C 0 km/h
1283 13-07-2011 20:32:04 14.5 C 9.08 g/m*3 14.5 C 0 km/h
1284 13-07-2011 20:44:04 14.4 C 9.15 g/m*3 14.4 C 0 km/h
1285 13-07-2011 20:56:02 14.4 C 9.15 g/m*3 14.4 C 0 km/h
1286 13-07-2011 21:08:01 13.9 C 9.11 g/m*3 13.9 C 0 km/h
1287 13-07-2011 21:20:02 13.4 C 9.07 g/m*3 13.4 C 0 km/h
1288 13-07-2011 21:32:02 13.3 C 9.13 g/m*3 13.3 C 0 km/h
1289 13-07-2011 21:44:02 13.2 C 9.19 g/m*3 13.2 C 0 km/h
1290 13-07-2011 21:57:02 13.1 C 9.24 g/m*3 13.1 C 0 km/h
1291 13-07-2011 22:09:02 13.1 C 9.36 g/m*3 13.1 C 0 km/h
1292 13-07-2011 22:21:02 13 C 9.41 g/m*3 13 C 0 km/h
1293 13-07-2011 22:33:02 13.1 C 9.59 g/m*3 13.1 C 0 km/h
1294 13-07-2011 22:45:02 13.3 C 9.59 g/m*3 13.3 C 0 km/h
1295 13-07-2011 22:57:02 13.2 C 9.3 g/m*3 13.2 C 0 km/h
1296 13-07-2011 23:09:02 13.3 C 9.01 g/m*3 13.3 C 0 km/h
1297 13-07-2011 23:21:02 13.4 C 8.72 g/m*3 13.4 C 0 km/h
1298 13-07-2011 23:33:02 13.3 C 8.9 g/m*3 13.3 C 0 km/h
1299 13-07-2011 23:45:02 13.4 C 9.07 g/m*3 13.4 C 0 km/h
1300 13-07-2011 23:57:02 13.5 C 8.89 g/m*3 13.5 C 0 km/h
Sensor: Nr:Datum:Temp:Abs-Feuchte:Windchill:Wind:
Aussen-T/F 1301 14-07-2011 00:09:02 13.6 C 8.71 g/m*3 13.6 C 0 km/h
1302 14-07-2011 00:21:02 13.4 C 8.6 g/m*3 13.4 C 0 km/h
1303 14-07-2011 00:33:02 13.4 C 8.72 g/m*3 13.4 C 0 km/h
1304 14-07-2011 00:45:02 13.3 C 8.78 g/m*3 13.3 C 0 km/h
1305 14-07-2011 00:57:02 13.4 C 8.83 g/m*3 13.4 C 0 km/h
1306 14-07-2011 01:09:02 13.3 C 9.01 g/m*3 13.3 C 0 km/h
1307 14-07-2011 01:21:02 13.4 C 8.83 g/m*3 13.4 C 0 km/h
1308 14-07-2011 01:33:03 13.7 C 8.53 g/m*3 13.7 C 0 km/h
1309 14-07-2011 01:45:03 13.7 C 8.41 g/m*3 13.7 C 0 km/h
1310 14-07-2011 01:57:03 13.3 C 8.09 g/m*3 13.3 C 0 km/h
1311 14-07-2011 02:09:03 13.5 C 8.07 g/m*3 13.5 C 0 km/h
1312 14-07-2011 02:21:03 13.6 C 7.89 g/m*3 13.6 C 0 km/h
1313 14-07-2011 02:33:03 12.9 C 8 g/m*3 12.9 C 0 km/h
1314 14-07-2011 02:45:03 12.8 C 8.18 g/m*3 12.8 C 0 km/h
1315 14-07-2011 02:57:03 13 C 8.17 g/m*3 13 C 0 km/h
1316 14-07-2011 03:09:03 13.4 C 7.9 g/m*3 13.4 C 0 km/h
1317 14-07-2011 03:21:03 13.4 C 7.79 g/m*3 13.4 C 0 km/h
1318 14-07-2011 03:33:03 13.4 C 7.67 g/m*3 13.4 C 0 km/h
1319 14-07-2011 03:45:03 13.3 C 7.74 g/m*3 13.3 C 0 km/h
1320 14-07-2011 03:57:03 13.3 C 7.86 g/m*3 13.3 C 0 km/h
1321 14-07-2011 04:09:03 13.5 C 7.72 g/m*3 13.5 C 0 km/h
1322 14-07-2011 04:21:03 13.4 C 7.56 g/m*3 13.4 C 0 km/h
1323 14-07-2011 04:33:04 13.1 C 7.65 g/m*3 13.1 C 0 km/h
1324 14-07-2011 04:45:04 13.1 C 7.53 g/m*3 13.1 C 0 km/h
1325 14-07-2011 04:57:04 13.1 C 7.65 g/m*3 13.1 C 0 km/h
Sensor: Nr:Datum:Temp:Abs-Feuchte:Windchill:Wind:
Aussen-T/F 1326 14-07-2011 05:09:04 13 C 7.6 g/m*3 13 C 0 km/h
1327 14-07-2011 05:21:04 12.8 C 7.73 g/m*3 12.8 C 0 km/h
1328 14-07-2011 05:33:04 12.8 C 7.73 g/m*3 12.8 C 0 km/h
1329 14-07-2011 05:45:04 12.7 C 7.68 g/m*3 12.7 C 0 km/h
1330 14-07-2011 05:57:04 12.7 C 7.79 g/m*3 12.7 C 0 km/h
1331 14-07-2011 06:09:04 12.7 C 7.79 g/m*3 12.7 C 0 km/h
1332 14-07-2011 06:21:04 13.2 C 7.69 g/m*3 13.2 C 0 km/h
1333 14-07-2011 06:33:04 13.5 C 7.49 g/m*3 13.5 C 0 km/h
1334 14-07-2011 06:45:04 13.6 C 7.41 g/m*3 13.6 C 0 km/h
1335 14-07-2011 06:57:04 13.4 C 7.44 g/m*3 13.4 C 0 km/h
1336 14-07-2011 07:09:02 13.8 C 7.63 g/m*3 13.8 C 0 km/h
1337 14-07-2011 07:21:01 13.7 C 7.58 g/m*3 13.7 C 0 km/h
1338 14-07-2011 07:33:02 13.4 C 7.56 g/m*3 13.4 C 0 km/h
1339 14-07-2011 07:45:01 13.4 C 7.56 g/m*3 13.4 C 0 km/h
1340 14-07-2011 07:57:01 13.8 C 7.63 g/m*3 13.8 C 0 km/h
1341 14-07-2011 08:09:02 13.6 C 7.53 g/m*3 13.6 C 0 km/h
1342 14-07-2011 08:21:02 14.3 C 7.49 g/m*3 14.3 C 0 km/h
1343 14-07-2011 08:33:02 14.7 C 7.18 g/m*3 14.7 C 0 km/h
1344 14-07-2011 08:45:02 15.1 C 7.22 g/m*3 15.1 C 0 km/h
1345 14-07-2011 08:57:02 14.9 C 7.26 g/m*3 14.9 C 0 km/h
1346 14-07-2011 09:09:01 15.1 C 7.1 g/m*3 15.1 C 0 km/h
1347 14-07-2011 09:21:02 16 C 7.08 g/m*3 16 C 0 km/h
1348 14-07-2011 09:33:01 15.8 C 6.6 g/m*3 15.8 C 0 km/h
1349 14-07-2011 09:45:02 16.1 C 6.03 g/m*3 16.1 C 0 km/h
1350 14-07-2011 09:57:02 15.9 C 5.55 g/m*3 15.9 C 0 km/h
Sensor: Nr:Datum:Temp:Abs-Feuchte:Windchill:Wind:
Aussen-T/F 1351 14-07-2011 10:09:01 16.4 C 5.86 g/m*3 16.4 C 0 km/h
1352 14-07-2011 10:21:01 16.4 C 5.72 g/m*3 16.4 C 0 km/h
1353 14-07-2011 10:33:01 16.6 C 5.79 g/m*3 16.6 C 0 km/h
1354 14-07-2011 10:45:02 16.1 C 5.76 g/m*3 16.1 C 0 km/h
1355 14-07-2011 10:57:02 16.6 C 5.93 g/m*3 16.6 C 0 km/h
1356 14-07-2011 11:09:02 17.5 C 5.67 g/m*3 17.5 C 0 km/h
1357 14-07-2011 11:21:02 17.2 C 5.86 g/m*3 17.2 C 0 km/h
1358 14-07-2011 11:33:02 17.4 C 5.78 g/m*3 17.4 C 0 km/h
1359 14-07-2011 11:45:02 17.4 C 5.93 g/m*3 17.4 C 0 km/h
1360 14-07-2011 11:57:02 17.6 C 6 g/m*3 17.6 C 0 km/h
1361 14-07-2011 12:09:01 17.6 C 5.85 g/m*3 17.6 C 0 km/h
1362 14-07-2011 12:21:01 17.8 C 5.92 g/m*3 17.8 C 0 km/h
1363 14-07-2011 12:33:02 17.9 C 5.65 g/m*3 17.9 C 0 km/h
1364 14-07-2011 12:45:02 18.9 C 5.67 g/m*3 18.9 C 0 km/h
1365 14-07-2011 12:57:02 17.7 C 5.58 g/m*3 17.7 C 0 km/h
1366 14-07-2011 13:09:02 18.3 C 5.47 g/m*3 18.3 C 0 km/h
1367 14-07-2011 13:21:01 17.7 C 5.58 g/m*3 17.7 C 0 km/h
1368 14-07-2011 13:33:02 17.8 C 5.92 g/m*3 17.8 C 0 km/h
1369 14-07-2011 13:45:02 17.5 C 5.81 g/m*3 17.5 C 0 km/h
1370 14-07-2011 13:57:02 17.5 C 5.96 g/m*3 17.5 C 0 km/h
1371 14-07-2011 14:09:02 18.2 C 5.6 g/m*3 18.2 C 0 km/h
1372 14-07-2011 14:21:01 18.9 C 5.51 g/m*3 18.9 C 0 km/h
1373 14-07-2011 14:33:02 21.9 C 5.79 g/m*3 21.9 C 0 km/h
1374 14-07-2011 14:45:01 19.6 C 5.4 g/m*3 19.6 C 0 km/h
1375 14-07-2011 14:57:01 18.9 C 5.51 g/m*3 18.9 C 0 km/h
Sensor: Nr:Datum:Temp:Abs-Feuchte:Windchill:Wind:
Aussen-T/F 1376 14-07-2011 15:09:02 22 C 5.82 g/m*3 22 C 0 km/h
1377 14-07-2011 15:21:02 20.8 C 5.07 g/m*3 20.8 C 0 km/h
1378 14-07-2011 15:33:02 20.9 C 5.65 g/m*3 20.9 C 0 km/h
1379 14-07-2011 15:45:02 20.8 C 5.98 g/m*3 20.8 C 0 km/h
1380 14-07-2011 15:57:02 19.5 C 5.87 g/m*3 19.5 C 0 km/h
1381 14-07-2011 16:09:02 20.5 C 5.52 g/m*3 20.5 C 0 km/h
1382 14-07-2011 16:21:02 18.8 C 5.8 g/m*3 18.8 C 0 km/h
1383 14-07-2011 16:33:01 18.5 C 5.85 g/m*3 18.5 C 0 km/h
1384 14-07-2011 16:45:02 18.5 C 6.01 g/m*3 18.5 C 0 km/h
1385 14-07-2011 16:57:02 18.2 C 5.91 g/m*3 18.2 C 0 km/h
1386 14-07-2011 17:09:01 18.6 C 6.37 g/m*3 18.6 C 0 km/h
1387 14-07-2011 17:21:01 19.1 C 6.39 g/m*3 19.1 C 0 km/h
1388 14-07-2011 17:33:02 17.6 C 6.45 g/m*3 17.6 C 0 km/h
1389 14-07-2011 17:45:02 16.9 C 6.47 g/m*3 16.9 C 0 km/h
1390 14-07-2011 17:57:02 17.4 C 6.37 g/m*3 17.4 C 0 km/h
1391 14-07-2011 18:09:01 17.4 C 6.08 g/m*3 17.4 C 0 km/h
1392 14-07-2011 18:21:02 17.5 C 6.26 g/m*3 17.5 C 0 km/h
1393 14-07-2011 18:33:02 17.5 C 6.26 g/m*3 17.5 C 0 km/h
1394 14-07-2011 18:45:01 17.8 C 6.07 g/m*3 17.8 C 0 km/h
1395 14-07-2011 18:57:01 17.6 C 6.15 g/m*3 17.6 C 0 km/h
1396 14-07-2011 19:09:02 17.1 C 6.55 g/m*3 17.1 C 0 km/h
1397 14-07-2011 19:21:01 16.7 C 6.54 g/m*3 16.7 C 0 km/h
1398 14-07-2011 19:33:02 16.7 C 6.54 g/m*3 16.7 C 0 km/h
1399 14-07-2011 19:45:01 17 C 6.37 g/m*3 17 C 0 km/h
1400 14-07-2011 19:57:01 16.8 C 6.29 g/m*3 16.8 C 0 km/h
Sensor: Nr:Datum:Temp:Abs-Feuchte:Windchill:Wind:
Aussen-T/F 1401 14-07-2011 20:09:02 16.6 C 6.22 g/m*3 16.6 C 0 km/h
1402 14-07-2011 20:21:01 16.1 C 6.17 g/m*3 16.1 C 0 km/h
1403 14-07-2011 20:33:02 16 C 6.27 g/m*3 16 C 0 km/h
1404 14-07-2011 20:45:01 15.8 C 6.46 g/m*3 15.8 C 0 km/h
1405 14-07-2011 20:57:01 15.5 C 6.48 g/m*3 15.5 C 0 km/h
1406 14-07-2011 21:09:02 15.2 C 6.62 g/m*3 15.2 C 0 km/h
1407 14-07-2011 21:21:01 15.1 C 6.58 g/m*3 15.1 C 0 km/h
1408 14-07-2011 21:33:02 15 C 6.67 g/m*3 15 C 0 km/h
1409 14-07-2011 21:45:01 15.1 C 6.45 g/m*3 15.1 C 0 km/h
1410 14-07-2011 21:57:01 15 C 6.41 g/m*3 15 C 0 km/h
1411 14-07-2011 22:09:02 14.8 C 6.59 g/m*3 14.8 C 0 km/h
1412 14-07-2011 22:21:02 14.6 C 6.63 g/m*3 14.6 C 0 km/h
1413 14-07-2011 22:33:02 14.2 C 6.72 g/m*3 14.2 C 0 km/h
1414 14-07-2011 22:46:03 14.1 C 6.8 g/m*3 14.1 C 0 km/h
1415 14-07-2011 22:58:03 13.8 C 6.79 g/m*3 13.8 C 0 km/h
1416 14-07-2011 23:10:03 13.8 C 6.79 g/m*3 13.8 C 0 km/h
1417 14-07-2011 23:22:03 13.8 C 6.91 g/m*3 13.8 C 0 km/h
1418 14-07-2011 23:34:03 13.8 C 6.91 g/m*3 13.8 C 0 km/h
1419 14-07-2011 23:46:03 13.8 C 6.79 g/m*3 13.8 C 0 km/h
1420 14-07-2011 23:58:03 13.5 C 6.9 g/m*3 13.5 C 0 km/h
1421 15-07-2011 00:10:03 13.7 C 7.1 g/m*3 13.7 C 0 km/h
1422 15-07-2011 00:22:03 13.6 C 7.06 g/m*3 13.6 C 0 km/h
1423 15-07-2011 00:34:03 13.4 C 6.97 g/m*3 13.4 C 0 km/h
1424 15-07-2011 00:46:03 13.5 C 6.9 g/m*3 13.5 C 0 km/h
1425 15-07-2011 00:58:03 13.4 C 6.86 g/m*3 13.4 C 0 km/h
Sensor: Nr:Datum:Temp:Abs-Feuchte:Windchill:Wind:
Aussen-T/F 1426 15-07-2011 01:10:03 13.5 C 6.9 g/m*3 13.5 C 0 km/h
1427 15-07-2011 01:22:03 13.5 C 6.78 g/m*3 13.5 C 0 km/h
1428 15-07-2011 01:34:03 13.5 C 6.78 g/m*3 13.5 C 0 km/h
1429 15-07-2011 01:46:03 13.4 C 6.74 g/m*3 13.4 C 0 km/h
1430 15-07-2011 01:58:04 13.4 C 6.74 g/m*3 13.4 C 0 km/h
1431 15-07-2011 02:10:04 13.4 C 6.86 g/m*3 13.4 C 0 km/h
1432 15-07-2011 02:22:04 13.4 C 6.86 g/m*3 13.4 C 0 km/h
1433 15-07-2011 02:34:04 13.4 C 6.86 g/m*3 13.4 C 0 km/h
1434 15-07-2011 02:46:04 13.5 C 6.78 g/m*3 13.5 C 0 km/h
1435 15-07-2011 02:58:04 13.4 C 6.86 g/m*3 13.4 C 0 km/h
1436 15-07-2011 03:10:04 13.5 C 6.9 g/m*3 13.5 C 0 km/h
1437 15-07-2011 03:22:04 13.1 C 6.62 g/m*3 13.1 C 0 km/h
1438 15-07-2011 03:34:04 13.6 C 6.83 g/m*3 13.6 C 0 km/h
1439 15-07-2011 03:46:04 13.4 C 6.86 g/m*3 13.4 C 0 km/h
1440 15-07-2011 03:58:04 13.3 C 6.82 g/m*3 13.3 C 0 km/h
1441 15-07-2011 04:10:04 13.3 C 6.82 g/m*3 13.3 C 0 km/h
1442 15-07-2011 04:22:04 13.5 C 6.78 g/m*3 13.5 C 0 km/h
1443 15-07-2011 04:34:04 13.5 C 6.78 g/m*3 13.5 C 0 km/h
1444 15-07-2011 04:46:04 13.6 C 6.71 g/m*3 13.6 C 0 km/h
1445 15-07-2011 04:58:04 13.6 C 6.83 g/m*3 13.6 C 0 km/h
1446 15-07-2011 05:10:04 13.4 C 6.97 g/m*3 13.4 C 0 km/h
1447 15-07-2011 05:22:04 13.4 C 7.09 g/m*3 13.4 C 0 km/h
1448 15-07-2011 05:34:04 13.4 C 6.97 g/m*3 13.4 C 0 km/h
1449 15-07-2011 05:46:04 13.5 C 7.13 g/m*3 13.5 C 0 km/h
1450 15-07-2011 05:58:04 13.3 C 7.16 g/m*3 13.3 C 0 km/h
Sensor: Nr:Datum:Temp:Abs-Feuchte:Windchill:Wind:
Aussen-T/F 1451 15-07-2011 06:10:04 13.1 C 7.19 g/m*3 13.1 C 0 km/h
1452 15-07-2011 06:22:04 13.4 C 7.21 g/m*3 13.4 C 0 km/h
1453 15-07-2011 06:34:05 13.5 C 7.13 g/m*3 13.5 C 0 km/h
1454 15-07-2011 06:46:05 13.7 C 7.1 g/m*3 13.7 C 0 km/h
1455 15-07-2011 06:58:05 13.7 C 7.1 g/m*3 13.7 C 0 km/h
1456 15-07-2011 07:10:05 13.7 C 7.1 g/m*3 13.7 C 0 km/h
1457 15-07-2011 07:22:05 13.9 C 7.07 g/m*3 13.9 C 0 km/h
1458 15-07-2011 07:34:03 14.2 C 7.08 g/m*3 14.2 C 0 km/h
1459 15-07-2011 07:46:02 14.2 C 6.96 g/m*3 14.2 C 0 km/h
1460 15-07-2011 07:58:02 14.4 C 7.05 g/m*3 14.4 C 0 km/h
1461 15-07-2011 08:10:02 14.5 C 7.09 g/m*3 14.5 C 0 km/h
1462 15-07-2011 08:22:02 14.7 C 7.18 g/m*3 14.7 C 0 km/h
1463 15-07-2011 08:34:02 14.9 C 7.14 g/m*3 14.9 C 0 km/h
1464 15-07-2011 08:46:01 15.4 C 7.09 g/m*3 15.4 C 0 km/h
1465 15-07-2011 08:58:01 15.1 C 7.1 g/m*3 15.1 C 0 km/h
1466 15-07-2011 09:10:01 15 C 7.18 g/m*3 15 C 0 km/h
1467 15-07-2011 09:22:01 15.1 C 7.22 g/m*3 15.1 C 0 km/h
1468 15-07-2011 09:34:02 15.4 C 7.23 g/m*3 15.4 C 0 km/h
1469 15-07-2011 09:46:02 15.6 C 7.31 g/m*3 15.6 C 0 km/h
1470 15-07-2011 09:58:02 16.9 C 7.05 g/m*3 16.9 C 0 km/h
1471 15-07-2011 10:10:02 17.7 C 6.79 g/m*3 17.7 C 0 km/h
1472 15-07-2011 10:22:02 18.2 C 6.37 g/m*3 18.2 C 0 km/h
1473 15-07-2011 10:34:03 18.9 C 6.8 g/m*3 18.9 C 0 km/h
1474 15-07-2011 10:46:02 19.3 C 5.97 g/m*3 19.3 C 0 km/h
1475 15-07-2011 10:58:02 19.5 C 6.04 g/m*3 19.5 C 0 km/h
Sensor: Nr:Datum:Temp:Abs-Feuchte:Windchill:Wind:
Aussen-T/F 1476 15-07-2011 11:10:02 19.5 C 5.87 g/m*3 19.5 C 0 km/h
1477 15-07-2011 11:22:02 19.8 C 5.81 g/m*3 19.8 C 0 km/h
1478 15-07-2011 11:34:03 20.8 C 5.79 g/m*3 20.8 C 0 km/h
1479 15-07-2011 11:46:02 19.8 C 5.47 g/m*3 19.8 C 0 km/h
1480 15-07-2011 11:58:02 19.8 C 5.3 g/m*3 19.8 C 0 km/h
1481 15-07-2011 12:10:02 19.8 C 5.3 g/m*3 19.8 C 0 km/h
1482 15-07-2011 12:22:01 20.1 C 5.39 g/m*3 20.1 C 0 km/h
1483 15-07-2011 12:34:02 20.8 C 5.79 g/m*3 20.8 C 0 km/h
1484 15-07-2011 12:46:02 21.3 C 5.59 g/m*3 21.3 C 0 km/h
1485 15-07-2011 12:58:02 21.2 C 5.19 g/m*3 21.2 C 0 km/h
1486 15-07-2011 13:10:02 23 C 5.34 g/m*3 23 C 0 km/h
1487 15-07-2011 13:22:02 22.8 C 5.08 g/m*3 22.8 C 0 km/h
1488 15-07-2011 13:34:02 23.5 C 4.23 g/m*3 23.5 C 0 km/h
1489 15-07-2011 13:46:02 24.2 C 5.28 g/m*3 24.2 C 0 km/h
1490 15-07-2011 13:58:02 24.8 C 4.55 g/m*3 24.8 C 0 km/h
1491 15-07-2011 14:10:03 25.9 C 4.84 g/m*3 25.9 C 0 km/h
1492 15-07-2011 14:22:02 27.1 C 5.18 g/m*3 27.1 C 0 km/h
1493 15-07-2011 14:34:02 29.3 C 5.84 g/m*3 29.3 C 0 km/h
1494 15-07-2011 14:46:03 29 C 5.74 g/m*3 29 C 0 km/h
1495 15-07-2011 14:58:03 25.5 C 4.73 g/m*3 25.5 C 0 km/h
1496 15-07-2011 15:10:04 28.1 C 5.47 g/m*3 28.1 C 0 km/h
1497 15-07-2011 15:22:03 26.3 C 4.95 g/m*3 26.3 C 0 km/h
1498 15-07-2011 15:34:03 27.6 C 5.32 g/m*3 27.6 C 0 km/h
1499 15-07-2011 15:46:03 26.2 C 4.92 g/m*3 26.2 C 0 km/h
1500 15-07-2011 15:58:03 28.7 C 5.65 g/m*3 28.7 C 0 km/h
Sensor: Nr:Datum:Temp:Abs-Feuchte:Windchill:Wind:
Aussen-T/F 1501 15-07-2011 16:10:03 31.3 C 6.5 g/m*3 31.3 C 0 km/h
1502 15-07-2011 16:22:03 28.2 C 5.5 g/m*3 28.2 C 0 km/h
1503 15-07-2011 16:34:03 27.4 C 5.26 g/m*3 27.4 C 0 km/h
1504 15-07-2011 16:46:02 25.7 C 4.79 g/m*3 25.7 C 0 km/h
1505 15-07-2011 16:58:02 28 C 5.44 g/m*3 28 C 0 km/h
1506 15-07-2011 17:10:03 27.3 C 5.23 g/m*3 27.3 C 0 km/h
1507 15-07-2011 17:22:02 28.5 C 5.59 g/m*3 28.5 C 0 km/h
1508 15-07-2011 17:34:03 25.2 C 4.66 g/m*3 25.2 C 0 km/h
1509 15-07-2011 17:46:01 25.2 C 4.66 g/m*3 25.2 C 0 km/h
1510 15-07-2011 17:58:01 25.6 C 4.76 g/m*3 25.6 C 0 km/h
1511 15-07-2011 18:10:03 26.4 C 4.98 g/m*3 26.4 C 0 km/h
1512 15-07-2011 18:22:02 24.3 C 4.43 g/m*3 24.3 C 0 km/h
1513 15-07-2011 18:34:02 27.6 C 5.32 g/m*3 27.6 C 0 km/h
1514 15-07-2011 18:46:02 29.6 C 5.94 g/m*3 29.6 C 0 km/h
1515 15-07-2011 18:58:02 27.1 C 5.18 g/m*3 27.1 C 0 km/h
1516 15-07-2011 19:10:05 28 C 5.44 g/m*3 28 C 0 km/h
1517 15-07-2011 19:22:02 25.1 C 4.63 g/m*3 25.1 C 0 km/h
1518 15-07-2011 19:34:02 23.2 C 4.16 g/m*3 23.2 C 0 km/h
1519 15-07-2011 19:46:02 24.2 C 4.4 g/m*3 24.2 C 0 km/h
1520 15-07-2011 19:58:02 24 C 4.35 g/m*3 24 C 0 km/h
1521 15-07-2011 20:10:02 23 C 4.32 g/m*3 23 C 0 km/h
1522 15-07-2011 20:22:02 22 C 4.46 g/m*3 22 C 0 km/h
1523 15-07-2011 20:34:02 20.7 C 5.76 g/m*3 20.7 C 0 km/h
1524 15-07-2011 20:46:02 19.9 C 6.01 g/m*3 19.9 C 0 km/h
1525 15-07-2011 20:58:02 19.7 C 5.94 g/m*3 19.7 C 0 km/h
Sensor: Nr:Datum:Temp:Abs-Feuchte:Windchill:Wind:
Aussen-T/F 1526 15-07-2011 21:10:03 18.6 C 6.37 g/m*3 18.6 C 0 km/h
1527 15-07-2011 21:22:02 17.9 C 6.26 g/m*3 17.9 C 0 km/h
1528 15-07-2011 21:34:02 17.4 C 5.78 g/m*3 17.4 C 0 km/h
1529 15-07-2011 21:46:02 16.8 C 6 g/m*3 16.8 C 0 km/h
1530 15-07-2011 21:58:02 16.2 C 5.79 g/m*3 16.2 C 0 km/h
1531 15-07-2011 22:10:02 15.8 C 6.46 g/m*3 15.8 C 0 km/h
1532 15-07-2011 22:22:01 15 C 6.03 g/m*3 15 C 0 km/h
1533 15-07-2011 22:34:02 14.5 C 6.34 g/m*3 14.5 C 0 km/h
1534 15-07-2011 22:47:02 14.1 C 6.19 g/m*3 14.1 C 0 km/h
1535 15-07-2011 22:59:02 13.8 C 6.31 g/m*3 13.8 C 0 km/h
1536 15-07-2011 23:11:02 13.4 C 6.04 g/m*3 13.4 C 0 km/h
1537 15-07-2011 23:23:02 13.1 C 6.16 g/m*3 13.1 C 0 km/h
1538 15-07-2011 23:35:02 13 C 6.24 g/m*3 13 C 0 km/h
1539 15-07-2011 23:47:02 12.8 C 6.5 g/m*3 12.8 C 0 km/h
1540 15-07-2011 23:59:02 12.4 C 6.34 g/m*3 12.4 C 0 km/h
1541 16-07-2011 00:11:02 12.2 C 6.15 g/m*3 12.2 C 0 km/h
1542 16-07-2011 00:23:02 12.3 C 6.3 g/m*3 12.3 C 0 km/h
1543 16-07-2011 00:35:02 12.1 C 6.22 g/m*3 12.1 C 0 km/h
1544 16-07-2011 00:47:02 11.9 C 6.25 g/m*3 11.9 C 0 km/h
1545 16-07-2011 00:59:02 11.7 C 6.28 g/m*3 11.7 C 0 km/h
1546 16-07-2011 01:11:02 11.3 C 6.32 g/m*3 11.3 C 0 km/h
1547 16-07-2011 01:23:02 11.1 C 6.35 g/m*3 11.1 C 0 km/h
1548 16-07-2011 01:35:02 10.8 C 6.42 g/m*3 10.8 C 0 km/h
1549 16-07-2011 01:47:02 10.7 C 6.48 g/m*3 10.7 C 0 km/h
1550 16-07-2011 01:59:02 10.6 C 6.64 g/m*3 10.6 C 0 km/h
Sensor: Nr:Datum:Temp:Abs-Feuchte:Windchill:Wind:
Aussen-T/F 1551 16-07-2011 02:11:02 10.4 C 6.65 g/m*3 10.4 C 0 km/h
1552 16-07-2011 02:23:02 10.3 C 6.7 g/m*3 10.3 C 0 km/h
1553 16-07-2011 02:35:02 10.3 C 6.8 g/m*3 10.3 C 0 km/h
1554 16-07-2011 02:47:02 10.1 C 6.71 g/m*3 10.1 C 0 km/h
1555 16-07-2011 02:59:02 9.9 C 6.82 g/m*3 9.9 C 0 km/h
1556 16-07-2011 03:11:03 9.8 C 6.87 g/m*3 9.8 C 0 km/h
1557 16-07-2011 03:23:03 9.7 C 6.91 g/m*3 9.7 C 0 km/h
1558 16-07-2011 03:35:03 9.7 C 7.01 g/m*3 9.7 C 0 km/h
1559 16-07-2011 03:47:03 9.4 C 6.96 g/m*3 9.4 C 0 km/h
1560 16-07-2011 03:59:03 9.1 C 6.74 g/m*3 9.1 C 0 km/h
1561 16-07-2011 04:11:03 9 C 6.79 g/m*3 9 C 0 km/h
1562 16-07-2011 04:23:03 8.9 C 6.92 g/m*3 8.9 C 0 km/h
1563 16-07-2011 04:35:03 8.9 C 7.1 g/m*3 8.9 C 0 km/h
1564 16-07-2011 04:47:03 8.7 C 7.01 g/m*3 8.7 C 0 km/h
1565 16-07-2011 04:59:03 8.5 C 6.92 g/m*3 8.5 C 0 km/h
1566 16-07-2011 05:11:03 8.5 C 7 g/m*3 8.5 C 0 km/h
1567 16-07-2011 05:23:03 8.5 C 7.09 g/m*3 8.5 C 0 km/h
1568 16-07-2011 05:35:03 8.4 C 7.04 g/m*3 8.4 C 0 km/h
1569 16-07-2011 05:47:03 8.2 C 6.95 g/m*3 8.2 C 0 km/h
1570 16-07-2011 05:59:03 8.5 C 7.17 g/m*3 8.5 C 0 km/h
1571 16-07-2011 06:11:03 8.4 C 7.13 g/m*3 8.4 C 0 km/h
1572 16-07-2011 06:23:03 8.5 C 7.17 g/m*3 8.5 C 0 km/h
1573 16-07-2011 06:35:03 8.6 C 7.3 g/m*3 8.6 C 0 km/h
1574 16-07-2011 06:47:03 8.8 C 7.4 g/m*3 8.8 C 0 km/h
1575 16-07-2011 06:59:03 9.1 C 7.45 g/m*3 9.1 C 0 km/h
Sensor: Nr:Datum:Temp:Abs-Feuchte:Windchill:Wind:
Aussen-T/F 1576 16-07-2011 07:11:03 9.8 C 7.79 g/m*3 9.8 C 0 km/h
1577 16-07-2011 07:23:03 11 C 8.31 g/m*3 11 C 0 km/h
1578 16-07-2011 07:35:04 11.7 C 8.26 g/m*3 11.7 C 0 km/h
1579 16-07-2011 07:47:04 11.9 C 7.94 g/m*3 11.9 C 0 km/h
1580 16-07-2011 07:59:04 12.6 C 7.85 g/m*3 12.6 C 0 km/h
1581 16-07-2011 08:11:04 13.5 C 7.95 g/m*3 13.5 C 0 km/h
1582 16-07-2011 08:23:02 13.7 C 7.7 g/m*3 13.7 C 0 km/h
1583 16-07-2011 08:35:02 14.2 C 7.45 g/m*3 14.2 C 0 km/h
1584 16-07-2011 08:47:02 14.8 C 7.47 g/m*3 14.8 C 0 km/h
1585 16-07-2011 08:59:02 15.8 C 7.54 g/m*3 15.8 C 0 km/h
1586 16-07-2011 09:11:03 16.5 C 7.44 g/m*3 16.5 C 0 km/h
1587 16-07-2011 09:23:02 17.1 C 7.57 g/m*3 17.1 C 0 km/h
1588 16-07-2011 09:35:02 17.7 C 7.39 g/m*3 17.7 C 0 km/h
1589 16-07-2011 09:47:02 18.1 C 7.42 g/m*3 18.1 C 0 km/h
1590 16-07-2011 09:59:02 19.7 C 7.3 g/m*3 19.7 C 0 km/h
1591 16-07-2011 10:11:01 20.1 C 7.3 g/m*3 20.1 C 0 km/h
1592 16-07-2011 10:23:02 20.3 C 8.09 g/m*3 20.3 C 0 km/h
1593 16-07-2011 10:35:02 21.4 C 8.06 g/m*3 21.4 C 0 km/h
1594 16-07-2011 10:47:01 22.5 C 5.99 g/m*3 22.5 C 0 km/h
1595 16-07-2011 10:59:01 23.1 C 5.17 g/m*3 23.1 C 0 km/h
1596 16-07-2011 11:11:02 24 C 5 g/m*3 24 C 0 km/h
1597 16-07-2011 11:23:01 24.4 C 4.67 g/m*3 24.4 C 0 km/h
1598 16-07-2011 11:35:01 25.2 C 4.89 g/m*3 25.2 C 0 km/h
1599 16-07-2011 11:47:01 25.6 C 5 g/m*3 25.6 C 0 km/h
1600 16-07-2011 11:59:01 26.3 C 4.95 g/m*3 26.3 C 0 km/h
Sensor: Nr:Datum:Temp:Abs-Feuchte:Windchill:Wind:
Aussen-T/F 1601 16-07-2011 12:11:02 25.7 C 4.79 g/m*3 25.7 C 0 km/h
1602 16-07-2011 12:23:01 26.2 C 5.17 g/m*3 26.2 C 0 km/h
1603 16-07-2011 12:35:02 25.8 C 5.06 g/m*3 25.8 C 0 km/h
1604 16-07-2011 12:47:01 26 C 4.87 g/m*3 26 C 0 km/h
1605 16-07-2011 12:59:01 26 C 5.11 g/m*3 26 C 0 km/h
1606 16-07-2011 13:11:02 26.7 C 5.06 g/m*3 26.7 C 0 km/h
1607 16-07-2011 13:23:02 27.3 C 5.23 g/m*3 27.3 C 0 km/h
1608 16-07-2011 13:35:01 27.2 C 5.2 g/m*3 27.2 C 0 km/h
1609 16-07-2011 13:47:02 26.3 C 4.95 g/m*3 26.3 C 0 km/h
1610 16-07-2011 13:59:02 26.6 C 5.03 g/m*3 26.6 C 0 km/h
1611 16-07-2011 14:11:01 26.6 C 5.03 g/m*3 26.6 C 0 km/h
1612 16-07-2011 14:23:02 26.8 C 5.35 g/m*3 26.8 C 0 km/h
1613 16-07-2011 14:35:01 27.3 C 5.23 g/m*3 27.3 C 0 km/h
1614 16-07-2011 14:47:02 27.4 C 5.26 g/m*3 27.4 C 0 km/h
1615 16-07-2011 14:59:02 28.1 C 5.47 g/m*3 28.1 C 0 km/h
1616 16-07-2011 15:11:01 27.9 C 5.41 g/m*3 27.9 C 0 km/h
1617 16-07-2011 15:23:02 27.5 C 5.29 g/m*3 27.5 C 0 km/h
1618 16-07-2011 15:35:01 27.7 C 5.35 g/m*3 27.7 C 0 km/h
1619 16-07-2011 15:47:02 27 C 5.15 g/m*3 27 C 0 km/h
1620 16-07-2011 15:59:03 27.3 C 5.23 g/m*3 27.3 C 0 km/h
1621 16-07-2011 16:11:02 27.7 C 5.35 g/m*3 27.7 C 0 km/h
1622 16-07-2011 16:23:02 27.9 C 5.41 g/m*3 27.9 C 0 km/h
1623 16-07-2011 16:35:03 28.3 C 5.53 g/m*3 28.3 C 0 km/h
1624 16-07-2011 16:47:01 27.5 C 5.29 g/m*3 27.5 C 0 km/h
1625 16-07-2011 16:59:01 27.5 C 5.29 g/m*3 27.5 C 0 km/h
Sensor: Nr:Datum:Temp:Abs-Feuchte:Windchill:Wind:
Aussen-T/F 1626 16-07-2011 17:11:02 26.8 C 5.09 g/m*3 26.8 C 0 km/h
1627 16-07-2011 17:23:02 26.9 C 5.63 g/m*3 26.9 C 0 km/h
1628 16-07-2011 17:35:02 26.4 C 5.23 g/m*3 26.4 C 0 km/h
1629 16-07-2011 17:47:02 26.5 C 5.51 g/m*3 26.5 C 0 km/h
1630 16-07-2011 17:59:02 25.5 C 5.68 g/m*3 25.5 C 0 km/h
1631 16-07-2011 18:11:02 25.2 C 6.05 g/m*3 25.2 C 0 km/h
1632 16-07-2011 18:23:02 25.1 C 5.79 g/m*3 25.1 C 0 km/h
1633 16-07-2011 18:35:01 25 C 5.75 g/m*3 25 C 0 km/h
1634 16-07-2011 18:47:02 24.9 C 5.72 g/m*3 24.9 C 0 km/h
1635 16-07-2011 18:59:02 24.8 C 5.69 g/m*3 24.8 C 0 km/h
1636 16-07-2011 19:11:01 24.5 C 5.82 g/m*3 24.5 C 0 km/h
1637 16-07-2011 19:23:01 24.3 C 6.2 g/m*3 24.3 C 0 km/h
1638 16-07-2011 19:35:02 24.3 C 5.75 g/m*3 24.3 C 0 km/h
1639 16-07-2011 19:47:02 24.1 C 6.13 g/m*3 24.1 C 0 km/h
1640 16-07-2011 19:59:02 23.7 C 6.2 g/m*3 23.7 C 0 km/h
1641 16-07-2011 20:11:02 23.4 C 6.31 g/m*3 23.4 C 0 km/h
1642 16-07-2011 20:23:02 23.2 C 6.24 g/m*3 23.2 C 0 km/h
1643 16-07-2011 20:35:02 22.5 C 7.19 g/m*3 22.5 C 0 km/h
1644 16-07-2011 20:47:02 21.9 C 7.53 g/m*3 21.9 C 0 km/h
1645 16-07-2011 20:59:02 21.4 C 7.5 g/m*3 21.4 C 0 km/h
1646 16-07-2011 21:11:02 21.4 C 7.31 g/m*3 21.4 C 0 km/h
1647 16-07-2011 21:23:02 21.3 C 7.46 g/m*3 21.3 C 0 km/h
1648 16-07-2011 21:35:02 21.3 C 7.27 g/m*3 21.3 C 0 km/h
1649 16-07-2011 21:47:01 22.6 C 7.23 g/m*3 22.6 C 0 km/h
1650 16-07-2011 21:59:01 22.1 C 7.42 g/m*3 22.1 C 0 km/h
Sensor: Nr:Datum:Temp:Abs-Feuchte:Windchill:Wind:
Aussen-T/F 1651 16-07-2011 22:11:02 21.5 C 7.73 g/m*3 21.5 C 0 km/h
1652 16-07-2011 22:24:02 20.9 C 8.38 g/m*3 20.9 C 0 km/h
1653 16-07-2011 22:36:02 20.3 C 8.09 g/m*3 20.3 C 0 km/h
1654 16-07-2011 22:48:02 19.8 C 8.54 g/m*3 19.8 C 0 km/h
1655 16-07-2011 23:00:02 19.7 C 8.49 g/m*3 19.7 C 0 km/h
1656 16-07-2011 23:12:02 19.7 C 8.49 g/m*3 19.7 C 0 km/h
1657 16-07-2011 23:24:02 19.8 C 8.37 g/m*3 19.8 C 0 km/h
1658 16-07-2011 23:36:02 20.9 C 8.38 g/m*3 20.9 C 0 km/h
1659 16-07-2011 23:48:02 19.9 C 9.28 g/m*3 19.9 C 0 km/h
1660 17-07-2011 00:00:02 19.1 C 9.67 g/m*3 19.1 C 0 km/h
1661 17-07-2011 00:12:02 18.2 C 10.1 g/m*3 18.2 C 0 km/h
1662 17-07-2011 00:24:02 17.4 C 10.67 g/m*3 17.4 C 0 km/h
1663 17-07-2011 00:36:02 17 C 11 g/m*3 17 C 0 km/h
1664 17-07-2011 00:48:02 16.8 C 11.29 g/m*3 16.8 C 0 km/h
1665 17-07-2011 01:00:02 16.6 C 11.44 g/m*3 16.6 C 0 km/h
1666 17-07-2011 01:12:02 16.5 C 11.51 g/m*3 16.5 C 0 km/h
1667 17-07-2011 01:24:02 16.4 C 11.58 g/m*3 16.4 C 0 km/h
1668 17-07-2011 01:36:02 16.4 C 11.72 g/m*3 16.4 C 0 km/h
1669 17-07-2011 01:48:02 16.5 C 11.94 g/m*3 16.5 C 0 km/h
1670 17-07-2011 02:00:02 16.6 C 12.01 g/m*3 16.6 C 0 km/h
1671 17-07-2011 02:12:02 16.5 C 12.08 g/m*3 16.5 C 0 km/h
1672 17-07-2011 02:24:02 16.5 C 12.08 g/m*3 16.5 C 0 km/h
1673 17-07-2011 02:36:02 16.5 C 12.08 g/m*3 16.5 C 0 km/h
1674 17-07-2011 02:48:03 16.5 C 12.22 g/m*3 16.5 C 0 km/h
1675 17-07-2011 03:00:03 16.6 C 12.29 g/m*3 16.6 C 0 km/h
Sensor: Nr:Datum:Temp:Abs-Feuchte:Windchill:Wind:
Aussen-T/F 1676 17-07-2011 03:12:03 16.5 C 12.22 g/m*3 16.5 C 0 km/h
1677 17-07-2011 03:24:03 16.5 C 12.36 g/m*3 16.5 C 0 km/h
1678 17-07-2011 03:36:03 16.5 C 12.36 g/m*3 16.5 C 0 km/h
1679 17-07-2011 03:48:03 16.5 C 12.36 g/m*3 16.5 C 0 km/h
1680 17-07-2011 04:00:03 16.5 C 12.36 g/m*3 16.5 C 0 km/h
1681 17-07-2011 04:12:03 16.5 C 12.36 g/m*3 16.5 C 0 km/h
1682 17-07-2011 04:24:03 16.6 C 12.43 g/m*3 16.6 C 0 km/h
1683 17-07-2011 04:36:03 16.8 C 12.58 g/m*3 16.8 C 0 km/h
1684 17-07-2011 04:48:03 16.4 C 12.28 g/m*3 16.4 C 0 km/h
1685 17-07-2011 05:00:03 16.3 C 12.21 g/m*3 16.3 C 0 km/h
1686 17-07-2011 05:12:03 16.2 C 12.14 g/m*3 16.2 C 0 km/h
1687 17-07-2011 05:24:03 16.2 C 12.14 g/m*3 16.2 C 0 km/h
1688 17-07-2011 05:36:03 16.2 C 12.14 g/m*3 16.2 C 0 km/h
1689 17-07-2011 05:48:03 16.2 C 12.14 g/m*3 16.2 C 0 km/h
1690 17-07-2011 06:00:03 16.2 C 12.14 g/m*3 16.2 C 0 km/h
1691 17-07-2011 06:12:03 16.2 C 12.27 g/m*3 16.2 C 0 km/h
1692 17-07-2011 06:24:03 16.2 C 12.27 g/m*3 16.2 C 0 km/h
1693 17-07-2011 06:36:03 16 C 12.13 g/m*3 16 C 0 km/h
1694 17-07-2011 06:48:03 16 C 12.13 g/m*3 16 C 0 km/h
1695 17-07-2011 07:00:03 16 C 12.13 g/m*3 16 C 0 km/h
1696 17-07-2011 07:12:04 15.9 C 12.05 g/m*3 15.9 C 0 km/h
1697 17-07-2011 07:24:04 15.9 C 12.05 g/m*3 15.9 C 0 km/h
1698 17-07-2011 07:36:04 15.8 C 11.98 g/m*3 15.8 C 0 km/h
1699 17-07-2011 07:48:04 15.8 C 11.98 g/m*3 15.8 C 0 km/h
1700 17-07-2011 08:00:04 15.9 C 12.05 g/m*3 15.9 C 0 km/h
Sensor: Nr:Datum:Temp:Abs-Feuchte:Windchill:Wind:
Aussen-T/F 1701 17-07-2011 08:12:04 16 C 12.13 g/m*3 16 C 0 km/h
1702 17-07-2011 08:24:02 15.6 C 11.84 g/m*3 15.6 C 0 km/h
1703 17-07-2011 08:36:02 15.4 C 11.69 g/m*3 15.4 C 0 km/h
1704 17-07-2011 08:48:02 15.3 C 11.49 g/m*3 15.3 C 0 km/h
1705 17-07-2011 09:00:02 15.5 C 11.63 g/m*3 15.5 C 0 km/h
1706 17-07-2011 09:12:02 15.6 C 11.7 g/m*3 15.6 C 0 km/h
1707 17-07-2011 09:24:02 15.4 C 11.43 g/m*3 15.4 C 0 km/h
1708 17-07-2011 09:36:02 16.2 C 11.58 g/m*3 16.2 C 0 km/h
1709 17-07-2011 09:48:02 16.2 C 11.17 g/m*3 16.2 C 0 km/h
1710 17-07-2011 10:00:02 16.8 C 11.29 g/m*3 16.8 C 0 km/h
1711 17-07-2011 10:12:02 17.3 C 10.9 g/m*3 17.3 C 0 km/h
1712 17-07-2011 10:24:01 18 C 10.91 g/m*3 18 C 0 km/h
1713 17-07-2011 10:36:03 18.2 C 10.72 g/m*3 18.2 C 0 km/h
1714 17-07-2011 10:48:02 18 C 10.75 g/m*3 18 C 0 km/h
1715 17-07-2011 11:00:02 18.4 C 11.01 g/m*3 18.4 C 0 km/h
1716 17-07-2011 11:12:03 19.2 C 10.72 g/m*3 19.2 C 0 km/h
1717 17-07-2011 11:24:02 19.4 C 10.84 g/m*3 19.4 C 0 km/h
1718 17-07-2011 11:36:02 19.2 C 10.55 g/m*3 19.2 C 0 km/h
1719 17-07-2011 11:48:02 20.2 C 10.67 g/m*3 20.2 C 0 km/h
1720 17-07-2011 12:00:02 20.5 C 10.14 g/m*3 20.5 C 0 km/h
1721 17-07-2011 12:12:03 21.2 C 10.01 g/m*3 21.2 C 0 km/h
1722 17-07-2011 12:24:02 20.4 C 9.91 g/m*3 20.4 C 0 km/h
1723 17-07-2011 12:36:02 20.2 C 10.14 g/m*3 20.2 C 0 km/h
1724 17-07-2011 12:48:01 20.7 C 10.62 g/m*3 20.7 C 0 km/h
1725 17-07-2011 13:00:01 21 C 9.53 g/m*3 21 C 0 km/h
Sensor: Nr:Datum:Temp:Abs-Feuchte:Windchill:Wind:
Aussen-T/F 1726 17-07-2011 13:12:02 20.5 C 9.07 g/m*3 20.5 C 0 km/h
1727 17-07-2011 13:24:02 20 C 8.3 g/m*3 20 C 0 km/h
1728 17-07-2011 13:36:01 19.4 C 8.01 g/m*3 19.4 C 0 km/h
1729 17-07-2011 13:48:02 20.1 C 8.69 g/m*3 20.1 C 0 km/h
1730 17-07-2011 14:00:02 20.6 C 8.41 g/m*3 20.6 C 0 km/h
1731 17-07-2011 14:12:01 19.5 C 8.22 g/m*3 19.5 C 0 km/h
1732 17-07-2011 14:24:02 18.7 C 8.49 g/m*3 18.7 C 0 km/h
1733 17-07-2011 14:36:01 18.2 C 8.08 g/m*3 18.2 C 0 km/h
1734 17-07-2011 14:48:02 19.2 C 7.75 g/m*3 19.2 C 0 km/h
1735 17-07-2011 15:00:02 20 C 7.43 g/m*3 20 C 0 km/h
1736 17-07-2011 15:12:02 19.9 C 7.73 g/m*3 19.9 C 0 km/h
1737 17-07-2011 15:24:02 19.9 C 7.56 g/m*3 19.9 C 0 km/h
1738 17-07-2011 15:36:03 20.2 C 7.17 g/m*3 20.2 C 0 km/h
1739 17-07-2011 15:48:02 21.2 C 7.04 g/m*3 21.2 C 0 km/h
1740 17-07-2011 16:00:02 21.2 C 6.86 g/m*3 21.2 C 0 km/h
1741 17-07-2011 16:12:01 21 C 6.59 g/m*3 21 C 0 km/h
1742 17-07-2011 16:24:02 21.1 C 6.45 g/m*3 21.1 C 0 km/h
1743 17-07-2011 16:36:02 20.3 C 6.68 g/m*3 20.3 C 0 km/h
1744 17-07-2011 16:48:02 20.4 C 6.72 g/m*3 20.4 C 0 km/h
1745 17-07-2011 17:00:02 19.8 C 7 g/m*3 19.8 C 0 km/h
1746 17-07-2011 17:12:03 20.4 C 6.55 g/m*3 20.4 C 0 km/h
1747 17-07-2011 17:24:02 19.4 C 6.67 g/m*3 19.4 C 0 km/h
1748 17-07-2011 17:36:02 19.2 C 6.76 g/m*3 19.2 C 0 km/h
1749 17-07-2011 17:48:01 19.3 C 6.63 g/m*3 19.3 C 0 km/h
1750 17-07-2011 18:00:01 19.3 C 6.63 g/m*3 19.3 C 0 km/h
Sensor: Nr:Datum:Temp:Abs-Feuchte:Windchill:Wind:
Aussen-T/F 1751 17-07-2011 18:12:02 20.3 C 6.68 g/m*3 20.3 C 0 km/h
1752 17-07-2011 18:24:01 19.4 C 7.01 g/m*3 19.4 C 0 km/h
1753 17-07-2011 18:36:02 18.4 C 6.76 g/m*3 18.4 C 0 km/h
1754 17-07-2011 18:48:01 18.7 C 7.36 g/m*3 18.7 C 0 km/h
1755 17-07-2011 19:00:01 18.4 C 7.24 g/m*3 18.4 C 0 km/h
1756 17-07-2011 19:12:02 18.3 C 7.66 g/m*3 18.3 C 0 km/h
1757 17-07-2011 19:24:01 18.1 C 7.11 g/m*3 18.1 C 0 km/h
1758 17-07-2011 19:36:02 18.4 C 7.71 g/m*3 18.4 C 0 km/h
1759 17-07-2011 19:48:01 17.8 C 7.59 g/m*3 17.8 C 0 km/h
1760 17-07-2011 20:00:01 17.5 C 8.05 g/m*3 17.5 C 0 km/h
1761 17-07-2011 20:12:02 17.3 C 7.81 g/m*3 17.3 C 0 km/h
1762 17-07-2011 20:24:02 18.1 C 7.26 g/m*3 18.1 C 0 km/h
1763 17-07-2011 20:36:02 18.4 C 7.24 g/m*3 18.4 C 0 km/h
1764 17-07-2011 20:48:01 18.1 C 7.42 g/m*3 18.1 C 0 km/h
1765 17-07-2011 21:00:01 17.5 C 8.2 g/m*3 17.5 C 0 km/h
1766 17-07-2011 21:12:02 17.1 C 8.73 g/m*3 17.1 C 0 km/h
1767 17-07-2011 21:24:02 16.9 C 8.2 g/m*3 16.9 C 0 km/h
1768 17-07-2011 21:36:01 16.5 C 8.71 g/m*3 16.5 C 0 km/h
1769 17-07-2011 21:48:02 16.4 C 8.23 g/m*3 16.4 C 0 km/h
1770 17-07-2011 22:00:02 15.8 C 8.35 g/m*3 15.8 C 0 km/h
1771 17-07-2011 22:12:02 15.8 C 8.21 g/m*3 15.8 C 0 km/h
1772 17-07-2011 22:25:03 15.9 C 8.13 g/m*3 15.9 C 0 km/h
1773 17-07-2011 22:37:03 16 C 7.49 g/m*3 16 C 0 km/h
1774 17-07-2011 22:49:03 15.3 C 7.7 g/m*3 15.3 C 0 km/h
1775 17-07-2011 23:01:03 14.8 C 7.98 g/m*3 14.8 C 0 km/h
Sensor: Nr:Datum:Temp:Abs-Feuchte:Windchill:Wind:
Aussen-T/F 1776 17-07-2011 23:13:04 15.4 C 7.49 g/m*3 15.4 C 0 km/h
1777 17-07-2011 23:25:04 15.8 C 7.54 g/m*3 15.8 C 0 km/h
1778 17-07-2011 23:37:04 15.8 C 7.54 g/m*3 15.8 C 0 km/h
1779 17-07-2011 23:49:04 15.6 C 7.71 g/m*3 15.6 C 0 km/h
1780 18-07-2011 00:01:04 15.9 C 8.13 g/m*3 15.9 C 0 km/h
1781 18-07-2011 00:13:04 15.5 C 8.2 g/m*3 15.5 C 0 km/h
1782 18-07-2011 00:25:04 15.6 C 8.38 g/m*3 15.6 C 0 km/h
1783 18-07-2011 00:37:04 15.3 C 8.36 g/m*3 15.3 C 0 km/h
1784 18-07-2011 00:49:04 15.1 C 8.51 g/m*3 15.1 C 0 km/h
1785 18-07-2011 01:01:04 14.5 C 8.83 g/m*3 14.5 C 0 km/h
1786 18-07-2011 01:13:04 14.5 C 8.95 g/m*3 14.5 C 0 km/h
1787 18-07-2011 01:25:04 14.5 C 8.95 g/m*3 14.5 C 0 km/h
1788 18-07-2011 01:37:04 14.5 C 8.95 g/m*3 14.5 C 0 km/h
1789 18-07-2011 01:49:04 14.4 C 8.9 g/m*3 14.4 C 0 km/h
1790 18-07-2011 02:01:04 14.3 C 8.85 g/m*3 14.3 C 0 km/h
1791 18-07-2011 02:13:04 14.1 C 8.86 g/m*3 14.1 C 0 km/h
1792 18-07-2011 02:25:04 13.7 C 8.88 g/m*3 13.7 C 0 km/h
1793 18-07-2011 02:37:04 14 C 9.05 g/m*3 14 C 0 km/h
1794 18-07-2011 02:49:04 13.9 C 9.23 g/m*3 13.9 C 0 km/h
1795 18-07-2011 03:01:04 13.4 C 9.3 g/m*3 13.4 C 0 km/h
1796 18-07-2011 03:13:04 13 C 9.3 g/m*3 13 C 0 km/h
1797 18-07-2011 03:25:04 12.7 C 9.35 g/m*3 12.7 C 0 km/h
1798 18-07-2011 03:37:05 12.9 C 9.69 g/m*3 12.9 C 0 km/h
1799 18-07-2011 03:49:05 12.6 C 9.51 g/m*3 12.6 C 0 km/h
1800 18-07-2011 04:01:05 12.2 C 9.28 g/m*3 12.2 C 0 km/h
Sensor: Nr:Datum:Temp:Abs-Feuchte:Windchill:Wind:
Aussen-T/F 1801 18-07-2011 04:13:05 12.3 C 9.45 g/m*3 12.3 C 0 km/h
1802 18-07-2011 04:25:05 12.7 C 9.68 g/m*3 12.7 C 0 km/h
1803 18-07-2011 04:37:05 12.9 C 9.69 g/m*3 12.9 C 0 km/h
1804 18-07-2011 04:49:05 13.1 C 9.59 g/m*3 13.1 C 0 km/h
1805 18-07-2011 05:01:05 13.2 C 9.3 g/m*3 13.2 C 0 km/h
1806 18-07-2011 05:13:05 12.9 C 9.24 g/m*3 12.9 C 0 km/h
1807 18-07-2011 05:25:05 13.1 C 9.36 g/m*3 13.1 C 0 km/h
1808 18-07-2011 05:37:05 13.1 C 9.47 g/m*3 13.1 C 0 km/h
1809 18-07-2011 05:49:05 13.4 C 9.42 g/m*3 13.4 C 0 km/h
1810 18-07-2011 06:01:05 13 C 8.85 g/m*3 13 C 0 km/h
1811 18-07-2011 06:13:05 12.8 C 8.96 g/m*3 12.8 C 0 km/h
1812 18-07-2011 06:25:05 13 C 9.19 g/m*3 13 C 0 km/h
1813 18-07-2011 06:37:05 13.4 C 9.18 g/m*3 13.4 C 0 km/h
1814 18-07-2011 06:49:05 13.5 C 9.01 g/m*3 13.5 C 0 km/h
1815 18-07-2011 07:01:05 14.4 C 9.02 g/m*3 14.4 C 0 km/h
1816 18-07-2011 07:13:05 15.5 C 8.72 g/m*3 15.5 C 0 km/h
1817 18-07-2011 07:25:05 15.9 C 8.67 g/m*3 15.9 C 0 km/h
1818 18-07-2011 07:37:03 16 C 8.45 g/m*3 16 C 0 km/h
1819 18-07-2011 07:49:02 15.6 C 8.64 g/m*3 15.6 C 0 km/h
1820 18-07-2011 08:01:02 15.7 C 8.7 g/m*3 15.7 C 0 km/h
1821 18-07-2011 08:13:02 15.8 C 8.75 g/m*3 15.8 C 0 km/h
1822 18-07-2011 08:25:02 16 C 8.45 g/m*3 16 C 0 km/h
1823 18-07-2011 08:37:01 16.4 C 8.51 g/m*3 16.4 C 0 km/h
1824 18-07-2011 08:49:02 16.6 C 8.48 g/m*3 16.6 C 0 km/h
1825 18-07-2011 09:01:01 16.9 C 8.34 g/m*3 16.9 C 0 km/h
Sensor: Nr:Datum:Temp:Abs-Feuchte:Windchill:Wind:
Aussen-T/F 1826 18-07-2011 09:13:01 16.7 C 8.1 g/m*3 16.7 C 0 km/h
1827 18-07-2011 09:25:02 17.4 C 8.15 g/m*3 17.4 C 0 km/h
1828 18-07-2011 09:37:02 17.4 C 7.85 g/m*3 17.4 C 0 km/h
1829 18-07-2011 09:49:02 17.3 C 7.81 g/m*3 17.3 C 0 km/h
1830 18-07-2011 10:01:02 17.1 C 7.86 g/m*3 17.1 C 0 km/h
1831 18-07-2011 10:13:02 17.6 C 7.95 g/m*3 17.6 C 0 km/h
1832 18-07-2011 10:25:02 17.5 C 7.6 g/m*3 17.5 C 0 km/h
1833 18-07-2011 10:37:03 17.5 C 7.6 g/m*3 17.5 C 0 km/h
1834 18-07-2011 10:49:02 18.2 C 7.62 g/m*3 18.2 C 0 km/h
1835 18-07-2011 11:01:02 18.7 C 7.52 g/m*3 18.7 C 0 km/h
1836 18-07-2011 11:13:02 18.3 C 7.51 g/m*3 18.3 C 0 km/h
1837 18-07-2011 11:25:02 18.5 C 7.44 g/m*3 18.5 C 0 km/h
1838 18-07-2011 11:37:02 18.6 C 7.64 g/m*3 18.6 C 0 km/h
1839 18-07-2011 11:49:02 19 C 7.33 g/m*3 19 C 0 km/h
1840 18-07-2011 12:01:02 18.9 C 7.45 g/m*3 18.9 C 0 km/h
1841 18-07-2011 12:13:02 18.7 C 7.2 g/m*3 18.7 C 0 km/h
1842 18-07-2011 12:25:02 19.2 C 7.09 g/m*3 19.2 C 0 km/h
1843 18-07-2011 12:37:02 19.9 C 7.22 g/m*3 19.9 C 0 km/h
1844 18-07-2011 12:49:02 19.7 C 7.13 g/m*3 19.7 C 0 km/h
1845 18-07-2011 13:01:02 20.6 C 7.16 g/m*3 20.6 C 0 km/h
1846 18-07-2011 13:13:03 20.8 C 7.24 g/m*3 20.8 C 0 km/h
1847 18-07-2011 13:25:02 20.4 C 6.9 g/m*3 20.4 C 0 km/h
1848 18-07-2011 13:37:02 21.5 C 5.85 g/m*3 21.5 C 0 km/h
1849 18-07-2011 13:49:02 20.9 C 6.37 g/m*3 20.9 C 0 km/h
1850 18-07-2011 14:01:02 21.9 C 6.18 g/m*3 21.9 C 0 km/h
Sensor: Nr:Datum:Temp:Abs-Feuchte:Windchill:Wind:
Aussen-T/F 1851 18-07-2011 14:13:02 22.5 C 6.59 g/m*3 22.5 C 0 km/h
1852 18-07-2011 14:25:02 24.3 C 6.64 g/m*3 24.3 C 0 km/h
1853 18-07-2011 14:37:02 24.6 C 6.08 g/m*3 24.6 C 0 km/h
1854 18-07-2011 14:49:02 24.5 C 6.04 g/m*3 24.5 C 0 km/h
1855 18-07-2011 15:01:02 23.3 C 6.06 g/m*3 23.3 C 0 km/h
1856 18-07-2011 15:13:02 24.3 C 5.97 g/m*3 24.3 C 0 km/h
1857 18-07-2011 15:25:03 23.7 C 5.99 g/m*3 23.7 C 0 km/h
1858 18-07-2011 15:37:02 24.6 C 6.53 g/m*3 24.6 C 0 km/h
1859 18-07-2011 15:49:03 23.7 C 6.2 g/m*3 23.7 C 0 km/h
1860 18-07-2011 16:01:02 21.2 C 5.93 g/m*3 21.2 C 0 km/h
1861 18-07-2011 16:13:02 16.1 C 5.62 g/m*3 16.1 C 0 km/h
1862 18-07-2011 16:25:02 14.4 C 8.41 g/m*3 14.4 C 0 km/h
1863 18-07-2011 16:37:02 14.7 C 8.94 g/m*3 14.7 C 0 km/h
1864 18-07-2011 16:49:02 18.1 C 9.12 g/m*3 18.1 C 0 km/h
1865 18-07-2011 17:01:02 22.4 C 8.74 g/m*3 22.4 C 0 km/h
1866 18-07-2011 17:13:02 23.2 C 7.48 g/m*3 23.2 C 0 km/h
1867 18-07-2011 17:25:02 23.7 C 6.84 g/m*3 23.7 C 0 km/h
1868 18-07-2011 17:37:02 24 C 6.74 g/m*3 24 C 0 km/h
1869 18-07-2011 17:49:02 25.2 C 6.75 g/m*3 25.2 C 0 km/h
1870 18-07-2011 18:01:02 21.6 C 7.02 g/m*3 21.6 C 0 km/h
1871 18-07-2011 18:13:02 18.7 C 5.76 g/m*3 18.7 C 0 km/h
1872 18-07-2011 18:25:02 17.7 C 6.04 g/m*3 17.7 C 0 km/h
1873 18-07-2011 18:37:01 17.9 C 6.11 g/m*3 17.9 C 0 km/h
1874 18-07-2011 18:49:02 17.9 C 6.11 g/m*3 17.9 C 0 km/h
1875 18-07-2011 19:01:01 17.6 C 6 g/m*3 17.6 C 0 km/h
Sensor: Nr:Datum:Temp:Abs-Feuchte:Windchill:Wind:
Aussen-T/F 1876 18-07-2011 19:13:01 21.2 C 6.12 g/m*3 21.2 C 0 km/h
1877 18-07-2011 19:25:02 20.9 C 5.65 g/m*3 20.9 C 0 km/h
1878 18-07-2011 19:37:02 21.2 C 5.74 g/m*3 21.2 C 0 km/h
1879 18-07-2011 19:49:02 19.7 C 6.11 g/m*3 19.7 C 0 km/h
1880 18-07-2011 20:01:03 18.9 C 6.48 g/m*3 18.9 C 0 km/h
1881 18-07-2011 20:13:03 18.4 C 6.45 g/m*3 18.4 C 0 km/h
1882 18-07-2011 20:25:02 17.5 C 7.01 g/m*3 17.5 C 0 km/h
1883 18-07-2011 20:37:02 16.4 C 7.26 g/m*3 16.4 C 0 km/h
1884 18-07-2011 20:49:01 15.8 C 7.4 g/m*3 15.8 C 0 km/h
1885 18-07-2011 21:01:02 15.4 C 7.62 g/m*3 15.4 C 0 km/h
1886 18-07-2011 21:13:02 14.9 C 7.65 g/m*3 14.9 C 0 km/h
1887 18-07-2011 21:25:01 15 C 7.57 g/m*3 15 C 0 km/h
1888 18-07-2011 21:37:02 14.6 C 7.63 g/m*3 14.6 C 0 km/h
1889 18-07-2011 21:49:02 14.2 C 7.82 g/m*3 14.2 C 0 km/h
1890 18-07-2011 22:02:03 14 C 7.84 g/m*3 14 C 0 km/h
1891 18-07-2011 22:14:04 13.8 C 7.86 g/m*3 13.8 C 0 km/h
1892 18-07-2011 22:26:04 13.5 C 7.72 g/m*3 13.5 C 0 km/h
1893 18-07-2011 22:38:04 13.5 C 7.84 g/m*3 13.5 C 0 km/h
1894 18-07-2011 22:50:04 13.7 C 8.05 g/m*3 13.7 C 0 km/h
1895 18-07-2011 23:02:04 14 C 7.96 g/m*3 14 C 0 km/h
1896 18-07-2011 23:14:04 14.2 C 7.94 g/m*3 14.2 C 0 km/h
1897 18-07-2011 23:26:04 14.1 C 7.89 g/m*3 14.1 C 0 km/h
1898 18-07-2011 23:38:04 14 C 8.08 g/m*3 14 C 0 km/h
1899 18-07-2011 23:50:04 13.4 C 7.9 g/m*3 13.4 C 0 km/h
1900 19-07-2011 00:02:04 13.1 C 7.99 g/m*3 13.1 C 0 km/h
Sensor: Nr:Datum:Temp:Abs-Feuchte:Windchill:Wind:
Aussen-T/F 1901 19-07-2011 00:14:04 12.5 C 8.03 g/m*3 12.5 C 0 km/h
1902 19-07-2011 00:26:04 12.8 C 8.29 g/m*3 12.8 C 0 km/h
1903 19-07-2011 00:38:04 12.8 C 8.06 g/m*3 12.8 C 0 km/h
1904 19-07-2011 00:50:04 12.4 C 7.98 g/m*3 12.4 C 0 km/h
1905 19-07-2011 01:02:04 12.1 C 8.15 g/m*3 12.1 C 0 km/h
1906 19-07-2011 01:14:04 12 C 8.21 g/m*3 12 C 0 km/h
1907 19-07-2011 01:26:04 12.1 C 8.26 g/m*3 12.1 C 0 km/h
1908 19-07-2011 01:38:04 12.1 C 8.26 g/m*3 12.1 C 0 km/h
1909 19-07-2011 01:50:04 11.8 C 8.31 g/m*3 11.8 C 0 km/h
1910 19-07-2011 02:02:04 11.9 C 8.47 g/m*3 11.9 C 0 km/h
1911 19-07-2011 02:14:05 11.5 C 8.26 g/m*3 11.5 C 0 km/h
1912 19-07-2011 02:26:05 11.7 C 8.47 g/m*3 11.7 C 0 km/h
1913 19-07-2011 02:38:05 11.5 C 8.37 g/m*3 11.5 C 0 km/h
1914 19-07-2011 02:50:05 11.4 C 8.42 g/m*3 11.4 C 0 km/h
1915 19-07-2011 03:02:05 11.8 C 8.63 g/m*3 11.8 C 0 km/h
1916 19-07-2011 03:14:05 11.8 C 8.63 g/m*3 11.8 C 0 km/h
1917 19-07-2011 03:26:05 11.8 C 8.63 g/m*3 11.8 C 0 km/h
1918 19-07-2011 03:38:05 11.2 C 8.31 g/m*3 11.2 C 0 km/h
1919 19-07-2011 03:50:05 11.1 C 8.26 g/m*3 11.1 C 0 km/h
1920 19-07-2011 04:02:05 11.2 C 8.41 g/m*3 11.2 C 0 km/h
1921 19-07-2011 04:14:05 11.6 C 8.73 g/m*3 11.6 C 0 km/h
1922 19-07-2011 04:26:05 11.8 C 8.84 g/m*3 11.8 C 0 km/h
1923 19-07-2011 04:38:05 11.8 C 8.84 g/m*3 11.8 C 0 km/h
1924 19-07-2011 04:50:05 12 C 8.85 g/m*3 12 C 0 km/h
1925 19-07-2011 05:02:05 11.9 C 8.79 g/m*3 11.9 C 0 km/h
Sensor: Nr:Datum:Temp:Abs-Feuchte:Windchill:Wind:
Aussen-T/F 1926 19-07-2011 05:14:05 11.9 C 8.68 g/m*3 11.9 C 0 km/h
1927 19-07-2011 05:26:05 12 C 8.74 g/m*3 12 C 0 km/h
1928 19-07-2011 05:38:05 11.8 C 8.74 g/m*3 11.8 C 0 km/h
1929 19-07-2011 05:50:05 11.3 C 8.36 g/m*3 11.3 C 0 km/h
1930 19-07-2011 06:02:05 10.8 C 8.2 g/m*3 10.8 C 0 km/h
1931 19-07-2011 06:14:05 11 C 8.31 g/m*3 11 C 0 km/h
1932 19-07-2011 06:26:06 11 C 8.41 g/m*3 11 C 0 km/h
1933 19-07-2011 06:38:06 10.9 C 8.36 g/m*3 10.9 C 0 km/h
1934 19-07-2011 06:50:06 11.2 C 8.62 g/m*3 11.2 C 0 km/h
1935 19-07-2011 07:02:02 11.2 C 8.62 g/m*3 11.2 C 0 km/h
1936 19-07-2011 07:14:02 11.9 C 9 g/m*3 11.9 C 0 km/h
1937 19-07-2011 07:26:03 12.8 C 9.52 g/m*3 12.8 C 0 km/h
1938 19-07-2011 07:38:02 13.7 C 9.83 g/m*3 13.7 C 0 km/h
1939 19-07-2011 07:50:02 13.8 C 9.29 g/m*3 13.8 C 0 km/h
1940 19-07-2011 08:02:02 14.1 C 9.1 g/m*3 14.1 C 0 km/h
1941 19-07-2011 08:14:02 14.4 C 9.02 g/m*3 14.4 C 0 km/h
1942 19-07-2011 08:26:03 15.2 C 8.83 g/m*3 15.2 C 0 km/h
1943 19-07-2011 08:38:02 15.7 C 8.7 g/m*3 15.7 C 0 km/h
1944 19-07-2011 08:50:02 16.6 C 8.62 g/m*3 16.6 C 0 km/h
1945 19-07-2011 09:02:02 16.8 C 8.29 g/m*3 16.8 C 0 km/h
1946 19-07-2011 09:14:02 17.4 C 8.45 g/m*3 17.4 C 0 km/h
1947 19-07-2011 09:26:02 17.7 C 8.45 g/m*3 17.7 C 0 km/h
1948 19-07-2011 09:38:02 18.7 C 8.33 g/m*3 18.7 C 0 km/h
1949 19-07-2011 09:50:02 19.2 C 7.91 g/m*3 19.2 C 0 km/h
1950 19-07-2011 10:02:02 18.9 C 7.78 g/m*3 18.9 C 0 km/h
Sensor: Nr:Datum:Temp:Abs-Feuchte:Windchill:Wind:
Aussen-T/F 1951 19-07-2011 10:14:02 19.1 C 7.7 g/m*3 19.1 C 0 km/h
1952 19-07-2011 10:26:02 18.8 C 7.57 g/m*3 18.8 C 0 km/h
1953 19-07-2011 10:38:02 19.7 C 7.98 g/m*3 19.7 C 0 km/h
1954 19-07-2011 10:50:02 19.3 C 7.63 g/m*3 19.3 C 0 km/h
1955 19-07-2011 11:02:02 20.8 C 7.42 g/m*3 20.8 C 0 km/h
1956 19-07-2011 11:14:02 21.5 C 7.35 g/m*3 21.5 C 0 km/h
1957 19-07-2011 11:26:02 21.3 C 7.64 g/m*3 21.3 C 0 km/h
1958 19-07-2011 11:38:01 20.2 C 7.34 g/m*3 20.2 C 0 km/h
1959 19-07-2011 11:50:02 21.3 C 7.27 g/m*3 21.3 C 0 km/h
1960 19-07-2011 12:02:01 21.6 C 7.21 g/m*3 21.6 C 0 km/h
1961 19-07-2011 12:14:01 22.2 C 6.68 g/m*3 22.2 C 0 km/h
1962 19-07-2011 12:26:02 22 C 6.79 g/m*3 22 C 0 km/h
1963 19-07-2011 12:38:02 23.1 C 6.41 g/m*3 23.1 C 0 km/h
1964 19-07-2011 12:50:02 23.3 C 6.48 g/m*3 23.3 C 0 km/h
1965 19-07-2011 13:02:02 23.5 C 6.98 g/m*3 23.5 C 0 km/h
1966 19-07-2011 13:14:02 24.2 C 6.6 g/m*3 24.2 C 0 km/h
1967 19-07-2011 13:26:02 24.4 C 6.9 g/m*3 24.4 C 0 km/h
1968 19-07-2011 13:38:02 24.6 C 6.75 g/m*3 24.6 C 0 km/h
1969 19-07-2011 13:50:02 25.6 C 6.19 g/m*3 25.6 C 0 km/h
1970 19-07-2011 14:02:02 27.2 C 5.72 g/m*3 27.2 C 0 km/h
1971 19-07-2011 14:14:02 26.6 C 6.29 g/m*3 26.6 C 0 km/h
1972 19-07-2011 14:26:02 25.3 C 5.85 g/m*3 25.3 C 0 km/h
1973 19-07-2011 14:38:01 26.9 C 6.4 g/m*3 26.9 C 0 km/h
1974 19-07-2011 14:50:03 25.8 C 6.02 g/m*3 25.8 C 0 km/h
1975 19-07-2011 15:02:02 25.5 C 5.92 g/m*3 25.5 C 0 km/h
Sensor: Nr:Datum:Temp:Abs-Feuchte:Windchill:Wind:
Aussen-T/F 1976 19-07-2011 15:14:02 24.5 C 5.6 g/m*3 24.5 C 0 km/h
1977 19-07-2011 15:26:02 25.2 C 6.05 g/m*3 25.2 C 0 km/h
1978 19-07-2011 15:38:03 25.1 C 6.02 g/m*3 25.1 C 0 km/h
1979 19-07-2011 15:50:02 23.9 C 6.27 g/m*3 23.9 C 0 km/h
1980 19-07-2011 16:02:01 23.1 C 7.86 g/m*3 23.1 C 0 km/h
1981 19-07-2011 16:14:01 22.5 C 8.19 g/m*3 22.5 C 0 km/h
1982 19-07-2011 16:26:02 22.1 C 8.59 g/m*3 22.1 C 0 km/h
1983 19-07-2011 16:38:02 21.2 C 7.04 g/m*3 21.2 C 0 km/h
1984 19-07-2011 16:50:02 16.4 C 10.47 g/m*3 16.4 C 0 km/h
1985 19-07-2011 17:02:03 16.2 C 10.89 g/m*3 16.2 C 0 km/h
1986 19-07-2011 17:14:03 16.2 C 11.17 g/m*3 16.2 C 0 km/h
1987 19-07-2011 17:26:02 16.7 C 11.23 g/m*3 16.7 C 0 km/h
1988 19-07-2011 17:38:02 17 C 11.14 g/m*3 17 C 0 km/h
1989 19-07-2011 17:50:01 16.6 C 11.02 g/m*3 16.6 C 0 km/h
1990 19-07-2011 18:02:02 16.9 C 11.22 g/m*3 16.9 C 0 km/h
1991 19-07-2011 18:14:02 17.1 C 11.35 g/m*3 17.1 C 0 km/h
1992 19-07-2011 18:26:01 17 C 11.29 g/m*3 17 C 0 km/h
1993 19-07-2011 18:38:02 16.7 C 11.37 g/m*3 16.7 C 0 km/h
1994 19-07-2011 18:50:01 16.7 C 11.23 g/m*3 16.7 C 0 km/h
1995 19-07-2011 19:02:02 16.8 C 11.44 g/m*3 16.8 C 0 km/h
1996 19-07-2011 19:14:02 16.6 C 11.3 g/m*3 16.6 C 0 km/h
1997 19-07-2011 19:26:01 16.3 C 10.96 g/m*3 16.3 C 0 km/h
1998 19-07-2011 19:38:02 16.2 C 11.03 g/m*3 16.2 C 0 km/h
1999 19-07-2011 19:50:01 16 C 10.9 g/m*3 16 C 0 km/h
2000 19-07-2011 20:02:02 16.1 C 11.24 g/m*3 16.1 C 0 km/h
Sensor: Nr:Datum:Temp:Abs-Feuchte:Windchill:Wind:
Aussen-T/F 2001 19-07-2011 20:14:02 16.2 C 11.45 g/m*3 16.2 C 0 km/h
2002 19-07-2011 20:26:02 16 C 11.31 g/m*3 16 C 0 km/h
2003 19-07-2011 20:38:01 15.7 C 10.97 g/m*3 15.7 C 0 km/h
2004 19-07-2011 20:50:02 15.4 C 10.51 g/m*3 15.4 C 0 km/h
2005 19-07-2011 21:02:01 15.1 C 10.32 g/m*3 15.1 C 0 km/h
2006 19-07-2011 21:14:01 15 C 10.39 g/m*3 15 C 0 km/h
2007 19-07-2011 21:26:02 14.7 C 10.32 g/m*3 14.7 C 0 km/h
2008 19-07-2011 21:38:01 14.6 C 10.14 g/m*3 14.6 C 0 km/h
2009 19-07-2011 21:50:02 14.4 C 10.01 g/m*3 14.4 C 0 km/h
2010 19-07-2011 22:02:03 14.4 C 9.89 g/m*3 14.4 C 0 km/h
2011 19-07-2011 22:14:03 14.3 C 9.71 g/m*3 14.3 C 0 km/h
2012 19-07-2011 22:27:04 14.3 C 9.83 g/m*3 14.3 C 0 km/h
2013 19-07-2011 22:39:04 14.2 C 9.77 g/m*3 14.2 C 0 km/h
2014 19-07-2011 22:51:04 14.3 C 9.71 g/m*3 14.3 C 0 km/h
2015 19-07-2011 23:03:04 14.2 C 9.65 g/m*3 14.2 C 0 km/h
2016 19-07-2011 23:15:04 14.2 C 9.52 g/m*3 14.2 C 0 km/h
2017 19-07-2011 23:27:04 14.3 C 9.58 g/m*3 14.3 C 0 km/h
2018 19-07-2011 23:39:04 14.4 C 9.39 g/m*3 14.4 C 0 km/h
2019 19-07-2011 23:51:04 14.3 C 9.34 g/m*3 14.3 C 0 km/h
2020 20-07-2011 00:03:04 14.2 C 9.28 g/m*3 14.2 C 0 km/h
2021 20-07-2011 00:15:04 14.3 C 9.58 g/m*3 14.3 C 0 km/h
2022 20-07-2011 00:27:04 14.3 C 9.46 g/m*3 14.3 C 0 km/h
2023 20-07-2011 00:39:05 14.4 C 9.52 g/m*3 14.4 C 0 km/h
2024 20-07-2011 00:51:05 14.4 C 9.39 g/m*3 14.4 C 0 km/h
2025 20-07-2011 01:03:05 14.3 C 9.34 g/m*3 14.3 C 0 km/h
Sensor: Nr:Datum:Temp:Abs-Feuchte:Windchill:Wind:
Aussen-T/F 2026 20-07-2011 01:15:05 14.3 C 9.46 g/m*3 14.3 C 0 km/h
2027 20-07-2011 01:27:05 14.3 C 9.34 g/m*3 14.3 C 0 km/h
2028 20-07-2011 01:39:05 14.3 C 9.46 g/m*3 14.3 C 0 km/h
2029 20-07-2011 01:51:05 14.2 C 9.4 g/m*3 14.2 C 0 km/h
2030 20-07-2011 02:03:05 14.3 C 9.21 g/m*3 14.3 C 0 km/h
2031 20-07-2011 02:15:05 14 C 9.17 g/m*3 14 C 0 km/h
2032 20-07-2011 02:27:05 13.8 C 9.41 g/m*3 13.8 C 0 km/h
2033 20-07-2011 02:39:05 13.6 C 9.3 g/m*3 13.6 C 0 km/h
2034 20-07-2011 02:51:05 13.6 C 9.42 g/m*3 13.6 C 0 km/h
2035 20-07-2011 03:03:05 13.5 C 9.47 g/m*3 13.5 C 0 km/h
2036 20-07-2011 03:15:05 13.2 C 9.19 g/m*3 13.2 C 0 km/h
2037 20-07-2011 03:27:05 13.2 C 9.3 g/m*3 13.2 C 0 km/h
2038 20-07-2011 03:39:05 13.3 C 9.47 g/m*3 13.3 C 0 km/h
2039 20-07-2011 03:51:05 13.4 C 9.53 g/m*3 13.4 C 0 km/h
2040 20-07-2011 04:03:05 13.2 C 9.42 g/m*3 13.2 C 0 km/h
2041 20-07-2011 04:15:05 13.3 C 9.47 g/m*3 13.3 C 0 km/h
2042 20-07-2011 04:27:05 13.4 C 9.65 g/m*3 13.4 C 0 km/h
2043 20-07-2011 04:39:05 13.6 C 9.65 g/m*3 13.6 C 0 km/h
2044 20-07-2011 04:51:06 13.5 C 9.59 g/m*3 13.5 C 0 km/h
2045 20-07-2011 05:03:06 13.3 C 9.47 g/m*3 13.3 C 0 km/h
2046 20-07-2011 05:15:06 13.3 C 9.59 g/m*3 13.3 C 0 km/h
2047 20-07-2011 05:27:06 13.3 C 9.59 g/m*3 13.3 C 0 km/h
2048 20-07-2011 05:39:06 13.2 C 9.42 g/m*3 13.2 C 0 km/h
2049 20-07-2011 05:51:06 13.3 C 9.59 g/m*3 13.3 C 0 km/h
2050 20-07-2011 06:03:06 13.3 C 9.59 g/m*3 13.3 C 0 km/h
Sensor: Nr:Datum:Temp:Abs-Feuchte:Windchill:Wind:
Aussen-T/F 2051 20-07-2011 06:15:06 13.4 C 9.65 g/m*3 13.4 C 0 km/h
2052 20-07-2011 06:27:06 13.7 C 9.71 g/m*3 13.7 C 0 km/h
2053 20-07-2011 06:39:06 14.1 C 9.71 g/m*3 14.1 C 0 km/h
2054 20-07-2011 06:51:06 14.3 C 9.71 g/m*3 14.3 C 0 km/h
2055 20-07-2011 07:03:06 14.5 C 9.7 g/m*3 14.5 C 0 km/h
2056 20-07-2011 07:15:03 14.7 C 9.82 g/m*3 14.7 C 0 km/h
2057 20-07-2011 07:27:03 14.8 C 9.88 g/m*3 14.8 C 0 km/h
2058 20-07-2011 07:39:03 14.9 C 9.94 g/m*3 14.9 C 0 km/h
2059 20-07-2011 07:51:02 14.9 C 10.07 g/m*3 14.9 C 0 km/h
2060 20-07-2011 08:03:02 15.1 C 9.93 g/m*3 15.1 C 0 km/h
2061 20-07-2011 08:15:02 15.2 C 9.86 g/m*3 15.2 C 0 km/h
2062 20-07-2011 08:27:02 15.4 C 9.99 g/m*3 15.4 C 0 km/h
2063 20-07-2011 08:39:02 15.6 C 10.11 g/m*3 15.6 C 0 km/h
2064 20-07-2011 08:51:02 15.6 C 9.97 g/m*3 15.6 C 0 km/h
2065 20-07-2011 09:03:01 15.8 C 9.96 g/m*3 15.8 C 0 km/h
2066 20-07-2011 09:15:02 15.8 C 9.83 g/m*3 15.8 C 0 km/h
2067 20-07-2011 09:27:02 15.9 C 9.89 g/m*3 15.9 C 0 km/h
2068 20-07-2011 09:39:01 16.1 C 9.73 g/m*3 16.1 C 0 km/h
2069 20-07-2011 09:51:01 16.4 C 9.77 g/m*3 16.4 C 0 km/h
2070 20-07-2011 10:03:02 17 C 9.69 g/m*3 17 C 0 km/h
2071 20-07-2011 10:15:02 16.8 C 9.58 g/m*3 16.8 C 0 km/h
2072 20-07-2011 10:27:02 17 C 9.69 g/m*3 17 C 0 km/h
2073 20-07-2011 10:39:02 16.9 C 9.64 g/m*3 16.9 C 0 km/h
2074 20-07-2011 10:51:01 17.1 C 9.75 g/m*3 17.1 C 0 km/h
2075 20-07-2011 11:03:02 17.2 C 9.67 g/m*3 17.2 C 0 km/h
Sensor: Nr:Datum:Temp:Abs-Feuchte:Windchill:Wind:
Aussen-T/F 2076 20-07-2011 11:15:02 17.7 C 9.81 g/m*3 17.7 C 0 km/h
2077 20-07-2011 11:27:02 18 C 9.52 g/m*3 18 C 0 km/h
2078 20-07-2011 11:39:01 18.7 C 9.61 g/m*3 18.7 C 0 km/h
2079 20-07-2011 11:51:02 18.8 C 9.34 g/m*3 18.8 C 0 km/h
2080 20-07-2011 12:03:01 19.3 C 8.96 g/m*3 19.3 C 0 km/h
2081 20-07-2011 12:15:02 20.6 C 8.95 g/m*3 20.6 C 0 km/h
2082 20-07-2011 12:27:02 20.7 C 8.82 g/m*3 20.7 C 0 km/h
2083 20-07-2011 12:39:01 21.4 C 8.44 g/m*3 21.4 C 0 km/h
2084 20-07-2011 12:51:02 20.8 C 8.15 g/m*3 20.8 C 0 km/h
2085 20-07-2011 13:03:02 23.2 C 8.73 g/m*3 23.2 C 0 km/h
2086 20-07-2011 13:15:02 24 C 8.05 g/m*3 24 C 0 km/h
2087 20-07-2011 13:27:02 23.8 C 8.6 g/m*3 23.8 C 0 km/h
2088 20-07-2011 13:39:03 22.8 C 8.53 g/m*3 22.8 C 0 km/h
2089 20-07-2011 13:51:02 21.5 C 8.49 g/m*3 21.5 C 0 km/h
2090 20-07-2011 14:03:02 20.5 C 8.54 g/m*3 20.5 C 0 km/h
2091 20-07-2011 14:15:02 18.2 C 9.33 g/m*3 18.2 C 0 km/h
2092 20-07-2011 14:27:02 16.7 C 10.37 g/m*3 16.7 C 0 km/h
2093 20-07-2011 14:39:02 16.2 C 10.76 g/m*3 16.2 C 0 km/h
2094 20-07-2011 14:51:02 16.2 C 10.89 g/m*3 16.2 C 0 km/h
2095 20-07-2011 15:03:02 16.2 C 11.03 g/m*3 16.2 C 0 km/h
2096 20-07-2011 15:15:02 16.1 C 11.1 g/m*3 16.1 C 0 km/h
2097 20-07-2011 15:27:02 16.3 C 11.38 g/m*3 16.3 C 0 km/h
2098 20-07-2011 15:39:02 16.2 C 11.31 g/m*3 16.2 C 0 km/h
2099 20-07-2011 15:51:02 16.3 C 11.52 g/m*3 16.3 C 0 km/h
2100 20-07-2011 16:03:02 16.8 C 11.87 g/m*3 16.8 C 0 km/h
Sensor: Nr:Datum:Temp:Abs-Feuchte:Windchill:Wind:
Aussen-T/F 2101 20-07-2011 16:15:02 17.1 C 11.94 g/m*3 17.1 C 0 km/h
2102 20-07-2011 16:27:02 17.3 C 11.93 g/m*3 17.3 C 0 km/h
2103 20-07-2011 16:39:02 17.7 C 12.07 g/m*3 17.7 C 0 km/h
2104 20-07-2011 16:51:01 18.1 C 12.05 g/m*3 18.1 C 0 km/h
2105 20-07-2011 17:03:01 18.6 C 12.1 g/m*3 18.6 C 0 km/h
2106 20-07-2011 17:15:02 18.5 C 11.71 g/m*3 18.5 C 0 km/h
2107 20-07-2011 17:27:02 18.3 C 11.73 g/m*3 18.3 C 0 km/h
2108 20-07-2011 17:39:01 17.6 C 11.4 g/m*3 17.6 C 0 km/h
2109 20-07-2011 17:51:02 17.4 C 11.56 g/m*3 17.4 C 0 km/h
2110 20-07-2011 18:03:02 17.1 C 11.5 g/m*3 17.1 C 0 km/h
2111 20-07-2011 18:15:02 16.7 C 11.37 g/m*3 16.7 C 0 km/h
2112 20-07-2011 18:27:02 16.6 C 11.58 g/m*3 16.6 C 0 km/h
2113 20-07-2011 18:39:02 16.2 C 11.45 g/m*3 16.2 C 0 km/h
2114 20-07-2011 18:51:02 16.1 C 11.51 g/m*3 16.1 C 0 km/h
2115 20-07-2011 19:03:02 15.8 C 11.44 g/m*3 15.8 C 0 km/h
2116 20-07-2011 19:15:02 15.8 C 11.58 g/m*3 15.8 C 0 km/h
2117 20-07-2011 19:27:03 15.8 C 11.58 g/m*3 15.8 C 0 km/h
2118 20-07-2011 19:39:02 15.8 C 11.71 g/m*3 15.8 C 0 km/h
2119 20-07-2011 19:51:02 15.9 C 11.78 g/m*3 15.9 C 0 km/h
2120 20-07-2011 20:03:01 16.1 C 11.93 g/m*3 16.1 C 0 km/h
2121 20-07-2011 20:15:02 15.8 C 11.71 g/m*3 15.8 C 0 km/h
2122 20-07-2011 20:27:02 15.6 C 11.57 g/m*3 15.6 C 0 km/h
2123 20-07-2011 20:39:02 15.1 C 11.22 g/m*3 15.1 C 0 km/h
2124 20-07-2011 20:51:02 15 C 11.16 g/m*3 15 C 0 km/h
2125 20-07-2011 21:03:03 14.9 C 11.22 g/m*3 14.9 C 0 km/h
Sensor: Nr:Datum:Temp:Abs-Feuchte:Windchill:Wind:
Aussen-T/F 2126 20-07-2011 21:15:02 14.9 C 11.22 g/m*3 14.9 C 0 km/h
2127 20-07-2011 21:27:02 14.8 C 11.27 g/m*3 14.8 C 0 km/h
2128 20-07-2011 21:39:02 14.8 C 11.27 g/m*3 14.8 C 0 km/h
2129 20-07-2011 21:51:01 15 C 11.28 g/m*3 15 C 0 km/h
2130 20-07-2011 22:04:02 14.8 C 11.27 g/m*3 14.8 C 0 km/h
2131 20-07-2011 22:16:03 14.7 C 11.21 g/m*3 14.7 C 0 km/h
2132 20-07-2011 22:28:03 14.7 C 11.21 g/m*3 14.7 C 0 km/h
2133 20-07-2011 22:40:03 14.5 C 11.07 g/m*3 14.5 C 0 km/h
2134 20-07-2011 22:52:03 14.4 C 11 g/m*3 14.4 C 0 km/h
2135 20-07-2011 23:04:03 14.3 C 10.93 g/m*3 14.3 C 0 km/h
2136 20-07-2011 23:16:03 14.4 C 11 g/m*3 14.4 C 0 km/h
2137 20-07-2011 23:28:03 14.5 C 11.19 g/m*3 14.5 C 0 km/h
2138 20-07-2011 23:40:03 14.4 C 11.13 g/m*3 14.4 C 0 km/h
2139 20-07-2011 23:52:03 14.4 C 11.13 g/m*3 14.4 C 0 km/h
2140 21-07-2011 00:04:03 14.4 C 11.13 g/m*3 14.4 C 0 km/h
2141 21-07-2011 00:16:03 14.2 C 10.99 g/m*3 14.2 C 0 km/h
2142 21-07-2011 00:28:03 14.4 C 11.13 g/m*3 14.4 C 0 km/h
2143 21-07-2011 00:40:03 14.4 C 11.13 g/m*3 14.4 C 0 km/h
2144 21-07-2011 00:52:03 14.4 C 11.13 g/m*3 14.4 C 0 km/h
2145 21-07-2011 01:04:03 14.4 C 11.13 g/m*3 14.4 C 0 km/h
2146 21-07-2011 01:16:03 14.4 C 11.13 g/m*3 14.4 C 0 km/h
2147 21-07-2011 01:28:03 14.4 C 11.13 g/m*3 14.4 C 0 km/h
2148 21-07-2011 01:40:03 14.3 C 11.06 g/m*3 14.3 C 0 km/h
2149 21-07-2011 01:52:03 14.2 C 10.99 g/m*3 14.2 C 0 km/h
2150 21-07-2011 02:04:03 14.2 C 10.99 g/m*3 14.2 C 0 km/h
Sensor: Nr:Datum:Temp:Abs-Feuchte:Windchill:Wind:
Aussen-T/F 2151 21-07-2011 02:16:03 14.2 C 10.99 g/m*3 14.2 C 0 km/h
2152 21-07-2011 02:28:04 14.2 C 10.99 g/m*3 14.2 C 0 km/h
2153 21-07-2011 02:40:04 14.1 C 10.92 g/m*3 14.1 C 0 km/h
2154 21-07-2011 02:52:04 14.1 C 10.92 g/m*3 14.1 C 0 km/h
2155 21-07-2011 03:04:04 14 C 10.86 g/m*3 14 C 0 km/h
2156 21-07-2011 03:16:04 13.8 C 10.84 g/m*3 13.8 C 0 km/h
2157 21-07-2011 03:28:04 13.6 C 10.71 g/m*3 13.6 C 0 km/h
2158 21-07-2011 03:40:04 13.6 C 10.71 g/m*3 13.6 C 0 km/h
2159 21-07-2011 03:52:04 13.5 C 10.64 g/m*3 13.5 C 0 km/h
2160 21-07-2011 04:04:04 13.5 C 10.64 g/m*3 13.5 C 0 km/h
2161 21-07-2011 04:16:04 13.4 C 10.58 g/m*3 13.4 C 0 km/h
2162 21-07-2011 04:28:04 13.5 C 10.64 g/m*3 13.5 C 0 km/h
2163 21-07-2011 04:40:04 13.5 C 10.64 g/m*3 13.5 C 0 km/h
2164 21-07-2011 04:52:04 13.4 C 10.58 g/m*3 13.4 C 0 km/h
2165 21-07-2011 05:04:04 13.2 C 10.45 g/m*3 13.2 C 0 km/h
2166 21-07-2011 05:16:04 13.2 C 10.45 g/m*3 13.2 C 0 km/h
2167 21-07-2011 05:28:04 13.1 C 10.38 g/m*3 13.1 C 0 km/h
2168 21-07-2011 05:40:04 13.1 C 10.38 g/m*3 13.1 C 0 km/h
2169 21-07-2011 05:52:04 13.1 C 10.38 g/m*3 13.1 C 0 km/h
2170 21-07-2011 06:04:04 13.2 C 10.45 g/m*3 13.2 C 0 km/h
2171 21-07-2011 06:16:04 13.3 C 10.51 g/m*3 13.3 C 0 km/h
2172 21-07-2011 06:28:05 13.5 C 10.64 g/m*3 13.5 C 0 km/h
2173 21-07-2011 06:40:05 13.4 C 10.58 g/m*3 13.4 C 0 km/h
2174 21-07-2011 06:52:05 13.6 C 10.71 g/m*3 13.6 C 0 km/h
2175 21-07-2011 07:04:01 13.9 C 10.91 g/m*3 13.9 C 0 km/h
Sensor: Nr:Datum:Temp:Abs-Feuchte:Windchill:Wind:
Aussen-T/F 2176 21-07-2011 07:16:02 14.1 C 11.04 g/m*3 14.1 C 0 km/h
2177 21-07-2011 07:28:02 14.1 C 11.04 g/m*3 14.1 C 0 km/h
2178 21-07-2011 07:40:01 14.4 C 11.25 g/m*3 14.4 C 0 km/h
2179 21-07-2011 07:52:02 14.7 C 11.46 g/m*3 14.7 C 0 km/h
2180 21-07-2011 08:04:01 14.9 C 11.6 g/m*3 14.9 C 0 km/h
2181 21-07-2011 08:16:01 15.2 C 11.42 g/m*3 15.2 C 0 km/h
2182 21-07-2011 08:28:01 15.4 C 11.43 g/m*3 15.4 C 0 km/h
2183 21-07-2011 08:40:02 15.9 C 11.24 g/m*3 15.9 C 0 km/h
2184 21-07-2011 08:52:02 16.2 C 10.76 g/m*3 16.2 C 0 km/h
2185 21-07-2011 09:04:02 16.5 C 10.39 g/m*3 16.5 C 0 km/h
2186 21-07-2011 09:16:02 16.9 C 10.07 g/m*3 16.9 C 0 km/h
2187 21-07-2011 09:28:02 17 C 9.41 g/m*3 17 C 0 km/h
2188 21-07-2011 09:40:02 17.7 C 10.11 g/m*3 17.7 C 0 km/h
2189 21-07-2011 09:52:01 18.4 C 10.07 g/m*3 18.4 C 0 km/h
2190 21-07-2011 10:04:02 18.9 C 9.72 g/m*3 18.9 C 0 km/h
2191 21-07-2011 10:16:02 18.9 C 9.56 g/m*3 18.9 C 0 km/h
2192 21-07-2011 10:28:02 19.1 C 9.18 g/m*3 19.1 C 0 km/h
2193 21-07-2011 10:40:01 19.7 C 9.17 g/m*3 19.7 C 0 km/h
2194 21-07-2011 10:52:02 19.9 C 9.45 g/m*3 19.9 C 0 km/h
2195 21-07-2011 11:04:01 19.3 C 9.29 g/m*3 19.3 C 0 km/h
2196 21-07-2011 11:16:02 20.8 C 9.78 g/m*3 20.8 C 0 km/h
2197 21-07-2011 11:28:03 20.8 C 9.42 g/m*3 20.8 C 0 km/h
2198 21-07-2011 11:40:01 20.1 C 8.52 g/m*3 20.1 C 0 km/h
2199 21-07-2011 11:52:02 19.9 C 8.93 g/m*3 19.9 C 0 km/h
2200 21-07-2011 12:04:02 19.5 C 8.89 g/m*3 19.5 C 0 km/h
Sensor: Nr:Datum:Temp:Abs-Feuchte:Windchill:Wind:
Aussen-T/F 2201 21-07-2011 12:16:02 20.4 C 9.73 g/m*3 20.4 C 0 km/h
2202 21-07-2011 12:28:02 20.6 C 9.13 g/m*3 20.6 C 0 km/h
2203 21-07-2011 12:40:03 21.9 C 9.07 g/m*3 21.9 C 0 km/h
2204 21-07-2011 12:52:02 22.3 C 8.1 g/m*3 22.3 C 0 km/h
2205 21-07-2011 13:04:02 22.8 C 8.74 g/m*3 22.8 C 0 km/h
2206 21-07-2011 13:16:01 23.7 C 8.56 g/m*3 23.7 C 0 km/h
2207 21-07-2011 13:28:01 23.8 C 8.17 g/m*3 23.8 C 0 km/h
2208 21-07-2011 13:40:02 24 C 7.83 g/m*3 24 C 0 km/h
2209 21-07-2011 13:52:02 22.2 C 7.85 g/m*3 22.2 C 0 km/h
2210 21-07-2011 14:04:02 22.4 C 7.94 g/m*3 22.4 C 0 km/h
2211 21-07-2011 14:16:02 21.2 C 8.52 g/m*3 21.2 C 0 km/h
2212 21-07-2011 14:28:02 18.8 C 9.02 g/m*3 18.8 C 0 km/h
2213 21-07-2011 14:40:02 16 C 10.49 g/m*3 16 C 0 km/h
2214 21-07-2011 14:52:02 15.8 C 11.04 g/m*3 15.8 C 0 km/h
2215 21-07-2011 15:04:02 16 C 11.31 g/m*3 16 C 0 km/h
2216 21-07-2011 15:16:02 16.3 C 11.52 g/m*3 16.3 C 0 km/h
2217 21-07-2011 15:28:02 17.3 C 12.23 g/m*3 17.3 C 0 km/h
2218 21-07-2011 15:40:02 18.4 C 12.43 g/m*3 18.4 C 0 km/h
2219 21-07-2011 15:52:02 21.7 C 13.16 g/m*3 21.7 C 0 km/h
2220 21-07-2011 16:04:02 23.3 C 10.45 g/m*3 23.3 C 0 km/h
2221 21-07-2011 16:16:02 22.6 C 11.65 g/m*3 22.6 C 0 km/h
2222 21-07-2011 16:28:02 20.7 C 10.08 g/m*3 20.7 C 0 km/h
2223 21-07-2011 16:40:02 18.7 C 11.21 g/m*3 18.7 C 0 km/h
2224 21-07-2011 16:52:02 17.2 C 10.84 g/m*3 17.2 C 0 km/h
2225 21-07-2011 17:04:02 16.8 C 11.15 g/m*3 16.8 C 0 km/h
Sensor: Nr:Datum:Temp:Abs-Feuchte:Windchill:Wind:
Aussen-T/F 2226 21-07-2011 17:16:02 16.8 C 11.44 g/m*3 16.8 C 0 km/h
2227 21-07-2011 17:28:02 17 C 11.43 g/m*3 17 C 0 km/h
2228 21-07-2011 17:40:02 17.5 C 11.63 g/m*3 17.5 C 0 km/h
2229 21-07-2011 17:52:02 17.8 C 11.54 g/m*3 17.8 C 0 km/h
2230 21-07-2011 18:04:01 17.9 C 11.45 g/m*3 17.9 C 0 km/h
2231 21-07-2011 18:16:02 18.1 C 11.28 g/m*3 18.1 C 0 km/h
2232 21-07-2011 18:28:02 18.2 C 11.19 g/m*3 18.2 C 0 km/h
2233 21-07-2011 18:40:01 17.9 C 11.3 g/m*3 17.9 C 0 km/h
2234 21-07-2011 18:52:02 18 C 11.52 g/m*3 18 C 0 km/h
2235 21-07-2011 19:04:01 19.4 C 12.01 g/m*3 19.4 C 0 km/h
2236 21-07-2011 19:16:01 20.2 C 11.02 g/m*3 20.2 C 0 km/h
2237 21-07-2011 19:28:01 18.8 C 11.27 g/m*3 18.8 C 0 km/h
2238 21-07-2011 19:40:02 19.1 C 11.8 g/m*3 19.1 C 0 km/h
2239 21-07-2011 19:52:02 18.4 C 11.48 g/m*3 18.4 C 0 km/h
2240 21-07-2011 20:04:02 17.8 C 11.69 g/m*3 17.8 C 0 km/h
2241 21-07-2011 20:16:02 17.5 C 11.78 g/m*3 17.5 C 0 km/h
2242 21-07-2011 20:28:03 17.1 C 11.65 g/m*3 17.1 C 0 km/h
2243 21-07-2011 20:40:01 16.4 C 11.31 g/m*3 16.4 C 0 km/h
2244 21-07-2011 20:52:02 15.7 C 11.11 g/m*3 15.7 C 0 km/h
2245 21-07-2011 21:04:01 15.1 C 10.71 g/m*3 15.1 C 0 km/h
2246 21-07-2011 21:16:02 14.7 C 10.58 g/m*3 14.7 C 0 km/h
2247 21-07-2011 21:28:02 14.6 C 10.64 g/m*3 14.6 C 0 km/h
2248 21-07-2011 21:40:02 14.7 C 10.83 g/m*3 14.7 C 0 km/h
2249 21-07-2011 21:52:02 14.7 C 10.83 g/m*3 14.7 C 0 km/h
2250 21-07-2011 22:04:02 14.1 C 10.32 g/m*3 14.1 C 0 km/h
Sensor: Nr:Datum:Temp:Abs-Feuchte:Windchill:Wind:
Aussen-T/F 2251 21-07-2011 22:17:04 13.9 C 10.31 g/m*3 13.9 C 0 km/h
2252 21-07-2011 22:29:04 13.8 C 10.37 g/m*3 13.8 C 0 km/h
2253 21-07-2011 22:41:04 13.7 C 10.3 g/m*3 13.7 C 0 km/h
2254 21-07-2011 22:53:04 13.8 C 10.37 g/m*3 13.8 C 0 km/h
2255 21-07-2011 23:05:04 13.8 C 10.37 g/m*3 13.8 C 0 km/h
2256 21-07-2011 23:17:04 13.8 C 10.48 g/m*3 13.8 C 0 km/h
2257 21-07-2011 23:29:04 13.9 C 10.55 g/m*3 13.9 C 0 km/h
2258 21-07-2011 23:41:04 13.7 C 10.42 g/m*3 13.7 C 0 km/h
2259 21-07-2011 23:53:04 13.7 C 10.42 g/m*3 13.7 C 0 km/h
2260 22-07-2011 00:05:04 13.8 C 10.48 g/m*3 13.8 C 0 km/h
2261 22-07-2011 00:17:04 13.9 C 10.55 g/m*3 13.9 C 0 km/h
2262 22-07-2011 00:29:04 14 C 10.61 g/m*3 14 C 0 km/h
2263 22-07-2011 00:41:05 14.1 C 10.68 g/m*3 14.1 C 0 km/h
2264 22-07-2011 00:53:05 14.3 C 10.81 g/m*3 14.3 C 0 km/h
2265 22-07-2011 01:05:05 14.2 C 10.75 g/m*3 14.2 C 0 km/h
2266 22-07-2011 01:17:05 14.3 C 10.81 g/m*3 14.3 C 0 km/h
2267 22-07-2011 01:29:05 14.4 C 10.88 g/m*3 14.4 C 0 km/h
2268 22-07-2011 01:41:05 14.6 C 11.01 g/m*3 14.6 C 0 km/h
2269 22-07-2011 01:53:05 14.7 C 11.08 g/m*3 14.7 C 0 km/h
2270 22-07-2011 02:05:05 14.7 C 11.08 g/m*3 14.7 C 0 km/h
2271 22-07-2011 02:17:05 14.7 C 11.08 g/m*3 14.7 C 0 km/h
2272 22-07-2011 02:29:05 14.8 C 11.02 g/m*3 14.8 C 0 km/h
2273 22-07-2011 02:41:05 14.8 C 11.02 g/m*3 14.8 C 0 km/h
2274 22-07-2011 02:53:05 14.7 C 10.95 g/m*3 14.7 C 0 km/h
2275 22-07-2011 03:05:05 14.6 C 10.89 g/m*3 14.6 C 0 km/h
Sensor: Nr:Datum:Temp:Abs-Feuchte:Windchill:Wind:
Aussen-T/F 2276 22-07-2011 03:17:05 14.7 C 10.95 g/m*3 14.7 C 0 km/h
2277 22-07-2011 03:29:05 14.7 C 10.95 g/m*3 14.7 C 0 km/h
2278 22-07-2011 03:41:05 14.6 C 10.89 g/m*3 14.6 C 0 km/h
2279 22-07-2011 03:53:05 14.6 C 10.76 g/m*3 14.6 C 0 km/h
2280 22-07-2011 04:05:05 14.1 C 10.44 g/m*3 14.1 C 0 km/h
2281 22-07-2011 04:17:05 14 C 10.37 g/m*3 14 C 0 km/h
2282 22-07-2011 04:29:05 14 C 10.49 g/m*3 14 C 0 km/h
2283 22-07-2011 04:41:05 14.2 C 10.62 g/m*3 14.2 C 0 km/h
2284 22-07-2011 04:53:06 14.3 C 10.69 g/m*3 14.3 C 0 km/h
2285 22-07-2011 05:05:06 14.5 C 10.82 g/m*3 14.5 C 0 km/h
2286 22-07-2011 05:17:06 14.5 C 10.82 g/m*3 14.5 C 0 km/h
2287 22-07-2011 05:29:06 14.5 C 10.82 g/m*3 14.5 C 0 km/h
2288 22-07-2011 05:41:06 14.4 C 10.75 g/m*3 14.4 C 0 km/h
2289 22-07-2011 05:53:06 14 C 10.37 g/m*3 14 C 0 km/h
2290 22-07-2011 06:05:06 14.2 C 10.62 g/m*3 14.2 C 0 km/h
2291 22-07-2011 06:17:06 14.4 C 10.75 g/m*3 14.4 C 0 km/h
2292 22-07-2011 06:29:06 14.5 C 10.82 g/m*3 14.5 C 0 km/h
2293 22-07-2011 06:41:06 14.8 C 10.89 g/m*3 14.8 C 0 km/h
2294 22-07-2011 06:53:06 15.2 C 10.64 g/m*3 15.2 C 0 km/h
2295 22-07-2011 07:05:03 15.1 C 10.45 g/m*3 15.1 C 0 km/h
2296 22-07-2011 07:17:03 15.5 C 10.31 g/m*3 15.5 C 0 km/h
2297 22-07-2011 07:29:03 15.5 C 9.65 g/m*3 15.5 C 0 km/h
2298 22-07-2011 07:41:03 15.4 C 9.33 g/m*3 15.4 C 0 km/h
2299 22-07-2011 07:53:01 15.5 C 9.12 g/m*3 15.5 C 0 km/h
2300 22-07-2011 08:05:02 15.4 C 8.93 g/m*3 15.4 C 0 km/h
Sensor: Nr:Datum:Temp:Abs-Feuchte:Windchill:Wind:
Aussen-T/F 2301 22-07-2011 08:17:01 15.4 C 8.93 g/m*3 15.4 C 0 km/h
2302 22-07-2011 08:29:01 15.7 C 8.7 g/m*3 15.7 C 0 km/h
2303 22-07-2011 08:41:01 15.2 C 8.57 g/m*3 15.2 C 0 km/h
2304 22-07-2011 08:53:01 15.1 C 8.13 g/m*3 15.1 C 0 km/h
2305 22-07-2011 09:05:02 15.2 C 7.53 g/m*3 15.2 C 0 km/h
2306 22-07-2011 09:17:01 15.6 C 7.05 g/m*3 15.6 C 0 km/h
2307 22-07-2011 09:29:01 16 C 6.81 g/m*3 16 C 0 km/h
2308 22-07-2011 09:41:01 16.4 C 6.28 g/m*3 16.4 C 0 km/h
2309 22-07-2011 09:53:02 17.6 C 6.15 g/m*3 17.6 C 0 km/h
2310 22-07-2011 10:05:02 18.6 C 6.05 g/m*3 18.6 C 0 km/h
2311 22-07-2011 10:17:02 18.9 C 6.48 g/m*3 18.9 C 0 km/h
2312 22-07-2011 10:29:02 18.5 C 6.33 g/m*3 18.5 C 0 km/h
2313 22-07-2011 10:41:02 17.4 C 6.52 g/m*3 17.4 C 0 km/h
2314 22-07-2011 10:53:02 18.1 C 6.8 g/m*3 18.1 C 0 km/h
2315 22-07-2011 11:05:02 17.8 C 5.92 g/m*3 17.8 C 0 km/h
2316 22-07-2011 11:17:02 19.5 C 6.38 g/m*3 19.5 C 0 km/h
2317 22-07-2011 11:29:03 19 C 6.52 g/m*3 19 C 0 km/h
2318 22-07-2011 11:41:01 18.9 C 6.64 g/m*3 18.9 C 0 km/h
2319 22-07-2011 11:53:02 18 C 6.76 g/m*3 18 C 0 km/h
2320 22-07-2011 12:05:01 18.5 C 6.65 g/m*3 18.5 C 0 km/h
2321 22-07-2011 12:17:02 19 C 6.84 g/m*3 19 C 0 km/h
2322 22-07-2011 12:29:03 19.6 C 6.75 g/m*3 19.6 C 0 km/h
2323 22-07-2011 12:41:01 19.6 C 6.75 g/m*3 19.6 C 0 km/h
2324 22-07-2011 12:53:01 20.5 C 6.76 g/m*3 20.5 C 0 km/h
2325 22-07-2011 13:05:01 18.5 C 6.8 g/m*3 18.5 C 0 km/h
Sensor: Nr:Datum:Temp:Abs-Feuchte:Windchill:Wind:
Aussen-T/F 2326 22-07-2011 13:17:01 19.3 C 6.97 g/m*3 19.3 C 0 km/h
2327 22-07-2011 13:29:01 18.2 C 6.53 g/m*3 18.2 C 0 km/h
2328 22-07-2011 13:41:02 18.1 C 6.95 g/m*3 18.1 C 0 km/h
2329 22-07-2011 13:53:02 18.7 C 7.2 g/m*3 18.7 C 0 km/h
2330 22-07-2011 14:05:02 18.3 C 7.19 g/m*3 18.3 C 0 km/h
2331 22-07-2011 14:17:02 17.5 C 7.16 g/m*3 17.5 C 0 km/h
2332 22-07-2011 14:29:02 17.5 C 7.31 g/m*3 17.5 C 0 km/h
2333 22-07-2011 14:41:02 18.1 C 7.11 g/m*3 18.1 C 0 km/h
2334 22-07-2011 14:53:02 18.5 C 7.28 g/m*3 18.5 C 0 km/h
2335 22-07-2011 15:05:02 17.9 C 7.33 g/m*3 17.9 C 0 km/h
2336 22-07-2011 15:17:02 17.8 C 6.53 g/m*3 17.8 C 0 km/h
2337 22-07-2011 15:29:02 18.1 C 6.64 g/m*3 18.1 C 0 km/h
2338 22-07-2011 15:41:02 17.4 C 6.82 g/m*3 17.4 C 0 km/h
2339 22-07-2011 15:53:02 19.7 C 7.13 g/m*3 19.7 C 0 km/h
2340 22-07-2011 16:05:02 20.8 C 6.88 g/m*3 20.8 C 0 km/h
2341 22-07-2011 16:17:03 21.1 C 6.26 g/m*3 21.1 C 0 km/h
2342 22-07-2011 16:29:03 20.7 C 6.48 g/m*3 20.7 C 0 km/h
2343 22-07-2011 16:41:03 22.8 C 6.71 g/m*3 22.8 C 0 km/h
2344 22-07-2011 16:53:02 23 C 6.58 g/m*3 23 C 0 km/h
2345 22-07-2011 17:05:03 23.2 C 6.03 g/m*3 23.2 C 0 km/h
2346 22-07-2011 17:17:02 22.1 C 5.66 g/m*3 22.1 C 0 km/h
2347 22-07-2011 17:29:02 22.3 C 6.52 g/m*3 22.3 C 0 km/h
2348 22-07-2011 17:41:03 19.8 C 6.66 g/m*3 19.8 C 0 km/h
2349 22-07-2011 17:53:02 19.6 C 7.09 g/m*3 19.6 C 0 km/h
2350 22-07-2011 18:05:02 19.4 C 6.67 g/m*3 19.4 C 0 km/h
Sensor: Nr:Datum:Temp:Abs-Feuchte:Windchill:Wind:
Aussen-T/F 2351 22-07-2011 18:17:01 19.4 C 6.67 g/m*3 19.4 C 0 km/h
2352 22-07-2011 18:29:01 19.4 C 6.67 g/m*3 19.4 C 0 km/h
2353 22-07-2011 18:41:02 19.4 C 6.67 g/m*3 19.4 C 0 km/h
2354 22-07-2011 18:53:02 19.4 C 6.67 g/m*3 19.4 C 0 km/h
2355 22-07-2011 19:05:02 19.4 C 6.67 g/m*3 19.4 C 0 km/h
2356 22-07-2011 19:17:02 19.4 C 6.67 g/m*3 19.4 C 0 km/h
2357 22-07-2011 19:29:02 19.4 C 6.67 g/m*3 19.4 C 0 km/h
2358 22-07-2011 19:41:02 17.9 C 6.72 g/m*3 17.9 C 0 km/h
2359 22-07-2011 19:53:02 17.8 C 6.68 g/m*3 17.8 C 0 km/h
2360 22-07-2011 20:05:02 17.8 C 6.53 g/m*3 17.8 C 0 km/h
2361 22-07-2011 20:17:02 17.7 C 6.64 g/m*3 17.7 C 0 km/h
2362 22-07-2011 20:29:02 17.3 C 6.48 g/m*3 17.3 C 0 km/h
2363 22-07-2011 20:41:02 16.8 C 6.86 g/m*3 16.8 C 0 km/h
2364 22-07-2011 20:53:02 16.8 C 6.72 g/m*3 16.8 C 0 km/h
2365 22-07-2011 21:05:02 16.4 C 6.98 g/m*3 16.4 C 0 km/h
2366 22-07-2011 21:17:02 16.3 C 6.94 g/m*3 16.3 C 0 km/h
2367 22-07-2011 21:29:02 16.1 C 6.85 g/m*3 16.1 C 0 km/h
2368 22-07-2011 21:41:02 16.1 C 6.72 g/m*3 16.1 C 0 km/h
2369 22-07-2011 21:53:02 16 C 6.27 g/m*3 16 C 0 km/h
2370 22-07-2011 22:06:02 16.1 C 6.31 g/m*3 16.1 C 0 km/h
2371 22-07-2011 22:18:02 16.1 C 6.31 g/m*3 16.1 C 0 km/h
2372 22-07-2011 22:30:02 16.1 C 6.31 g/m*3 16.1 C 0 km/h
2373 22-07-2011 22:42:02 15.7 C 6.56 g/m*3 15.7 C 0 km/h
2374 22-07-2011 22:54:02 15.4 C 6.57 g/m*3 15.4 C 0 km/h
2375 22-07-2011 23:06:02 15.4 C 6.44 g/m*3 15.4 C 0 km/h
Sensor: Nr:Datum:Temp:Abs-Feuchte:Windchill:Wind:
Aussen-T/F 2376 22-07-2011 23:18:02 15.3 C 6.4 g/m*3 15.3 C 0 km/h
2377 22-07-2011 23:30:02 15.4 C 6.44 g/m*3 15.4 C 0 km/h
2378 22-07-2011 23:42:02 15.4 C 6.44 g/m*3 15.4 C 0 km/h
2379 22-07-2011 23:54:02 15.1 C 6.58 g/m*3 15.1 C 0 km/h

Legende:
   Min
   Max


Maximal/Minimal-Werte vom 02.07.2011 - 22.07.2011

Sensor Min Max Avg
Temp
(Aussen-T/F)
8.2 °C
02-07-2011  03:33:04
33.4 °C
12-07-2011  14:07:02
18.16 °C
Abs-Feuchte
(Aussen-T/F)
4.16 g/m*3
15-07-2011  19:34:02
13.71 g/m*3
12-07-2011  19:31:02
8.33 g/m*3
Windchill
(Aussen-T/F)
8.2 C
02-07-2011  03:33:04
33.4 C
12-07-2011  14:07:02
18.16 C

Die Daten stammen von einer Davis Vantage Pro 2 Wetter-Station und werden unter Linux mit der Software wview2wettercgi und aufbereitet. Alle Angaben erfolgen ohne Gewähr für ihre Vollständigkeit oder Richtigkeit.
Kontakt: Rainer Krienke krienke@uni-koblenz.de . Meine Webseiten an der Uni Koblenz oder privat.
Version: $Revision: 0.78 $